<?xml version="1.0" encoding="UTF-8" standalone="no" ?>
<gpx xmlns="http://www.topografix.com/GPX/1/1" xmlns:xsi="http://www.w3.org/2001/XMLSchema-instance" xsi:schemaLocation="http://www.topografix.com/GPX/1/1 http://www.topografix.com/GPX/1/1/gpx.xsd" version="1.1" creator="VisuGPX - https://www.visugpx.com">
  <metadata>
    <name>chauve ht 24/09</name>
    <desc><![CDATA[fin d\'aprem, un ti chauve avec haute tension]]></desc>
  </metadata>
  <trk>
    <name><![CDATA[Chauve ht 24/09]]></name>
    <desc><![CDATA[(null)]]></desc>
    <trkseg>
      <trkpt lat="43.72971" lon="7.27796">
        <ele>105.418808</ele>
        <time>2011-09-24T14:14:16Z</time>
      </trkpt>
      <trkpt lat="43.72971" lon="7.27796">
        <ele>105.418808</ele>
        <time>2011-09-24T14:14:17Z</time>
      </trkpt>
      <trkpt lat="43.72971" lon="7.27796">
        <ele>105.418808</ele>
        <time>2011-09-24T14:14:54Z</time>
      </trkpt>
      <trkpt lat="43.7297" lon="7.27756">
        <ele>151.41872</ele>
        <time>2011-09-24T14:14:59Z</time>
      </trkpt>
      <trkpt lat="43.72969" lon="7.27738">
        <ele>152.418678</ele>
        <time>2011-09-24T14:15:01Z</time>
      </trkpt>
      <trkpt lat="43.72968" lon="7.27722">
        <ele>152.41864</ele>
        <time>2011-09-24T14:15:03Z</time>
      </trkpt>
      <trkpt lat="43.72967" lon="7.27709">
        <ele>152.418613</ele>
        <time>2011-09-24T14:15:05Z</time>
      </trkpt>
      <trkpt lat="43.72968" lon="7.27694">
        <ele>152.418583</ele>
        <time>2011-09-24T14:15:08Z</time>
      </trkpt>
      <trkpt lat="43.72978" lon="7.27682">
        <ele>151.418571</ele>
        <time>2011-09-24T14:15:11Z</time>
      </trkpt>
      <trkpt lat="43.72985" lon="7.27671">
        <ele>151.418556</ele>
        <time>2011-09-24T14:15:14Z</time>
      </trkpt>
      <trkpt lat="43.72994" lon="7.27655">
        <ele>151.418533</ele>
        <time>2011-09-24T14:15:17Z</time>
      </trkpt>
      <trkpt lat="43.73004" lon="7.27645">
        <ele>151.41853</ele>
        <time>2011-09-24T14:15:23Z</time>
      </trkpt>
      <trkpt lat="43.73014" lon="7.2764">
        <ele>151.41853</ele>
        <time>2011-09-24T14:15:25Z</time>
      </trkpt>
      <trkpt lat="43.73024" lon="7.27636">
        <ele>151.418533</ele>
        <time>2011-09-24T14:15:27Z</time>
      </trkpt>
      <trkpt lat="43.73028" lon="7.27634">
        <ele>151.418537</ele>
        <time>2011-09-24T14:15:28Z</time>
      </trkpt>
      <trkpt lat="43.73036" lon="7.27631">
        <ele>151.418541</ele>
        <time>2011-09-24T14:15:30Z</time>
      </trkpt>
      <trkpt lat="43.73046" lon="7.27627">
        <ele>151.418545</ele>
        <time>2011-09-24T14:15:32Z</time>
      </trkpt>
      <trkpt lat="43.73056" lon="7.27623">
        <ele>151.418549</ele>
        <time>2011-09-24T14:15:34Z</time>
      </trkpt>
      <trkpt lat="43.73065" lon="7.27621">
        <ele>151.41856</ele>
        <time>2011-09-24T14:15:36Z</time>
      </trkpt>
      <trkpt lat="43.73075" lon="7.27622">
        <ele>151.418571</ele>
        <time>2011-09-24T14:15:38Z</time>
      </trkpt>
      <trkpt lat="43.73085" lon="7.27623">
        <ele>151.418594</ele>
        <time>2011-09-24T14:15:40Z</time>
      </trkpt>
      <trkpt lat="43.7309" lon="7.27623">
        <ele>151.418598</ele>
        <time>2011-09-24T14:15:41Z</time>
      </trkpt>
      <trkpt lat="43.731" lon="7.27625">
        <ele>151.418613</ele>
        <time>2011-09-24T14:15:43Z</time>
      </trkpt>
      <trkpt lat="43.73109" lon="7.27626">
        <ele>151.418633</ele>
        <time>2011-09-24T14:15:45Z</time>
      </trkpt>
      <trkpt lat="43.73118" lon="7.27627">
        <ele>151.418648</ele>
        <time>2011-09-24T14:15:47Z</time>
      </trkpt>
      <trkpt lat="43.73128" lon="7.27628">
        <ele>152.418655</ele>
        <time>2011-09-24T14:15:49Z</time>
      </trkpt>
      <trkpt lat="43.73136" lon="7.27628">
        <ele>152.418671</ele>
        <time>2011-09-24T14:15:51Z</time>
      </trkpt>
      <trkpt lat="43.73149" lon="7.2763">
        <ele>152.418694</ele>
        <time>2011-09-24T14:15:54Z</time>
      </trkpt>
      <trkpt lat="43.73161" lon="7.27632">
        <ele>152.418716</ele>
        <time>2011-09-24T14:15:57Z</time>
      </trkpt>
      <trkpt lat="43.73174" lon="7.27635">
        <ele>152.418736</ele>
        <time>2011-09-24T14:15:59Z</time>
      </trkpt>
      <trkpt lat="43.7318" lon="7.27636">
        <ele>152.418747</ele>
        <time>2011-09-24T14:16:01Z</time>
      </trkpt>
      <trkpt lat="43.73192" lon="7.27641">
        <ele>152.41877</ele>
        <time>2011-09-24T14:16:05Z</time>
      </trkpt>
      <trkpt lat="43.73201" lon="7.27645">
        <ele>152.4188</ele>
        <time>2011-09-24T14:16:10Z</time>
      </trkpt>
      <trkpt lat="43.73211" lon="7.27649">
        <ele>153.418816</ele>
        <time>2011-09-24T14:16:13Z</time>
      </trkpt>
      <trkpt lat="43.73213" lon="7.2765">
        <ele>153.418823</ele>
        <time>2011-09-24T14:16:14Z</time>
      </trkpt>
      <trkpt lat="43.73222" lon="7.27656">
        <ele>153.41885</ele>
        <time>2011-09-24T14:16:17Z</time>
      </trkpt>
      <trkpt lat="43.73231" lon="7.27663">
        <ele>153.418873</ele>
        <time>2011-09-24T14:16:20Z</time>
      </trkpt>
      <trkpt lat="43.73238" lon="7.27668">
        <ele>153.418892</ele>
        <time>2011-09-24T14:16:22Z</time>
      </trkpt>
      <trkpt lat="43.73247" lon="7.27676">
        <ele>153.418926</ele>
        <time>2011-09-24T14:16:25Z</time>
      </trkpt>
      <trkpt lat="43.73255" lon="7.27685">
        <ele>153.418961</ele>
        <time>2011-09-24T14:16:28Z</time>
      </trkpt>
      <trkpt lat="43.73264" lon="7.27696">
        <ele>153.418987</ele>
        <time>2011-09-24T14:16:31Z</time>
      </trkpt>
      <trkpt lat="43.73274" lon="7.27706">
        <ele>153.419025</ele>
        <time>2011-09-24T14:16:34Z</time>
      </trkpt>
      <trkpt lat="43.73284" lon="7.27718">
        <ele>153.419067</ele>
        <time>2011-09-24T14:16:37Z</time>
      </trkpt>
      <trkpt lat="43.73319" lon="7.2776">
        <ele>153.419205</ele>
        <time>2011-09-24T14:17:00Z</time>
      </trkpt>
      <trkpt lat="43.73319" lon="7.2776">
        <ele>153.419205</ele>
        <time>2011-09-24T14:17:02Z</time>
      </trkpt>
      <trkpt lat="43.73334" lon="7.27776">
        <ele>154.419258</ele>
        <time>2011-09-24T14:17:08Z</time>
      </trkpt>
      <trkpt lat="43.73336" lon="7.27778">
        <ele>154.419266</ele>
        <time>2011-09-24T14:17:11Z</time>
      </trkpt>
      <trkpt lat="43.7336" lon="7.27799">
        <ele>156.419342</ele>
        <time>2011-09-24T14:17:20Z</time>
      </trkpt>
      <trkpt lat="43.73398" lon="7.27822">
        <ele>156.419441</ele>
        <time>2011-09-24T14:17:34Z</time>
      </trkpt>
      <trkpt lat="43.73424" lon="7.27848">
        <ele>158.419533</ele>
        <time>2011-09-24T14:17:49Z</time>
      </trkpt>
      <trkpt lat="43.73454" lon="7.27875">
        <ele>160.419632</ele>
        <time>2011-09-24T14:18:11Z</time>
      </trkpt>
      <trkpt lat="43.73494" lon="7.27907">
        <ele>161.419754</ele>
        <time>2011-09-24T14:18:59Z</time>
      </trkpt>
      <trkpt lat="43.73533" lon="7.27937">
        <ele>164.419872</ele>
        <time>2011-09-24T14:19:22Z</time>
      </trkpt>
      <trkpt lat="43.73561" lon="7.27949">
        <ele>163.419937</ele>
        <time>2011-09-24T14:19:32Z</time>
      </trkpt>
      <trkpt lat="43.7358" lon="7.2795">
        <ele>164.41996</ele>
        <time>2011-09-24T14:19:41Z</time>
      </trkpt>
      <trkpt lat="43.73592" lon="7.27947">
        <ele>164.419971</ele>
        <time>2011-09-24T14:19:47Z</time>
      </trkpt>
      <trkpt lat="43.73598" lon="7.27945">
        <ele>164.419975</ele>
        <time>2011-09-24T14:19:50Z</time>
      </trkpt>
      <trkpt lat="43.73616" lon="7.27941">
        <ele>164.419994</ele>
        <time>2011-09-24T14:19:54Z</time>
      </trkpt>
      <trkpt lat="43.73633" lon="7.27937">
        <ele>164.420006</ele>
        <time>2011-09-24T14:20:00Z</time>
      </trkpt>
      <trkpt lat="43.73642" lon="7.27936">
        <ele>163.420013</ele>
        <time>2011-09-24T14:20:04Z</time>
      </trkpt>
      <trkpt lat="43.73652" lon="7.27935">
        <ele>163.420029</ele>
        <time>2011-09-24T14:20:09Z</time>
      </trkpt>
      <trkpt lat="43.73667" lon="7.27931">
        <ele>163.420036</ele>
        <time>2011-09-24T14:20:15Z</time>
      </trkpt>
      <trkpt lat="43.73669" lon="7.2793">
        <ele>163.420036</ele>
        <time>2011-09-24T14:20:16Z</time>
      </trkpt>
      <trkpt lat="43.73678" lon="7.27926">
        <ele>163.420044</ele>
        <time>2011-09-24T14:20:20Z</time>
      </trkpt>
      <trkpt lat="43.73688" lon="7.27922">
        <ele>164.420052</ele>
        <time>2011-09-24T14:20:23Z</time>
      </trkpt>
      <trkpt lat="43.73699" lon="7.27918">
        <ele>165.420052</ele>
        <time>2011-09-24T14:20:27Z</time>
      </trkpt>
      <trkpt lat="43.7372" lon="7.27909">
        <ele>166.420067</ele>
        <time>2011-09-24T14:20:34Z</time>
      </trkpt>
      <trkpt lat="43.73722" lon="7.27908">
        <ele>167.420067</ele>
        <time>2011-09-24T14:20:42Z</time>
      </trkpt>
      <trkpt lat="43.73755" lon="7.27898">
        <ele>167.42009</ele>
        <time>2011-09-24T14:20:48Z</time>
      </trkpt>
      <trkpt lat="43.73783" lon="7.27888">
        <ele>168.420105</ele>
        <time>2011-09-24T14:20:59Z</time>
      </trkpt>
      <trkpt lat="43.73798" lon="7.27882">
        <ele>168.420113</ele>
        <time>2011-09-24T14:21:11Z</time>
      </trkpt>
      <trkpt lat="43.73816" lon="7.27876">
        <ele>169.42012</ele>
        <time>2011-09-24T14:21:20Z</time>
      </trkpt>
      <trkpt lat="43.73819" lon="7.27875">
        <ele>168.420128</ele>
        <time>2011-09-24T14:21:21Z</time>
      </trkpt>
      <trkpt lat="43.73835" lon="7.2787">
        <ele>169.420143</ele>
        <time>2011-09-24T14:21:28Z</time>
      </trkpt>
      <trkpt lat="43.73859" lon="7.27855">
        <ele>168.420139</ele>
        <time>2011-09-24T14:21:45Z</time>
      </trkpt>
      <trkpt lat="43.73869" lon="7.27848">
        <ele>168.420139</ele>
        <time>2011-09-24T14:21:48Z</time>
      </trkpt>
      <trkpt lat="43.73877" lon="7.27844">
        <ele>169.420139</ele>
        <time>2011-09-24T14:21:59Z</time>
      </trkpt>
      <trkpt lat="43.73898" lon="7.27831">
        <ele>170.420139</ele>
        <time>2011-09-24T14:22:00Z</time>
      </trkpt>
      <trkpt lat="43.739" lon="7.2783">
        <ele>170.420143</ele>
        <time>2011-09-24T14:22:01Z</time>
      </trkpt>
      <trkpt lat="43.73913" lon="7.27818">
        <ele>169.420135</ele>
        <time>2011-09-24T14:22:07Z</time>
      </trkpt>
      <trkpt lat="43.73915" lon="7.27816">
        <ele>169.420135</ele>
        <time>2011-09-24T14:22:10Z</time>
      </trkpt>
      <trkpt lat="43.73927" lon="7.27796">
        <ele>170.420105</ele>
        <time>2011-09-24T14:22:25Z</time>
      </trkpt>
      <trkpt lat="43.7392" lon="7.27785">
        <ele>171.420074</ele>
        <time>2011-09-24T14:22:32Z</time>
      </trkpt>
      <trkpt lat="43.73914" lon="7.27774">
        <ele>173.420044</ele>
        <time>2011-09-24T14:22:39Z</time>
      </trkpt>
      <trkpt lat="43.73887" lon="7.27735">
        <ele>176.419922</ele>
        <time>2011-09-24T14:23:01Z</time>
      </trkpt>
      <trkpt lat="43.73882" lon="7.27724">
        <ele>177.419891</ele>
        <time>2011-09-24T14:23:09Z</time>
      </trkpt>
      <trkpt lat="43.73887" lon="7.27678">
        <ele>179.4198</ele>
        <time>2011-09-24T14:23:31Z</time>
      </trkpt>
      <trkpt lat="43.73895" lon="7.27667">
        <ele>179.419788</ele>
        <time>2011-09-24T14:23:35Z</time>
      </trkpt>
      <trkpt lat="43.73904" lon="7.27654">
        <ele>178.419769</ele>
        <time>2011-09-24T14:23:40Z</time>
      </trkpt>
      <trkpt lat="43.7391" lon="7.27643">
        <ele>177.419762</ele>
        <time>2011-09-24T14:23:44Z</time>
      </trkpt>
      <trkpt lat="43.73915" lon="7.27631">
        <ele>176.419739</ele>
        <time>2011-09-24T14:23:49Z</time>
      </trkpt>
      <trkpt lat="43.73912" lon="7.27588">
        <ele>175.419643</ele>
        <time>2011-09-24T14:24:07Z</time>
      </trkpt>
      <trkpt lat="43.73906" lon="7.27574">
        <ele>176.419601</ele>
        <time>2011-09-24T14:24:14Z</time>
      </trkpt>
      <trkpt lat="43.73905" lon="7.27572">
        <ele>176.419601</ele>
        <time>2011-09-24T14:24:15Z</time>
      </trkpt>
      <trkpt lat="43.73897" lon="7.27556">
        <ele>176.419556</ele>
        <time>2011-09-24T14:24:22Z</time>
      </trkpt>
      <trkpt lat="43.73895" lon="7.27553">
        <ele>176.419544</ele>
        <time>2011-09-24T14:24:26Z</time>
      </trkpt>
      <trkpt lat="43.73888" lon="7.27543">
        <ele>177.41951</ele>
        <time>2011-09-24T14:24:30Z</time>
      </trkpt>
      <trkpt lat="43.73888" lon="7.27542">
        <ele>177.419514</ele>
        <time>2011-09-24T14:24:31Z</time>
      </trkpt>
      <trkpt lat="43.73873" lon="7.27522">
        <ele>178.419449</ele>
        <time>2011-09-24T14:24:41Z</time>
      </trkpt>
      <trkpt lat="43.73868" lon="7.27509">
        <ele>179.419411</ele>
        <time>2011-09-24T14:24:45Z</time>
      </trkpt>
      <trkpt lat="43.73868" lon="7.27509">
        <ele>179.419411</ele>
        <time>2011-09-24T14:24:46Z</time>
      </trkpt>
      <trkpt lat="43.73863" lon="7.27492">
        <ele>181.419373</ele>
        <time>2011-09-24T14:24:53Z</time>
      </trkpt>
      <trkpt lat="43.73863" lon="7.2749">
        <ele>181.419365</ele>
        <time>2011-09-24T14:24:54Z</time>
      </trkpt>
      <trkpt lat="43.73864" lon="7.27475">
        <ele>182.419334</ele>
        <time>2011-09-24T14:25:03Z</time>
      </trkpt>
      <trkpt lat="43.7387" lon="7.27456">
        <ele>182.4193</ele>
        <time>2011-09-24T14:25:10Z</time>
      </trkpt>
      <trkpt lat="43.73871" lon="7.27452">
        <ele>182.419296</ele>
        <time>2011-09-24T14:25:11Z</time>
      </trkpt>
      <trkpt lat="43.73876" lon="7.27441">
        <ele>183.419281</ele>
        <time>2011-09-24T14:25:15Z</time>
      </trkpt>
      <trkpt lat="43.73886" lon="7.27422">
        <ele>183.419254</ele>
        <time>2011-09-24T14:25:24Z</time>
      </trkpt>
      <trkpt lat="43.73884" lon="7.27413">
        <ele>185.419235</ele>
        <time>2011-09-24T14:25:29Z</time>
      </trkpt>
      <trkpt lat="43.73875" lon="7.27413">
        <ele>186.41922</ele>
        <time>2011-09-24T14:25:34Z</time>
      </trkpt>
      <trkpt lat="43.73865" lon="7.27417">
        <ele>187.419212</ele>
        <time>2011-09-24T14:25:39Z</time>
      </trkpt>
      <trkpt lat="43.73854" lon="7.27417">
        <ele>189.419197</ele>
        <time>2011-09-24T14:25:44Z</time>
      </trkpt>
      <trkpt lat="43.73847" lon="7.27427">
        <ele>190.419209</ele>
        <time>2011-09-24T14:25:49Z</time>
      </trkpt>
      <trkpt lat="43.73853" lon="7.2744">
        <ele>193.419247</ele>
        <time>2011-09-24T14:25:54Z</time>
      </trkpt>
      <trkpt lat="43.73861" lon="7.27451">
        <ele>194.419281</ele>
        <time>2011-09-24T14:25:57Z</time>
      </trkpt>
      <trkpt lat="43.73874" lon="7.27455">
        <ele>197.419308</ele>
        <time>2011-09-24T14:25:59Z</time>
      </trkpt>
      <trkpt lat="43.73883" lon="7.27458">
        <ele>199.419323</ele>
        <time>2011-09-24T14:26:01Z</time>
      </trkpt>
      <trkpt lat="43.73891" lon="7.27463">
        <ele>201.419346</ele>
        <time>2011-09-24T14:26:04Z</time>
      </trkpt>
      <trkpt lat="43.73902" lon="7.27469">
        <ele>203.419373</ele>
        <time>2011-09-24T14:26:07Z</time>
      </trkpt>
      <trkpt lat="43.73911" lon="7.27476">
        <ele>204.419403</ele>
        <time>2011-09-24T14:26:10Z</time>
      </trkpt>
      <trkpt lat="43.73926" lon="7.27484">
        <ele>208.419441</ele>
        <time>2011-09-24T14:26:17Z</time>
      </trkpt>
      <trkpt lat="43.73942" lon="7.27491">
        <ele>213.419476</ele>
        <time>2011-09-24T14:26:23Z</time>
      </trkpt>
      <trkpt lat="43.73955" lon="7.27499">
        <ele>215.41951</ele>
        <time>2011-09-24T14:26:28Z</time>
      </trkpt>
      <trkpt lat="43.73967" lon="7.27504">
        <ele>218.41954</ele>
        <time>2011-09-24T14:26:35Z</time>
      </trkpt>
      <trkpt lat="43.74004" lon="7.27512">
        <ele>223.419609</ele>
        <time>2011-09-24T14:26:51Z</time>
      </trkpt>
      <trkpt lat="43.74015" lon="7.2751">
        <ele>224.419617</ele>
        <time>2011-09-24T14:26:57Z</time>
      </trkpt>
      <trkpt lat="43.74032" lon="7.27504">
        <ele>228.419624</ele>
        <time>2011-09-24T14:27:06Z</time>
      </trkpt>
      <trkpt lat="43.74064" lon="7.27499">
        <ele>232.419662</ele>
        <time>2011-09-24T14:27:22Z</time>
      </trkpt>
      <trkpt lat="43.74075" lon="7.27498">
        <ele>233.41967</ele>
        <time>2011-09-24T14:27:29Z</time>
      </trkpt>
      <trkpt lat="43.74084" lon="7.27496">
        <ele>234.419678</ele>
        <time>2011-09-24T14:27:34Z</time>
      </trkpt>
      <trkpt lat="43.74089" lon="7.27494">
        <ele>234.419682</ele>
        <time>2011-09-24T14:27:36Z</time>
      </trkpt>
      <trkpt lat="43.74114" lon="7.27486">
        <ele>238.419701</ele>
        <time>2011-09-24T14:27:47Z</time>
      </trkpt>
      <trkpt lat="43.74141" lon="7.27479">
        <ele>241.419724</ele>
        <time>2011-09-24T14:27:58Z</time>
      </trkpt>
      <trkpt lat="43.74159" lon="7.27475">
        <ele>245.419739</ele>
        <time>2011-09-24T14:28:04Z</time>
      </trkpt>
      <trkpt lat="43.74168" lon="7.27472">
        <ele>247.419746</ele>
        <time>2011-09-24T14:28:07Z</time>
      </trkpt>
      <trkpt lat="43.74179" lon="7.27468">
        <ele>249.41975</ele>
        <time>2011-09-24T14:28:10Z</time>
      </trkpt>
      <trkpt lat="43.74195" lon="7.27462">
        <ele>251.419762</ele>
        <time>2011-09-24T14:28:15Z</time>
      </trkpt>
      <trkpt lat="43.74211" lon="7.27453">
        <ele>253.419762</ele>
        <time>2011-09-24T14:28:21Z</time>
      </trkpt>
      <trkpt lat="43.74223" lon="7.27445">
        <ele>254.419762</ele>
        <time>2011-09-24T14:28:25Z</time>
      </trkpt>
      <trkpt lat="43.74232" lon="7.27437">
        <ele>256.419754</ele>
        <time>2011-09-24T14:28:29Z</time>
      </trkpt>
      <trkpt lat="43.7424" lon="7.27429">
        <ele>257.41975</ele>
        <time>2011-09-24T14:28:32Z</time>
      </trkpt>
      <trkpt lat="43.74249" lon="7.27421">
        <ele>258.419746</ele>
        <time>2011-09-24T14:28:36Z</time>
      </trkpt>
      <trkpt lat="43.74257" lon="7.27414">
        <ele>260.419739</ele>
        <time>2011-09-24T14:28:39Z</time>
      </trkpt>
      <trkpt lat="43.74265" lon="7.27405">
        <ele>262.419731</ele>
        <time>2011-09-24T14:28:43Z</time>
      </trkpt>
      <trkpt lat="43.74268" lon="7.274">
        <ele>262.419724</ele>
        <time>2011-09-24T14:28:49Z</time>
      </trkpt>
      <trkpt lat="43.74277" lon="7.27386">
        <ele>261.419712</ele>
        <time>2011-09-24T14:29:00Z</time>
      </trkpt>
      <trkpt lat="43.74279" lon="7.27384">
        <ele>261.419708</ele>
        <time>2011-09-24T14:29:06Z</time>
      </trkpt>
      <trkpt lat="43.74286" lon="7.27376">
        <ele>261.419701</ele>
        <time>2011-09-24T14:29:09Z</time>
      </trkpt>
      <trkpt lat="43.74294" lon="7.2737">
        <ele>262.419701</ele>
        <time>2011-09-24T14:29:13Z</time>
      </trkpt>
      <trkpt lat="43.74299" lon="7.27366">
        <ele>262.419693</ele>
        <time>2011-09-24T14:29:15Z</time>
      </trkpt>
      <trkpt lat="43.74308" lon="7.27358">
        <ele>264.419693</ele>
        <time>2011-09-24T14:29:17Z</time>
      </trkpt>
      <trkpt lat="43.74318" lon="7.27349">
        <ele>265.419689</ele>
        <time>2011-09-24T14:29:19Z</time>
      </trkpt>
      <trkpt lat="43.74327" lon="7.2734">
        <ele>266.419685</ele>
        <time>2011-09-24T14:29:22Z</time>
      </trkpt>
      <trkpt lat="43.74335" lon="7.27331">
        <ele>266.41967</ele>
        <time>2011-09-24T14:29:24Z</time>
      </trkpt>
      <trkpt lat="43.74343" lon="7.2732">
        <ele>267.419659</ele>
        <time>2011-09-24T14:29:27Z</time>
      </trkpt>
      <trkpt lat="43.74351" lon="7.27308">
        <ele>267.419643</ele>
        <time>2011-09-24T14:29:30Z</time>
      </trkpt>
      <trkpt lat="43.74357" lon="7.27296">
        <ele>268.419632</ele>
        <time>2011-09-24T14:29:33Z</time>
      </trkpt>
      <trkpt lat="43.74363" lon="7.27284">
        <ele>268.419609</ele>
        <time>2011-09-24T14:29:36Z</time>
      </trkpt>
      <trkpt lat="43.74369" lon="7.27273">
        <ele>269.419594</ele>
        <time>2011-09-24T14:29:39Z</time>
      </trkpt>
      <trkpt lat="43.74374" lon="7.27262">
        <ele>270.419579</ele>
        <time>2011-09-24T14:29:42Z</time>
      </trkpt>
      <trkpt lat="43.7438" lon="7.27248">
        <ele>271.419556</ele>
        <time>2011-09-24T14:29:46Z</time>
      </trkpt>
      <trkpt lat="43.74385" lon="7.27235">
        <ele>270.419533</ele>
        <time>2011-09-24T14:29:50Z</time>
      </trkpt>
      <trkpt lat="43.74389" lon="7.2722">
        <ele>270.41951</ele>
        <time>2011-09-24T14:29:54Z</time>
      </trkpt>
      <trkpt lat="43.74392" lon="7.27207">
        <ele>270.419487</ele>
        <time>2011-09-24T14:29:58Z</time>
      </trkpt>
      <trkpt lat="43.74393" lon="7.27193">
        <ele>272.419456</ele>
        <time>2011-09-24T14:30:02Z</time>
      </trkpt>
      <trkpt lat="43.74394" lon="7.27177">
        <ele>272.419422</ele>
        <time>2011-09-24T14:30:06Z</time>
      </trkpt>
      <trkpt lat="43.74396" lon="7.27163">
        <ele>272.419399</ele>
        <time>2011-09-24T14:30:10Z</time>
      </trkpt>
      <trkpt lat="43.74397" lon="7.27159">
        <ele>272.419388</ele>
        <time>2011-09-24T14:30:11Z</time>
      </trkpt>
      <trkpt lat="43.744" lon="7.27146">
        <ele>273.419365</ele>
        <time>2011-09-24T14:30:15Z</time>
      </trkpt>
      <trkpt lat="43.74404" lon="7.27131">
        <ele>274.419342</ele>
        <time>2011-09-24T14:30:19Z</time>
      </trkpt>
      <trkpt lat="43.74405" lon="7.27128">
        <ele>274.419334</ele>
        <time>2011-09-24T14:30:20Z</time>
      </trkpt>
      <trkpt lat="43.74408" lon="7.27112">
        <ele>276.419304</ele>
        <time>2011-09-24T14:30:27Z</time>
      </trkpt>
      <trkpt lat="43.74408" lon="7.27109">
        <ele>276.419304</ele>
        <time>2011-09-24T14:30:28Z</time>
      </trkpt>
      <trkpt lat="43.74412" lon="7.27096">
        <ele>277.419277</ele>
        <time>2011-09-24T14:30:33Z</time>
      </trkpt>
      <trkpt lat="43.74416" lon="7.27076">
        <ele>277.419243</ele>
        <time>2011-09-24T14:30:40Z</time>
      </trkpt>
      <trkpt lat="43.74424" lon="7.27028">
        <ele>279.419147</ele>
        <time>2011-09-24T14:30:59Z</time>
      </trkpt>
      <trkpt lat="43.74429" lon="7.26995">
        <ele>280.419083</ele>
        <time>2011-09-24T14:31:12Z</time>
      </trkpt>
      <trkpt lat="43.7444" lon="7.2695">
        <ele>281.419006</ele>
        <time>2011-09-24T14:31:21Z</time>
      </trkpt>
      <trkpt lat="43.74444" lon="7.26934">
        <ele>281.418976</ele>
        <time>2011-09-24T14:31:23Z</time>
      </trkpt>
      <trkpt lat="43.74447" lon="7.26919">
        <ele>281.418945</ele>
        <time>2011-09-24T14:31:25Z</time>
      </trkpt>
      <trkpt lat="43.74449" lon="7.26904">
        <ele>282.418919</ele>
        <time>2011-09-24T14:31:27Z</time>
      </trkpt>
      <trkpt lat="43.74451" lon="7.26889">
        <ele>282.418892</ele>
        <time>2011-09-24T14:31:29Z</time>
      </trkpt>
      <trkpt lat="43.74451" lon="7.26869">
        <ele>282.418846</ele>
        <time>2011-09-24T14:31:32Z</time>
      </trkpt>
      <trkpt lat="43.74451" lon="7.26856">
        <ele>282.418823</ele>
        <time>2011-09-24T14:31:34Z</time>
      </trkpt>
      <trkpt lat="43.74451" lon="7.26842">
        <ele>283.418793</ele>
        <time>2011-09-24T14:31:36Z</time>
      </trkpt>
      <trkpt lat="43.7445" lon="7.26823">
        <ele>283.418751</ele>
        <time>2011-09-24T14:31:39Z</time>
      </trkpt>
      <trkpt lat="43.74449" lon="7.26811">
        <ele>283.41872</ele>
        <time>2011-09-24T14:31:41Z</time>
      </trkpt>
      <trkpt lat="43.74446" lon="7.26792">
        <ele>283.418674</ele>
        <time>2011-09-24T14:31:44Z</time>
      </trkpt>
      <trkpt lat="43.74443" lon="7.26778">
        <ele>283.41864</ele>
        <time>2011-09-24T14:31:49Z</time>
      </trkpt>
      <trkpt lat="43.74438" lon="7.26763">
        <ele>283.418602</ele>
        <time>2011-09-24T14:31:52Z</time>
      </trkpt>
      <trkpt lat="43.74437" lon="7.26759">
        <ele>283.418594</ele>
        <time>2011-09-24T14:31:53Z</time>
      </trkpt>
      <trkpt lat="43.74432" lon="7.26743">
        <ele>283.418556</ele>
        <time>2011-09-24T14:31:56Z</time>
      </trkpt>
      <trkpt lat="43.74427" lon="7.26729">
        <ele>283.418514</ele>
        <time>2011-09-24T14:31:58Z</time>
      </trkpt>
      <trkpt lat="43.74424" lon="7.26716">
        <ele>283.418488</ele>
        <time>2011-09-24T14:32:00Z</time>
      </trkpt>
      <trkpt lat="43.74421" lon="7.26707">
        <ele>283.418461</ele>
        <time>2011-09-24T14:32:01Z</time>
      </trkpt>
      <trkpt lat="43.74416" lon="7.26691">
        <ele>282.418419</ele>
        <time>2011-09-24T14:32:03Z</time>
      </trkpt>
      <trkpt lat="43.74412" lon="7.26676">
        <ele>282.418381</ele>
        <time>2011-09-24T14:32:05Z</time>
      </trkpt>
      <trkpt lat="43.7441" lon="7.26669">
        <ele>282.418365</ele>
        <time>2011-09-24T14:32:06Z</time>
      </trkpt>
      <trkpt lat="43.74406" lon="7.26654">
        <ele>282.418327</ele>
        <time>2011-09-24T14:32:08Z</time>
      </trkpt>
      <trkpt lat="43.74402" lon="7.2664">
        <ele>282.418289</ele>
        <time>2011-09-24T14:32:10Z</time>
      </trkpt>
      <trkpt lat="43.744" lon="7.26627">
        <ele>282.418266</ele>
        <time>2011-09-24T14:32:12Z</time>
      </trkpt>
      <trkpt lat="43.74398" lon="7.26613">
        <ele>281.418228</ele>
        <time>2011-09-24T14:32:14Z</time>
      </trkpt>
      <trkpt lat="43.74396" lon="7.26599">
        <ele>281.418198</ele>
        <time>2011-09-24T14:32:16Z</time>
      </trkpt>
      <trkpt lat="43.74394" lon="7.26584">
        <ele>281.418159</ele>
        <time>2011-09-24T14:32:18Z</time>
      </trkpt>
      <trkpt lat="43.74392" lon="7.26567">
        <ele>281.418121</ele>
        <time>2011-09-24T14:32:20Z</time>
      </trkpt>
      <trkpt lat="43.7439" lon="7.26551">
        <ele>280.418091</ele>
        <time>2011-09-24T14:32:22Z</time>
      </trkpt>
      <trkpt lat="43.74387" lon="7.26535">
        <ele>280.418045</ele>
        <time>2011-09-24T14:32:24Z</time>
      </trkpt>
      <trkpt lat="43.74382" lon="7.26515">
        <ele>280.417999</ele>
        <time>2011-09-24T14:32:26Z</time>
      </trkpt>
      <trkpt lat="43.74377" lon="7.26498">
        <ele>280.417953</ele>
        <time>2011-09-24T14:32:28Z</time>
      </trkpt>
      <trkpt lat="43.74373" lon="7.26478">
        <ele>279.417908</ele>
        <time>2011-09-24T14:32:30Z</time>
      </trkpt>
      <trkpt lat="43.7437" lon="7.26461">
        <ele>279.41787</ele>
        <time>2011-09-24T14:32:32Z</time>
      </trkpt>
      <trkpt lat="43.74369" lon="7.26441">
        <ele>279.41782</ele>
        <time>2011-09-24T14:32:34Z</time>
      </trkpt>
      <trkpt lat="43.74367" lon="7.26424">
        <ele>279.417786</ele>
        <time>2011-09-24T14:32:36Z</time>
      </trkpt>
      <trkpt lat="43.7438" lon="7.2642">
        <ele>279.417793</ele>
        <time>2011-09-24T14:32:38Z</time>
      </trkpt>
      <trkpt lat="43.74394" lon="7.26416">
        <ele>279.417805</ele>
        <time>2011-09-24T14:32:41Z</time>
      </trkpt>
      <trkpt lat="43.74399" lon="7.26415">
        <ele>280.417812</ele>
        <time>2011-09-24T14:32:42Z</time>
      </trkpt>
      <trkpt lat="43.74411" lon="7.26411">
        <ele>281.41782</ele>
        <time>2011-09-24T14:32:44Z</time>
      </trkpt>
      <trkpt lat="43.74422" lon="7.26408">
        <ele>283.417828</ele>
        <time>2011-09-24T14:32:46Z</time>
      </trkpt>
      <trkpt lat="43.74434" lon="7.26406">
        <ele>285.417839</ele>
        <time>2011-09-24T14:32:48Z</time>
      </trkpt>
      <trkpt lat="43.74446" lon="7.26404">
        <ele>288.417854</ele>
        <time>2011-09-24T14:32:50Z</time>
      </trkpt>
      <trkpt lat="43.74452" lon="7.26402">
        <ele>288.417854</ele>
        <time>2011-09-24T14:32:51Z</time>
      </trkpt>
      <trkpt lat="43.74465" lon="7.26396">
        <ele>291.417862</ele>
        <time>2011-09-24T14:32:53Z</time>
      </trkpt>
      <trkpt lat="43.74479" lon="7.26392">
        <ele>292.41787</ele>
        <time>2011-09-24T14:32:55Z</time>
      </trkpt>
      <trkpt lat="43.74494" lon="7.26391">
        <ele>294.417885</ele>
        <time>2011-09-24T14:32:57Z</time>
      </trkpt>
      <trkpt lat="43.74509" lon="7.26399">
        <ele>295.417927</ele>
        <time>2011-09-24T14:32:59Z</time>
      </trkpt>
      <trkpt lat="43.74518" lon="7.26403">
        <ele>296.417946</ele>
        <time>2011-09-24T14:33:00Z</time>
      </trkpt>
      <trkpt lat="43.74534" lon="7.26413">
        <ele>297.417988</ele>
        <time>2011-09-24T14:33:02Z</time>
      </trkpt>
      <trkpt lat="43.74542" lon="7.26418">
        <ele>297.418011</ele>
        <time>2011-09-24T14:33:03Z</time>
      </trkpt>
      <trkpt lat="43.7456" lon="7.26426">
        <ele>298.418056</ele>
        <time>2011-09-24T14:33:05Z</time>
      </trkpt>
      <trkpt lat="43.74575" lon="7.26432">
        <ele>300.418083</ele>
        <time>2011-09-24T14:33:07Z</time>
      </trkpt>
      <trkpt lat="43.7459" lon="7.26437">
        <ele>301.418114</ele>
        <time>2011-09-24T14:33:09Z</time>
      </trkpt>
      <trkpt lat="43.74603" lon="7.2644">
        <ele>302.418144</ele>
        <time>2011-09-24T14:33:11Z</time>
      </trkpt>
      <trkpt lat="43.74617" lon="7.2644">
        <ele>303.418159</ele>
        <time>2011-09-24T14:33:13Z</time>
      </trkpt>
      <trkpt lat="43.74629" lon="7.26437">
        <ele>304.418171</ele>
        <time>2011-09-24T14:33:15Z</time>
      </trkpt>
      <trkpt lat="43.74641" lon="7.26435">
        <ele>305.418182</ele>
        <time>2011-09-24T14:33:17Z</time>
      </trkpt>
      <trkpt lat="43.74653" lon="7.26433">
        <ele>305.418198</ele>
        <time>2011-09-24T14:33:19Z</time>
      </trkpt>
      <trkpt lat="43.74665" lon="7.26432">
        <ele>306.418209</ele>
        <time>2011-09-24T14:33:21Z</time>
      </trkpt>
      <trkpt lat="43.74676" lon="7.26433">
        <ele>307.418224</ele>
        <time>2011-09-24T14:33:23Z</time>
      </trkpt>
      <trkpt lat="43.74686" lon="7.26435">
        <ele>307.418243</ele>
        <time>2011-09-24T14:33:25Z</time>
      </trkpt>
      <trkpt lat="43.74697" lon="7.26436">
        <ele>307.418259</ele>
        <time>2011-09-24T14:33:27Z</time>
      </trkpt>
      <trkpt lat="43.74707" lon="7.26436">
        <ele>307.418278</ele>
        <time>2011-09-24T14:33:29Z</time>
      </trkpt>
      <trkpt lat="43.7472" lon="7.26438">
        <ele>308.418297</ele>
        <time>2011-09-24T14:33:32Z</time>
      </trkpt>
      <trkpt lat="43.74729" lon="7.26439">
        <ele>308.418312</ele>
        <time>2011-09-24T14:33:34Z</time>
      </trkpt>
      <trkpt lat="43.74739" lon="7.26441">
        <ele>309.418331</ele>
        <time>2011-09-24T14:33:36Z</time>
      </trkpt>
      <trkpt lat="43.74748" lon="7.26443">
        <ele>310.418343</ele>
        <time>2011-09-24T14:33:38Z</time>
      </trkpt>
      <trkpt lat="43.74759" lon="7.26445">
        <ele>312.418365</ele>
        <time>2011-09-24T14:33:40Z</time>
      </trkpt>
      <trkpt lat="43.74769" lon="7.26448">
        <ele>312.418388</ele>
        <time>2011-09-24T14:33:42Z</time>
      </trkpt>
      <trkpt lat="43.74779" lon="7.26451">
        <ele>314.418407</ele>
        <time>2011-09-24T14:33:44Z</time>
      </trkpt>
      <trkpt lat="43.7479" lon="7.26454">
        <ele>315.418427</ele>
        <time>2011-09-24T14:33:46Z</time>
      </trkpt>
      <trkpt lat="43.748" lon="7.26458">
        <ele>315.418449</ele>
        <time>2011-09-24T14:33:48Z</time>
      </trkpt>
      <trkpt lat="43.7481" lon="7.26462">
        <ele>316.418468</ele>
        <time>2011-09-24T14:33:50Z</time>
      </trkpt>
      <trkpt lat="43.7482" lon="7.26467">
        <ele>317.418495</ele>
        <time>2011-09-24T14:33:52Z</time>
      </trkpt>
      <trkpt lat="43.74829" lon="7.26473">
        <ele>317.418518</ele>
        <time>2011-09-24T14:33:54Z</time>
      </trkpt>
      <trkpt lat="43.74839" lon="7.26479">
        <ele>317.418549</ele>
        <time>2011-09-24T14:33:56Z</time>
      </trkpt>
      <trkpt lat="43.74849" lon="7.26484">
        <ele>319.418571</ele>
        <time>2011-09-24T14:33:58Z</time>
      </trkpt>
      <trkpt lat="43.74859" lon="7.26489">
        <ele>320.418594</ele>
        <time>2011-09-24T14:34:00Z</time>
      </trkpt>
      <trkpt lat="43.74869" lon="7.26493">
        <ele>320.418621</ele>
        <time>2011-09-24T14:34:02Z</time>
      </trkpt>
      <trkpt lat="43.74879" lon="7.26497">
        <ele>320.418644</ele>
        <time>2011-09-24T14:34:04Z</time>
      </trkpt>
      <trkpt lat="43.74889" lon="7.26502">
        <ele>321.418663</ele>
        <time>2011-09-24T14:34:06Z</time>
      </trkpt>
      <trkpt lat="43.74898" lon="7.26508">
        <ele>321.418694</ele>
        <time>2011-09-24T14:34:08Z</time>
      </trkpt>
      <trkpt lat="43.74905" lon="7.26516">
        <ele>322.418716</ele>
        <time>2011-09-24T14:34:10Z</time>
      </trkpt>
      <trkpt lat="43.74913" lon="7.26525">
        <ele>324.418747</ele>
        <time>2011-09-24T14:34:12Z</time>
      </trkpt>
      <trkpt lat="43.74921" lon="7.26535">
        <ele>325.418777</ele>
        <time>2011-09-24T14:34:14Z</time>
      </trkpt>
      <trkpt lat="43.74931" lon="7.26544">
        <ele>327.418812</ele>
        <time>2011-09-24T14:34:16Z</time>
      </trkpt>
      <trkpt lat="43.7494" lon="7.26552">
        <ele>328.418839</ele>
        <time>2011-09-24T14:34:18Z</time>
      </trkpt>
      <trkpt lat="43.7495" lon="7.26559">
        <ele>329.418869</ele>
        <time>2011-09-24T14:34:20Z</time>
      </trkpt>
      <trkpt lat="43.74965" lon="7.26562">
        <ele>329.4189</ele>
        <time>2011-09-24T14:34:23Z</time>
      </trkpt>
      <trkpt lat="43.74974" lon="7.26567">
        <ele>330.418919</ele>
        <time>2011-09-24T14:34:25Z</time>
      </trkpt>
      <trkpt lat="43.74985" lon="7.2657">
        <ele>331.418938</ele>
        <time>2011-09-24T14:34:27Z</time>
      </trkpt>
      <trkpt lat="43.74997" lon="7.26573">
        <ele>333.418961</ele>
        <time>2011-09-24T14:34:29Z</time>
      </trkpt>
      <trkpt lat="43.75009" lon="7.26575">
        <ele>334.418983</ele>
        <time>2011-09-24T14:34:31Z</time>
      </trkpt>
      <trkpt lat="43.75021" lon="7.26576">
        <ele>334.418999</ele>
        <time>2011-09-24T14:34:33Z</time>
      </trkpt>
      <trkpt lat="43.75034" lon="7.26572">
        <ele>336.419014</ele>
        <time>2011-09-24T14:34:35Z</time>
      </trkpt>
      <trkpt lat="43.75046" lon="7.26567">
        <ele>337.419018</ele>
        <time>2011-09-24T14:34:37Z</time>
      </trkpt>
      <trkpt lat="43.7506" lon="7.26563">
        <ele>338.419029</ele>
        <time>2011-09-24T14:34:39Z</time>
      </trkpt>
      <trkpt lat="43.75073" lon="7.26566">
        <ele>339.419052</ele>
        <time>2011-09-24T14:34:41Z</time>
      </trkpt>
      <trkpt lat="43.75082" lon="7.26571">
        <ele>339.419075</ele>
        <time>2011-09-24T14:34:42Z</time>
      </trkpt>
      <trkpt lat="43.75093" lon="7.26574">
        <ele>340.419098</ele>
        <time>2011-09-24T14:34:43Z</time>
      </trkpt>
      <trkpt lat="43.75107" lon="7.26582">
        <ele>342.419132</ele>
        <time>2011-09-24T14:34:45Z</time>
      </trkpt>
      <trkpt lat="43.75119" lon="7.26588">
        <ele>343.419167</ele>
        <time>2011-09-24T14:34:47Z</time>
      </trkpt>
      <trkpt lat="43.75132" lon="7.26595">
        <ele>346.419193</ele>
        <time>2011-09-24T14:34:49Z</time>
      </trkpt>
      <trkpt lat="43.75147" lon="7.26602">
        <ele>350.419228</ele>
        <time>2011-09-24T14:34:51Z</time>
      </trkpt>
      <trkpt lat="43.75158" lon="7.26611">
        <ele>351.419266</ele>
        <time>2011-09-24T14:34:53Z</time>
      </trkpt>
      <trkpt lat="43.75166" lon="7.26624">
        <ele>353.419304</ele>
        <time>2011-09-24T14:34:55Z</time>
      </trkpt>
      <trkpt lat="43.7517" lon="7.26631">
        <ele>353.419323</ele>
        <time>2011-09-24T14:34:56Z</time>
      </trkpt>
      <trkpt lat="43.75172" lon="7.26649">
        <ele>354.419365</ele>
        <time>2011-09-24T14:34:58Z</time>
      </trkpt>
      <trkpt lat="43.75176" lon="7.26665">
        <ele>355.419403</ele>
        <time>2011-09-24T14:35:00Z</time>
      </trkpt>
      <trkpt lat="43.75183" lon="7.26682">
        <ele>357.419449</ele>
        <time>2011-09-24T14:35:02Z</time>
      </trkpt>
      <trkpt lat="43.7519" lon="7.26698">
        <ele>358.419495</ele>
        <time>2011-09-24T14:35:04Z</time>
      </trkpt>
      <trkpt lat="43.75195" lon="7.26714">
        <ele>358.419537</ele>
        <time>2011-09-24T14:35:06Z</time>
      </trkpt>
      <trkpt lat="43.752" lon="7.2673">
        <ele>358.419575</ele>
        <time>2011-09-24T14:35:08Z</time>
      </trkpt>
      <trkpt lat="43.75204" lon="7.26742">
        <ele>359.419609</ele>
        <time>2011-09-24T14:35:10Z</time>
      </trkpt>
      <trkpt lat="43.75215" lon="7.26741">
        <ele>360.419621</ele>
        <time>2011-09-24T14:35:14Z</time>
      </trkpt>
      <trkpt lat="43.75224" lon="7.26733">
        <ele>360.419609</ele>
        <time>2011-09-24T14:35:17Z</time>
      </trkpt>
      <trkpt lat="43.75229" lon="7.26721">
        <ele>361.419594</ele>
        <time>2011-09-24T14:35:19Z</time>
      </trkpt>
      <trkpt lat="43.75233" lon="7.2671">
        <ele>361.419575</ele>
        <time>2011-09-24T14:35:21Z</time>
      </trkpt>
      <trkpt lat="43.75238" lon="7.26697">
        <ele>362.419556</ele>
        <time>2011-09-24T14:35:23Z</time>
      </trkpt>
      <trkpt lat="43.75242" lon="7.26685">
        <ele>363.419533</ele>
        <time>2011-09-24T14:35:25Z</time>
      </trkpt>
      <trkpt lat="43.75246" lon="7.26673">
        <ele>363.419518</ele>
        <time>2011-09-24T14:35:27Z</time>
      </trkpt>
      <trkpt lat="43.75251" lon="7.26662">
        <ele>363.419502</ele>
        <time>2011-09-24T14:35:29Z</time>
      </trkpt>
      <trkpt lat="43.75255" lon="7.26651">
        <ele>363.419479</ele>
        <time>2011-09-24T14:35:31Z</time>
      </trkpt>
      <trkpt lat="43.7526" lon="7.2664">
        <ele>363.419464</ele>
        <time>2011-09-24T14:35:33Z</time>
      </trkpt>
      <trkpt lat="43.75266" lon="7.26625">
        <ele>363.419441</ele>
        <time>2011-09-24T14:35:36Z</time>
      </trkpt>
      <trkpt lat="43.75271" lon="7.26612">
        <ele>364.419418</ele>
        <time>2011-09-24T14:35:39Z</time>
      </trkpt>
      <trkpt lat="43.75289" lon="7.26569">
        <ele>365.419353</ele>
        <time>2011-09-24T14:36:04Z</time>
      </trkpt>
      <trkpt lat="43.75307" lon="7.2654">
        <ele>368.419319</ele>
        <time>2011-09-24T14:36:16Z</time>
      </trkpt>
      <trkpt lat="43.75314" lon="7.26532">
        <ele>369.419312</ele>
        <time>2011-09-24T14:36:20Z</time>
      </trkpt>
      <trkpt lat="43.75339" lon="7.26499">
        <ele>370.419273</ele>
        <time>2011-09-24T14:36:34Z</time>
      </trkpt>
      <trkpt lat="43.75348" lon="7.26491">
        <ele>371.419266</ele>
        <time>2011-09-24T14:36:39Z</time>
      </trkpt>
      <trkpt lat="43.75361" lon="7.26479">
        <ele>371.419258</ele>
        <time>2011-09-24T14:36:46Z</time>
      </trkpt>
      <trkpt lat="43.75387" lon="7.26462">
        <ele>372.419262</ele>
        <time>2011-09-24T14:37:02Z</time>
      </trkpt>
      <trkpt lat="43.75415" lon="7.26457">
        <ele>379.419289</ele>
        <time>2011-09-24T14:37:24Z</time>
      </trkpt>
      <trkpt lat="43.75441" lon="7.26446">
        <ele>384.419304</ele>
        <time>2011-09-24T14:37:39Z</time>
      </trkpt>
      <trkpt lat="43.75457" lon="7.26433">
        <ele>385.419296</ele>
        <time>2011-09-24T14:37:47Z</time>
      </trkpt>
      <trkpt lat="43.75469" lon="7.26417">
        <ele>384.419281</ele>
        <time>2011-09-24T14:37:53Z</time>
      </trkpt>
      <trkpt lat="43.75479" lon="7.264">
        <ele>385.419254</ele>
        <time>2011-09-24T14:37:59Z</time>
      </trkpt>
      <trkpt lat="43.75493" lon="7.26377">
        <ele>385.419228</ele>
        <time>2011-09-24T14:38:06Z</time>
      </trkpt>
      <trkpt lat="43.755" lon="7.26366">
        <ele>385.419212</ele>
        <time>2011-09-24T14:38:09Z</time>
      </trkpt>
      <trkpt lat="43.75506" lon="7.26353">
        <ele>386.419193</ele>
        <time>2011-09-24T14:38:12Z</time>
      </trkpt>
      <trkpt lat="43.75513" lon="7.2634">
        <ele>386.419174</ele>
        <time>2011-09-24T14:38:15Z</time>
      </trkpt>
      <trkpt lat="43.75519" lon="7.26327">
        <ele>386.419159</ele>
        <time>2011-09-24T14:38:18Z</time>
      </trkpt>
      <trkpt lat="43.75526" lon="7.26313">
        <ele>386.419132</ele>
        <time>2011-09-24T14:38:21Z</time>
      </trkpt>
      <trkpt lat="43.75532" lon="7.263">
        <ele>386.419121</ele>
        <time>2011-09-24T14:38:24Z</time>
      </trkpt>
      <trkpt lat="43.75538" lon="7.26288">
        <ele>387.419102</ele>
        <time>2011-09-24T14:38:27Z</time>
      </trkpt>
      <trkpt lat="43.75545" lon="7.26278">
        <ele>387.419086</ele>
        <time>2011-09-24T14:38:30Z</time>
      </trkpt>
      <trkpt lat="43.75554" lon="7.26269">
        <ele>387.419079</ele>
        <time>2011-09-24T14:38:33Z</time>
      </trkpt>
      <trkpt lat="43.75562" lon="7.26261">
        <ele>387.419075</ele>
        <time>2011-09-24T14:38:36Z</time>
      </trkpt>
      <trkpt lat="43.75571" lon="7.26251">
        <ele>387.419067</ele>
        <time>2011-09-24T14:38:40Z</time>
      </trkpt>
      <trkpt lat="43.7558" lon="7.26244">
        <ele>388.41906</ele>
        <time>2011-09-24T14:38:44Z</time>
      </trkpt>
      <trkpt lat="43.75591" lon="7.26238">
        <ele>390.419067</ele>
        <time>2011-09-24T14:38:48Z</time>
      </trkpt>
      <trkpt lat="43.756" lon="7.26234">
        <ele>391.419067</ele>
        <time>2011-09-24T14:38:51Z</time>
      </trkpt>
      <trkpt lat="43.75609" lon="7.26229">
        <ele>393.419067</ele>
        <time>2011-09-24T14:38:54Z</time>
      </trkpt>
      <trkpt lat="43.75618" lon="7.26224">
        <ele>394.419075</ele>
        <time>2011-09-24T14:38:57Z</time>
      </trkpt>
      <trkpt lat="43.75628" lon="7.26221">
        <ele>395.419083</ele>
        <time>2011-09-24T14:39:00Z</time>
      </trkpt>
      <trkpt lat="43.75637" lon="7.26218">
        <ele>395.419083</ele>
        <time>2011-09-24T14:39:03Z</time>
      </trkpt>
      <trkpt lat="43.75646" lon="7.26214">
        <ele>396.41909</ele>
        <time>2011-09-24T14:39:06Z</time>
      </trkpt>
      <trkpt lat="43.75656" lon="7.2621">
        <ele>397.419094</ele>
        <time>2011-09-24T14:39:09Z</time>
      </trkpt>
      <trkpt lat="43.75667" lon="7.26206">
        <ele>398.419102</ele>
        <time>2011-09-24T14:39:12Z</time>
      </trkpt>
      <trkpt lat="43.75678" lon="7.26202">
        <ele>399.419106</ele>
        <time>2011-09-24T14:39:15Z</time>
      </trkpt>
      <trkpt lat="43.75687" lon="7.262">
        <ele>399.419113</ele>
        <time>2011-09-24T14:39:18Z</time>
      </trkpt>
      <trkpt lat="43.75697" lon="7.26196">
        <ele>400.419121</ele>
        <time>2011-09-24T14:39:24Z</time>
      </trkpt>
      <trkpt lat="43.75706" lon="7.26191">
        <ele>401.419121</ele>
        <time>2011-09-24T14:39:29Z</time>
      </trkpt>
      <trkpt lat="43.75731" lon="7.26181">
        <ele>406.419136</ele>
        <time>2011-09-24T14:39:38Z</time>
      </trkpt>
      <trkpt lat="43.75741" lon="7.26175">
        <ele>407.41914</ele>
        <time>2011-09-24T14:39:41Z</time>
      </trkpt>
      <trkpt lat="43.7575" lon="7.26169">
        <ele>408.419136</ele>
        <time>2011-09-24T14:39:44Z</time>
      </trkpt>
      <trkpt lat="43.75767" lon="7.26155">
        <ele>410.419128</ele>
        <time>2011-09-24T14:39:51Z</time>
      </trkpt>
      <trkpt lat="43.75777" lon="7.26146">
        <ele>410.419128</ele>
        <time>2011-09-24T14:39:55Z</time>
      </trkpt>
      <trkpt lat="43.75786" lon="7.26136">
        <ele>411.419113</ele>
        <time>2011-09-24T14:39:59Z</time>
      </trkpt>
      <trkpt lat="43.75802" lon="7.26121">
        <ele>411.419102</ele>
        <time>2011-09-24T14:40:06Z</time>
      </trkpt>
      <trkpt lat="43.75821" lon="7.2611">
        <ele>411.419106</ele>
        <time>2011-09-24T14:40:17Z</time>
      </trkpt>
      <trkpt lat="43.75831" lon="7.26105">
        <ele>412.419109</ele>
        <time>2011-09-24T14:40:23Z</time>
      </trkpt>
      <trkpt lat="43.7584" lon="7.26101">
        <ele>413.419113</ele>
        <time>2011-09-24T14:40:29Z</time>
      </trkpt>
      <trkpt lat="43.75856" lon="7.26096">
        <ele>416.419128</ele>
        <time>2011-09-24T14:40:39Z</time>
      </trkpt>
      <trkpt lat="43.75882" lon="7.26087">
        <ele>422.419144</ele>
        <time>2011-09-24T14:40:55Z</time>
      </trkpt>
      <trkpt lat="43.75902" lon="7.26079">
        <ele>423.419155</ele>
        <time>2011-09-24T14:41:04Z</time>
      </trkpt>
      <trkpt lat="43.75933" lon="7.26068">
        <ele>426.419174</ele>
        <time>2011-09-24T14:41:16Z</time>
      </trkpt>
      <trkpt lat="43.75942" lon="7.26065">
        <ele>428.419174</ele>
        <time>2011-09-24T14:41:22Z</time>
      </trkpt>
      <trkpt lat="43.75951" lon="7.26063">
        <ele>428.419186</ele>
        <time>2011-09-24T14:41:27Z</time>
      </trkpt>
      <trkpt lat="43.75964" lon="7.26059">
        <ele>430.419193</ele>
        <time>2011-09-24T14:41:33Z</time>
      </trkpt>
      <trkpt lat="43.75975" lon="7.26057">
        <ele>431.419205</ele>
        <time>2011-09-24T14:41:37Z</time>
      </trkpt>
      <trkpt lat="43.75984" lon="7.26054">
        <ele>432.419212</ele>
        <time>2011-09-24T14:41:40Z</time>
      </trkpt>
      <trkpt lat="43.75995" lon="7.26051">
        <ele>433.41922</ele>
        <time>2011-09-24T14:41:43Z</time>
      </trkpt>
      <trkpt lat="43.76018" lon="7.26043">
        <ele>433.419235</ele>
        <time>2011-09-24T14:41:50Z</time>
      </trkpt>
      <trkpt lat="43.76027" lon="7.26037">
        <ele>433.419239</ele>
        <time>2011-09-24T14:41:53Z</time>
      </trkpt>
      <trkpt lat="43.76037" lon="7.2603">
        <ele>434.419235</ele>
        <time>2011-09-24T14:41:57Z</time>
      </trkpt>
      <trkpt lat="43.76049" lon="7.2602">
        <ele>436.419228</ele>
        <time>2011-09-24T14:42:03Z</time>
      </trkpt>
      <trkpt lat="43.76057" lon="7.26012">
        <ele>436.419228</ele>
        <time>2011-09-24T14:42:07Z</time>
      </trkpt>
      <trkpt lat="43.76065" lon="7.26005">
        <ele>436.41922</ele>
        <time>2011-09-24T14:42:12Z</time>
      </trkpt>
      <trkpt lat="43.76078" lon="7.25997">
        <ele>437.419224</ele>
        <time>2011-09-24T14:42:20Z</time>
      </trkpt>
      <trkpt lat="43.76088" lon="7.25996">
        <ele>437.419235</ele>
        <time>2011-09-24T14:42:26Z</time>
      </trkpt>
      <trkpt lat="43.76098" lon="7.25999">
        <ele>437.41925</ele>
        <time>2011-09-24T14:42:32Z</time>
      </trkpt>
      <trkpt lat="43.76128" lon="7.26017">
        <ele>444.419331</ele>
        <time>2011-09-24T14:42:54Z</time>
      </trkpt>
      <trkpt lat="43.76146" lon="7.26027">
        <ele>447.419376</ele>
        <time>2011-09-24T14:43:08Z</time>
      </trkpt>
      <trkpt lat="43.76163" lon="7.26034">
        <ele>448.419418</ele>
        <time>2011-09-24T14:43:23Z</time>
      </trkpt>
      <trkpt lat="43.76177" lon="7.26048">
        <ele>450.419464</ele>
        <time>2011-09-24T14:43:32Z</time>
      </trkpt>
      <trkpt lat="43.762" lon="7.26069">
        <ele>453.41954</ele>
        <time>2011-09-24T14:43:47Z</time>
      </trkpt>
      <trkpt lat="43.76215" lon="7.26084">
        <ele>456.419594</ele>
        <time>2011-09-24T14:43:59Z</time>
      </trkpt>
      <trkpt lat="43.76225" lon="7.26098">
        <ele>457.419636</ele>
        <time>2011-09-24T14:44:11Z</time>
      </trkpt>
      <trkpt lat="43.76232" lon="7.26109">
        <ele>460.41967</ele>
        <time>2011-09-24T14:44:15Z</time>
      </trkpt>
      <trkpt lat="43.76247" lon="7.26129">
        <ele>466.419731</ele>
        <time>2011-09-24T14:44:22Z</time>
      </trkpt>
      <trkpt lat="43.76256" lon="7.2614">
        <ele>468.419769</ele>
        <time>2011-09-24T14:44:26Z</time>
      </trkpt>
      <trkpt lat="43.76274" lon="7.26161">
        <ele>469.419834</ele>
        <time>2011-09-24T14:44:36Z</time>
      </trkpt>
      <trkpt lat="43.76281" lon="7.26168">
        <ele>468.419861</ele>
        <time>2011-09-24T14:44:42Z</time>
      </trkpt>
      <trkpt lat="43.76288" lon="7.26178">
        <ele>469.419891</ele>
        <time>2011-09-24T14:44:49Z</time>
      </trkpt>
      <trkpt lat="43.763" lon="7.26192">
        <ele>472.419937</ele>
        <time>2011-09-24T14:44:58Z</time>
      </trkpt>
      <trkpt lat="43.76306" lon="7.26202">
        <ele>474.419968</ele>
        <time>2011-09-24T14:45:03Z</time>
      </trkpt>
      <trkpt lat="43.76311" lon="7.26212">
        <ele>476.419994</ele>
        <time>2011-09-24T14:45:08Z</time>
      </trkpt>
      <trkpt lat="43.76316" lon="7.26226">
        <ele>478.420029</ele>
        <time>2011-09-24T14:45:15Z</time>
      </trkpt>
      <trkpt lat="43.76326" lon="7.26247">
        <ele>481.420086</ele>
        <time>2011-09-24T14:45:27Z</time>
      </trkpt>
      <trkpt lat="43.76337" lon="7.26261">
        <ele>483.420135</ele>
        <time>2011-09-24T14:45:38Z</time>
      </trkpt>
      <trkpt lat="43.76352" lon="7.26266">
        <ele>485.420166</ele>
        <time>2011-09-24T14:45:51Z</time>
      </trkpt>
      <trkpt lat="43.76366" lon="7.26268">
        <ele>487.420185</ele>
        <time>2011-09-24T14:46:07Z</time>
      </trkpt>
      <trkpt lat="43.76379" lon="7.26271">
        <ele>487.420212</ele>
        <time>2011-09-24T14:46:17Z</time>
      </trkpt>
      <trkpt lat="43.76394" lon="7.26283">
        <ele>489.420258</ele>
        <time>2011-09-24T14:46:28Z</time>
      </trkpt>
      <trkpt lat="43.76384" lon="7.26307">
        <ele>495.420296</ele>
        <time>2011-09-24T14:46:47Z</time>
      </trkpt>
      <trkpt lat="43.76366" lon="7.26318">
        <ele>500.420296</ele>
        <time>2011-09-24T14:47:07Z</time>
      </trkpt>
      <trkpt lat="43.7634" lon="7.26331">
        <ele>505.420288</ele>
        <time>2011-09-24T14:47:23Z</time>
      </trkpt>
      <trkpt lat="43.76332" lon="7.26339">
        <ele>508.420296</ele>
        <time>2011-09-24T14:47:31Z</time>
      </trkpt>
      <trkpt lat="43.76333" lon="7.26352">
        <ele>511.420326</ele>
        <time>2011-09-24T14:47:37Z</time>
      </trkpt>
      <trkpt lat="43.76343" lon="7.26352">
        <ele>514.420334</ele>
        <time>2011-09-24T14:47:45Z</time>
      </trkpt>
      <trkpt lat="43.76353" lon="7.26347">
        <ele>518.420338</ele>
        <time>2011-09-24T14:47:54Z</time>
      </trkpt>
      <trkpt lat="43.76364" lon="7.26344">
        <ele>521.420349</ele>
        <time>2011-09-24T14:48:01Z</time>
      </trkpt>
      <trkpt lat="43.76374" lon="7.26345">
        <ele>520.420364</ele>
        <time>2011-09-24T14:48:07Z</time>
      </trkpt>
      <trkpt lat="43.76384" lon="7.26344">
        <ele>518.420372</ele>
        <time>2011-09-24T14:48:14Z</time>
      </trkpt>
      <trkpt lat="43.76395" lon="7.26342">
        <ele>517.420387</ele>
        <time>2011-09-24T14:48:21Z</time>
      </trkpt>
      <trkpt lat="43.76408" lon="7.26341">
        <ele>518.420403</ele>
        <time>2011-09-24T14:48:28Z</time>
      </trkpt>
      <trkpt lat="43.76417" lon="7.26341">
        <ele>519.420414</ele>
        <time>2011-09-24T14:48:37Z</time>
      </trkpt>
      <trkpt lat="43.76426" lon="7.2634">
        <ele>520.420422</ele>
        <time>2011-09-24T14:48:42Z</time>
      </trkpt>
      <trkpt lat="43.76436" lon="7.26338">
        <ele>520.420433</ele>
        <time>2011-09-24T14:48:47Z</time>
      </trkpt>
      <trkpt lat="43.76445" lon="7.26335">
        <ele>521.420441</ele>
        <time>2011-09-24T14:48:51Z</time>
      </trkpt>
      <trkpt lat="43.76454" lon="7.26331">
        <ele>522.420441</ele>
        <time>2011-09-24T14:48:55Z</time>
      </trkpt>
      <trkpt lat="43.76473" lon="7.2632">
        <ele>523.420448</ele>
        <time>2011-09-24T14:49:05Z</time>
      </trkpt>
      <trkpt lat="43.76484" lon="7.26314">
        <ele>524.420448</ele>
        <time>2011-09-24T14:49:10Z</time>
      </trkpt>
      <trkpt lat="43.76492" lon="7.26309">
        <ele>523.420448</ele>
        <time>2011-09-24T14:49:16Z</time>
      </trkpt>
      <trkpt lat="43.76503" lon="7.26298">
        <ele>525.420441</ele>
        <time>2011-09-24T14:49:27Z</time>
      </trkpt>
      <trkpt lat="43.7651" lon="7.26289">
        <ele>525.420433</ele>
        <time>2011-09-24T14:49:32Z</time>
      </trkpt>
      <trkpt lat="43.76526" lon="7.26252">
        <ele>525.420372</ele>
        <time>2011-09-24T14:49:50Z</time>
      </trkpt>
      <trkpt lat="43.76509" lon="7.26218">
        <ele>524.42028</ele>
        <time>2011-09-24T14:50:08Z</time>
      </trkpt>
      <trkpt lat="43.76492" lon="7.26197">
        <ele>525.420212</ele>
        <time>2011-09-24T14:50:21Z</time>
      </trkpt>
      <trkpt lat="43.76485" lon="7.26187">
        <ele>525.420181</ele>
        <time>2011-09-24T14:50:27Z</time>
      </trkpt>
      <trkpt lat="43.76467" lon="7.26158">
        <ele>525.420094</ele>
        <time>2011-09-24T14:50:37Z</time>
      </trkpt>
      <trkpt lat="43.76464" lon="7.26145">
        <ele>524.420063</ele>
        <time>2011-09-24T14:50:41Z</time>
      </trkpt>
      <trkpt lat="43.76463" lon="7.26138">
        <ele>523.420048</ele>
        <time>2011-09-24T14:50:43Z</time>
      </trkpt>
      <trkpt lat="43.76458" lon="7.26128">
        <ele>521.420013</ele>
        <time>2011-09-24T14:50:50Z</time>
      </trkpt>
      <trkpt lat="43.76451" lon="7.26122">
        <ele>521.419998</ele>
        <time>2011-09-24T14:51:00Z</time>
      </trkpt>
      <trkpt lat="43.76442" lon="7.26116">
        <ele>524.419975</ele>
        <time>2011-09-24T14:51:10Z</time>
      </trkpt>
      <trkpt lat="43.76453" lon="7.26122">
        <ele>527.419998</ele>
        <time>2011-09-24T14:51:21Z</time>
      </trkpt>
      <trkpt lat="43.76462" lon="7.26126">
        <ele>528.420021</ele>
        <time>2011-09-24T14:51:29Z</time>
      </trkpt>
      <trkpt lat="43.76471" lon="7.26131">
        <ele>531.420044</ele>
        <time>2011-09-24T14:51:36Z</time>
      </trkpt>
      <trkpt lat="43.76479" lon="7.26138">
        <ele>534.420067</ele>
        <time>2011-09-24T14:51:42Z</time>
      </trkpt>
      <trkpt lat="43.76481" lon="7.26139">
        <ele>535.420074</ele>
        <time>2011-09-24T14:51:43Z</time>
      </trkpt>
      <trkpt lat="43.76491" lon="7.26146">
        <ele>536.420097</ele>
        <time>2011-09-24T14:51:48Z</time>
      </trkpt>
      <trkpt lat="43.76493" lon="7.26147">
        <ele>537.420105</ele>
        <time>2011-09-24T14:51:49Z</time>
      </trkpt>
      <trkpt lat="43.76502" lon="7.2615">
        <ele>537.420124</ele>
        <time>2011-09-24T14:51:53Z</time>
      </trkpt>
      <trkpt lat="43.76511" lon="7.26153">
        <ele>537.420147</ele>
        <time>2011-09-24T14:51:57Z</time>
      </trkpt>
      <trkpt lat="43.76519" lon="7.26157">
        <ele>537.420162</ele>
        <time>2011-09-24T14:52:01Z</time>
      </trkpt>
      <trkpt lat="43.76529" lon="7.26161">
        <ele>536.420181</ele>
        <time>2011-09-24T14:52:06Z</time>
      </trkpt>
      <trkpt lat="43.76543" lon="7.26168">
        <ele>534.420219</ele>
        <time>2011-09-24T14:52:13Z</time>
      </trkpt>
      <trkpt lat="43.76552" lon="7.26173">
        <ele>532.420246</ele>
        <time>2011-09-24T14:52:18Z</time>
      </trkpt>
      <trkpt lat="43.76561" lon="7.26177">
        <ele>532.420265</ele>
        <time>2011-09-24T14:52:23Z</time>
      </trkpt>
      <trkpt lat="43.76571" lon="7.26183">
        <ele>532.420288</ele>
        <time>2011-09-24T14:52:29Z</time>
      </trkpt>
      <trkpt lat="43.76576" lon="7.26187">
        <ele>532.420303</ele>
        <time>2011-09-24T14:52:33Z</time>
      </trkpt>
      <trkpt lat="43.7659" lon="7.26199">
        <ele>529.420349</ele>
        <time>2011-09-24T14:52:43Z</time>
      </trkpt>
      <trkpt lat="43.76596" lon="7.26204">
        <ele>528.420364</ele>
        <time>2011-09-24T14:52:48Z</time>
      </trkpt>
      <trkpt lat="43.76607" lon="7.26215">
        <ele>529.420406</ele>
        <time>2011-09-24T14:52:55Z</time>
      </trkpt>
      <trkpt lat="43.76615" lon="7.26223">
        <ele>527.420433</ele>
        <time>2011-09-24T14:53:00Z</time>
      </trkpt>
      <trkpt lat="43.76616" lon="7.26225">
        <ele>527.420441</ele>
        <time>2011-09-24T14:53:01Z</time>
      </trkpt>
      <trkpt lat="43.76624" lon="7.26235">
        <ele>526.420471</ele>
        <time>2011-09-24T14:53:06Z</time>
      </trkpt>
      <trkpt lat="43.76624" lon="7.26242">
        <ele>526.420486</ele>
        <time>2011-09-24T14:53:10Z</time>
      </trkpt>
      <trkpt lat="43.76623" lon="7.26255">
        <ele>525.420509</ele>
        <time>2011-09-24T14:53:16Z</time>
      </trkpt>
      <trkpt lat="43.76614" lon="7.26262">
        <ele>525.420517</ele>
        <time>2011-09-24T14:53:22Z</time>
      </trkpt>
      <trkpt lat="43.76606" lon="7.26267">
        <ele>524.420517</ele>
        <time>2011-09-24T14:53:27Z</time>
      </trkpt>
      <trkpt lat="43.76601" lon="7.2627">
        <ele>522.420517</ele>
        <time>2011-09-24T14:53:31Z</time>
      </trkpt>
      <trkpt lat="43.76591" lon="7.26279">
        <ele>519.420517</ele>
        <time>2011-09-24T14:53:37Z</time>
      </trkpt>
      <trkpt lat="43.76582" lon="7.26286">
        <ele>516.420525</ele>
        <time>2011-09-24T14:53:42Z</time>
      </trkpt>
      <trkpt lat="43.76573" lon="7.26293">
        <ele>514.420525</ele>
        <time>2011-09-24T14:53:47Z</time>
      </trkpt>
      <trkpt lat="43.76565" lon="7.26302">
        <ele>512.420532</ele>
        <time>2011-09-24T14:53:52Z</time>
      </trkpt>
      <trkpt lat="43.76564" lon="7.26304">
        <ele>512.420536</ele>
        <time>2011-09-24T14:53:56Z</time>
      </trkpt>
      <trkpt lat="43.76557" lon="7.26314">
        <ele>511.420544</ele>
        <time>2011-09-24T14:53:58Z</time>
      </trkpt>
      <trkpt lat="43.76552" lon="7.26327">
        <ele>510.420567</ele>
        <time>2011-09-24T14:54:03Z</time>
      </trkpt>
      <trkpt lat="43.76547" lon="7.26339">
        <ele>510.420586</ele>
        <time>2011-09-24T14:54:08Z</time>
      </trkpt>
      <trkpt lat="43.76541" lon="7.2635">
        <ele>508.420601</ele>
        <time>2011-09-24T14:54:14Z</time>
      </trkpt>
      <trkpt lat="43.76536" lon="7.26361">
        <ele>504.420616</ele>
        <time>2011-09-24T14:54:19Z</time>
      </trkpt>
      <trkpt lat="43.76533" lon="7.26373">
        <ele>502.420639</ele>
        <time>2011-09-24T14:54:24Z</time>
      </trkpt>
      <trkpt lat="43.76527" lon="7.26388">
        <ele>497.420662</ele>
        <time>2011-09-24T14:54:31Z</time>
      </trkpt>
      <trkpt lat="43.76522" lon="7.26398">
        <ele>494.420677</ele>
        <time>2011-09-24T14:54:36Z</time>
      </trkpt>
      <trkpt lat="43.7651" lon="7.26414">
        <ele>496.420696</ele>
        <time>2011-09-24T14:54:46Z</time>
      </trkpt>
      <trkpt lat="43.76519" lon="7.26427">
        <ele>500.420738</ele>
        <time>2011-09-24T14:54:58Z</time>
      </trkpt>
      <trkpt lat="43.7653" lon="7.26422">
        <ele>502.420738</ele>
        <time>2011-09-24T14:55:03Z</time>
      </trkpt>
      <trkpt lat="43.76539" lon="7.26417">
        <ele>502.420746</ele>
        <time>2011-09-24T14:55:08Z</time>
      </trkpt>
      <trkpt lat="43.76543" lon="7.26414">
        <ele>502.420738</ele>
        <time>2011-09-24T14:55:10Z</time>
      </trkpt>
      <trkpt lat="43.76556" lon="7.26404">
        <ele>505.420738</ele>
        <time>2011-09-24T14:55:18Z</time>
      </trkpt>
      <trkpt lat="43.76564" lon="7.26398">
        <ele>508.420738</ele>
        <time>2011-09-24T14:55:23Z</time>
      </trkpt>
      <trkpt lat="43.76575" lon="7.26392">
        <ele>509.420738</ele>
        <time>2011-09-24T14:55:29Z</time>
      </trkpt>
      <trkpt lat="43.76584" lon="7.26386">
        <ele>510.420738</ele>
        <time>2011-09-24T14:55:34Z</time>
      </trkpt>
      <trkpt lat="43.76593" lon="7.2638">
        <ele>512.420734</ele>
        <time>2011-09-24T14:55:39Z</time>
      </trkpt>
      <trkpt lat="43.76607" lon="7.26368">
        <ele>515.420731</ele>
        <time>2011-09-24T14:55:50Z</time>
      </trkpt>
      <trkpt lat="43.76623" lon="7.2636">
        <ele>517.420734</ele>
        <time>2011-09-24T14:56:02Z</time>
      </trkpt>
      <trkpt lat="43.76632" lon="7.26353">
        <ele>519.420734</ele>
        <time>2011-09-24T14:56:08Z</time>
      </trkpt>
      <trkpt lat="43.7664" lon="7.26344">
        <ele>520.420723</ele>
        <time>2011-09-24T14:56:11Z</time>
      </trkpt>
      <trkpt lat="43.7665" lon="7.26336">
        <ele>521.420719</ele>
        <time>2011-09-24T14:56:15Z</time>
      </trkpt>
      <trkpt lat="43.76661" lon="7.26327">
        <ele>523.420715</ele>
        <time>2011-09-24T14:56:20Z</time>
      </trkpt>
      <trkpt lat="43.76663" lon="7.26324">
        <ele>524.420715</ele>
        <time>2011-09-24T14:56:21Z</time>
      </trkpt>
      <trkpt lat="43.76672" lon="7.26317">
        <ele>525.420708</ele>
        <time>2011-09-24T14:56:25Z</time>
      </trkpt>
      <trkpt lat="43.76686" lon="7.26305">
        <ele>526.420704</ele>
        <time>2011-09-24T14:56:31Z</time>
      </trkpt>
      <trkpt lat="43.76688" lon="7.26303">
        <ele>527.4207</ele>
        <time>2011-09-24T14:56:32Z</time>
      </trkpt>
      <trkpt lat="43.76697" lon="7.26296">
        <ele>528.4207</ele>
        <time>2011-09-24T14:56:36Z</time>
      </trkpt>
      <trkpt lat="43.76701" lon="7.26292">
        <ele>528.4207</ele>
        <time>2011-09-24T14:56:38Z</time>
      </trkpt>
      <trkpt lat="43.76713" lon="7.26277">
        <ele>530.420681</ele>
        <time>2011-09-24T14:56:44Z</time>
      </trkpt>
      <trkpt lat="43.76721" lon="7.26268">
        <ele>531.420677</ele>
        <time>2011-09-24T14:56:48Z</time>
      </trkpt>
      <trkpt lat="43.76729" lon="7.26257">
        <ele>531.420662</ele>
        <time>2011-09-24T14:56:52Z</time>
      </trkpt>
      <trkpt lat="43.76731" lon="7.26255">
        <ele>532.420662</ele>
        <time>2011-09-24T14:56:53Z</time>
      </trkpt>
      <trkpt lat="43.76739" lon="7.26245">
        <ele>533.420654</ele>
        <time>2011-09-24T14:56:57Z</time>
      </trkpt>
      <trkpt lat="43.7674" lon="7.26243">
        <ele>533.420647</ele>
        <time>2011-09-24T14:56:58Z</time>
      </trkpt>
      <trkpt lat="43.76746" lon="7.26231">
        <ele>533.420631</ele>
        <time>2011-09-24T14:57:02Z</time>
      </trkpt>
      <trkpt lat="43.76748" lon="7.26228">
        <ele>533.420628</ele>
        <time>2011-09-24T14:57:03Z</time>
      </trkpt>
      <trkpt lat="43.76752" lon="7.26206">
        <ele>535.420586</ele>
        <time>2011-09-24T14:57:10Z</time>
      </trkpt>
      <trkpt lat="43.76752" lon="7.26203">
        <ele>535.420582</ele>
        <time>2011-09-24T14:57:12Z</time>
      </trkpt>
      <trkpt lat="43.76746" lon="7.26181">
        <ele>539.420525</ele>
        <time>2011-09-24T14:57:24Z</time>
      </trkpt>
      <trkpt lat="43.76741" lon="7.26168">
        <ele>538.420494</ele>
        <time>2011-09-24T14:57:34Z</time>
      </trkpt>
      <trkpt lat="43.76737" lon="7.26155">
        <ele>538.420456</ele>
        <time>2011-09-24T14:57:41Z</time>
      </trkpt>
      <trkpt lat="43.76733" lon="7.26142">
        <ele>538.420429</ele>
        <time>2011-09-24T14:57:45Z</time>
      </trkpt>
      <trkpt lat="43.76731" lon="7.26136">
        <ele>538.42041</ele>
        <time>2011-09-24T14:57:47Z</time>
      </trkpt>
      <trkpt lat="43.76724" lon="7.26124">
        <ele>539.420376</ele>
        <time>2011-09-24T14:57:53Z</time>
      </trkpt>
      <trkpt lat="43.76718" lon="7.26112">
        <ele>539.420341</ele>
        <time>2011-09-24T14:57:57Z</time>
      </trkpt>
      <trkpt lat="43.76712" lon="7.26101">
        <ele>539.420311</ele>
        <time>2011-09-24T14:58:01Z</time>
      </trkpt>
      <trkpt lat="43.76706" lon="7.26091">
        <ele>539.42028</ele>
        <time>2011-09-24T14:58:04Z</time>
      </trkpt>
      <trkpt lat="43.767" lon="7.26081">
        <ele>540.42025</ele>
        <time>2011-09-24T14:58:07Z</time>
      </trkpt>
      <trkpt lat="43.76693" lon="7.26072">
        <ele>540.420227</ele>
        <time>2011-09-24T14:58:13Z</time>
      </trkpt>
      <trkpt lat="43.76684" lon="7.26057">
        <ele>541.420181</ele>
        <time>2011-09-24T14:58:24Z</time>
      </trkpt>
      <trkpt lat="43.76675" lon="7.26038">
        <ele>540.420128</ele>
        <time>2011-09-24T14:58:33Z</time>
      </trkpt>
      <trkpt lat="43.76685" lon="7.26041">
        <ele>543.420143</ele>
        <time>2011-09-24T14:58:54Z</time>
      </trkpt>
      <trkpt lat="43.76692" lon="7.26052">
        <ele>543.420174</ele>
        <time>2011-09-24T14:58:59Z</time>
      </trkpt>
      <trkpt lat="43.76693" lon="7.26054">
        <ele>543.420181</ele>
        <time>2011-09-24T14:59:00Z</time>
      </trkpt>
      <trkpt lat="43.76703" lon="7.26068">
        <ele>543.420223</ele>
        <time>2011-09-24T14:59:06Z</time>
      </trkpt>
      <trkpt lat="43.76716" lon="7.26083">
        <ele>545.42028</ele>
        <time>2011-09-24T14:59:14Z</time>
      </trkpt>
      <trkpt lat="43.76728" lon="7.26095">
        <ele>546.420319</ele>
        <time>2011-09-24T14:59:21Z</time>
      </trkpt>
      <trkpt lat="43.76736" lon="7.26103">
        <ele>546.420345</ele>
        <time>2011-09-24T14:59:26Z</time>
      </trkpt>
      <trkpt lat="43.76744" lon="7.26113">
        <ele>547.42038</ele>
        <time>2011-09-24T14:59:31Z</time>
      </trkpt>
      <trkpt lat="43.76748" lon="7.26119">
        <ele>548.420395</ele>
        <time>2011-09-24T14:59:34Z</time>
      </trkpt>
      <trkpt lat="43.76756" lon="7.26127">
        <ele>549.420425</ele>
        <time>2011-09-24T14:59:39Z</time>
      </trkpt>
      <trkpt lat="43.7676" lon="7.26133">
        <ele>549.420444</ele>
        <time>2011-09-24T14:59:42Z</time>
      </trkpt>
      <trkpt lat="43.76767" lon="7.26143">
        <ele>548.420471</ele>
        <time>2011-09-24T14:59:47Z</time>
      </trkpt>
      <trkpt lat="43.7677" lon="7.26148">
        <ele>548.420486</ele>
        <time>2011-09-24T14:59:49Z</time>
      </trkpt>
      <trkpt lat="43.76777" lon="7.26159">
        <ele>547.420517</ele>
        <time>2011-09-24T14:59:54Z</time>
      </trkpt>
      <trkpt lat="43.76778" lon="7.2616">
        <ele>547.420525</ele>
        <time>2011-09-24T14:59:55Z</time>
      </trkpt>
      <trkpt lat="43.76786" lon="7.26169">
        <ele>546.420555</ele>
        <time>2011-09-24T15:00:00Z</time>
      </trkpt>
      <trkpt lat="43.76797" lon="7.26175">
        <ele>547.420586</ele>
        <time>2011-09-24T15:00:06Z</time>
      </trkpt>
      <trkpt lat="43.76811" lon="7.26184">
        <ele>551.42062</ele>
        <time>2011-09-24T15:00:14Z</time>
      </trkpt>
      <trkpt lat="43.76813" lon="7.26185">
        <ele>551.420624</ele>
        <time>2011-09-24T15:00:15Z</time>
      </trkpt>
      <trkpt lat="43.76822" lon="7.26191">
        <ele>552.42065</ele>
        <time>2011-09-24T15:00:21Z</time>
      </trkpt>
      <trkpt lat="43.76832" lon="7.26203">
        <ele>554.420685</ele>
        <time>2011-09-24T15:00:29Z</time>
      </trkpt>
      <trkpt lat="43.76831" lon="7.26216">
        <ele>558.420715</ele>
        <time>2011-09-24T15:00:39Z</time>
      </trkpt>
      <trkpt lat="43.76817" lon="7.26224">
        <ele>558.420715</ele>
        <time>2011-09-24T15:00:47Z</time>
      </trkpt>
      <trkpt lat="43.76809" lon="7.2623">
        <ele>559.420715</ele>
        <time>2011-09-24T15:00:52Z</time>
      </trkpt>
      <trkpt lat="43.76802" lon="7.26239">
        <ele>559.420723</ele>
        <time>2011-09-24T15:00:57Z</time>
      </trkpt>
      <trkpt lat="43.76796" lon="7.26248">
        <ele>561.420738</ele>
        <time>2011-09-24T15:01:02Z</time>
      </trkpt>
      <trkpt lat="43.76791" lon="7.26259">
        <ele>560.420753</ele>
        <time>2011-09-24T15:01:07Z</time>
      </trkpt>
      <trkpt lat="43.76786" lon="7.26267">
        <ele>559.420761</ele>
        <time>2011-09-24T15:01:11Z</time>
      </trkpt>
      <trkpt lat="43.7678" lon="7.26278">
        <ele>559.420776</ele>
        <time>2011-09-24T15:01:16Z</time>
      </trkpt>
      <trkpt lat="43.76777" lon="7.26284">
        <ele>559.420788</ele>
        <time>2011-09-24T15:01:19Z</time>
      </trkpt>
      <trkpt lat="43.76774" lon="7.26297">
        <ele>559.420807</ele>
        <time>2011-09-24T15:01:24Z</time>
      </trkpt>
      <trkpt lat="43.76772" lon="7.26313">
        <ele>561.420841</ele>
        <time>2011-09-24T15:01:30Z</time>
      </trkpt>
      <trkpt lat="43.76771" lon="7.26327">
        <ele>562.420868</ele>
        <time>2011-09-24T15:01:35Z</time>
      </trkpt>
      <trkpt lat="43.7677" lon="7.26336">
        <ele>563.420883</ele>
        <time>2011-09-24T15:01:38Z</time>
      </trkpt>
      <trkpt lat="43.76767" lon="7.26356">
        <ele>563.420929</ele>
        <time>2011-09-24T15:01:45Z</time>
      </trkpt>
      <trkpt lat="43.76764" lon="7.26368">
        <ele>560.420944</ele>
        <time>2011-09-24T15:01:50Z</time>
      </trkpt>
      <trkpt lat="43.76758" lon="7.26381">
        <ele>561.420967</ele>
        <time>2011-09-24T15:01:56Z</time>
      </trkpt>
      <trkpt lat="43.76752" lon="7.2639">
        <ele>563.420979</ele>
        <time>2011-09-24T15:02:01Z</time>
      </trkpt>
      <trkpt lat="43.76747" lon="7.26401">
        <ele>562.420994</ele>
        <time>2011-09-24T15:02:06Z</time>
      </trkpt>
      <trkpt lat="43.76737" lon="7.26417">
        <ele>564.421013</ele>
        <time>2011-09-24T15:02:14Z</time>
      </trkpt>
      <trkpt lat="43.7673" lon="7.26428">
        <ele>565.421024</ele>
        <time>2011-09-24T15:02:20Z</time>
      </trkpt>
      <trkpt lat="43.76727" lon="7.26435">
        <ele>566.421036</ele>
        <time>2011-09-24T15:02:23Z</time>
      </trkpt>
      <trkpt lat="43.76721" lon="7.26445">
        <ele>567.421047</ele>
        <time>2011-09-24T15:02:28Z</time>
      </trkpt>
      <trkpt lat="43.76718" lon="7.26462">
        <ele>568.421082</ele>
        <time>2011-09-24T15:02:35Z</time>
      </trkpt>
      <trkpt lat="43.76733" lon="7.26452">
        <ele>569.421082</ele>
        <time>2011-09-24T15:02:46Z</time>
      </trkpt>
      <trkpt lat="43.76742" lon="7.26439">
        <ele>571.421062</ele>
        <time>2011-09-24T15:02:54Z</time>
      </trkpt>
      <trkpt lat="43.7675" lon="7.26432">
        <ele>572.421059</ele>
        <time>2011-09-24T15:03:01Z</time>
      </trkpt>
      <trkpt lat="43.76758" lon="7.26426">
        <ele>574.421059</ele>
        <time>2011-09-24T15:03:06Z</time>
      </trkpt>
      <trkpt lat="43.76768" lon="7.2642">
        <ele>577.421059</ele>
        <time>2011-09-24T15:03:11Z</time>
      </trkpt>
      <trkpt lat="43.76777" lon="7.26414">
        <ele>578.421059</ele>
        <time>2011-09-24T15:03:16Z</time>
      </trkpt>
      <trkpt lat="43.76786" lon="7.26406">
        <ele>579.421055</ele>
        <time>2011-09-24T15:03:21Z</time>
      </trkpt>
      <trkpt lat="43.76794" lon="7.26397">
        <ele>580.421047</ele>
        <time>2011-09-24T15:03:26Z</time>
      </trkpt>
      <trkpt lat="43.76801" lon="7.26388">
        <ele>581.42104</ele>
        <time>2011-09-24T15:03:31Z</time>
      </trkpt>
      <trkpt lat="43.76808" lon="7.26378">
        <ele>583.421024</ele>
        <time>2011-09-24T15:03:36Z</time>
      </trkpt>
      <trkpt lat="43.76818" lon="7.26364">
        <ele>584.421013</ele>
        <time>2011-09-24T15:03:44Z</time>
      </trkpt>
      <trkpt lat="43.76825" lon="7.26356">
        <ele>585.421005</ele>
        <time>2011-09-24T15:03:49Z</time>
      </trkpt>
      <trkpt lat="43.76828" lon="7.26352">
        <ele>586.421001</ele>
        <time>2011-09-24T15:03:51Z</time>
      </trkpt>
      <trkpt lat="43.76838" lon="7.26341">
        <ele>589.42099</ele>
        <time>2011-09-24T15:03:58Z</time>
      </trkpt>
      <trkpt lat="43.76846" lon="7.26333">
        <ele>591.420986</ele>
        <time>2011-09-24T15:04:04Z</time>
      </trkpt>
      <trkpt lat="43.76855" lon="7.26324">
        <ele>592.420975</ele>
        <time>2011-09-24T15:04:10Z</time>
      </trkpt>
      <trkpt lat="43.76862" lon="7.26315">
        <ele>593.420967</ele>
        <time>2011-09-24T15:04:15Z</time>
      </trkpt>
      <trkpt lat="43.76873" lon="7.26302">
        <ele>595.420956</ele>
        <time>2011-09-24T15:04:24Z</time>
      </trkpt>
      <trkpt lat="43.76884" lon="7.2629">
        <ele>600.420944</ele>
        <time>2011-09-24T15:04:32Z</time>
      </trkpt>
      <trkpt lat="43.7689" lon="7.26281">
        <ele>601.420937</ele>
        <time>2011-09-24T15:04:37Z</time>
      </trkpt>
      <trkpt lat="43.76897" lon="7.26271">
        <ele>601.420921</ele>
        <time>2011-09-24T15:04:43Z</time>
      </trkpt>
      <trkpt lat="43.76903" lon="7.26261">
        <ele>601.420906</ele>
        <time>2011-09-24T15:04:48Z</time>
      </trkpt>
      <trkpt lat="43.7691" lon="7.26251">
        <ele>603.420898</ele>
        <time>2011-09-24T15:04:54Z</time>
      </trkpt>
      <trkpt lat="43.76918" lon="7.2624">
        <ele>603.420887</ele>
        <time>2011-09-24T15:05:02Z</time>
      </trkpt>
      <trkpt lat="43.76925" lon="7.2623">
        <ele>604.420876</ele>
        <time>2011-09-24T15:05:08Z</time>
      </trkpt>
      <trkpt lat="43.76931" lon="7.26216">
        <ele>606.420849</ele>
        <time>2011-09-24T15:05:15Z</time>
      </trkpt>
      <trkpt lat="43.76935" lon="7.26201">
        <ele>608.420826</ele>
        <time>2011-09-24T15:05:22Z</time>
      </trkpt>
      <trkpt lat="43.76936" lon="7.26198">
        <ele>608.420822</ele>
        <time>2011-09-24T15:05:23Z</time>
      </trkpt>
      <trkpt lat="43.76939" lon="7.26183">
        <ele>610.420792</ele>
        <time>2011-09-24T15:05:29Z</time>
      </trkpt>
      <trkpt lat="43.76939" lon="7.2617">
        <ele>610.420761</ele>
        <time>2011-09-24T15:05:35Z</time>
      </trkpt>
      <trkpt lat="43.76938" lon="7.26163">
        <ele>609.420746</ele>
        <time>2011-09-24T15:05:40Z</time>
      </trkpt>
      <trkpt lat="43.76945" lon="7.26155">
        <ele>609.420746</ele>
        <time>2011-09-24T15:05:49Z</time>
      </trkpt>
      <trkpt lat="43.76956" lon="7.26165">
        <ele>613.42078</ele>
        <time>2011-09-24T15:05:57Z</time>
      </trkpt>
      <trkpt lat="43.76956" lon="7.26179">
        <ele>615.420807</ele>
        <time>2011-09-24T15:06:07Z</time>
      </trkpt>
      <trkpt lat="43.76949" lon="7.26188">
        <ele>617.420818</ele>
        <time>2011-09-24T15:06:11Z</time>
      </trkpt>
      <trkpt lat="43.76942" lon="7.26204">
        <ele>618.420841</ele>
        <time>2011-09-24T15:06:18Z</time>
      </trkpt>
      <trkpt lat="43.76939" lon="7.26217">
        <ele>620.420868</ele>
        <time>2011-09-24T15:06:23Z</time>
      </trkpt>
      <trkpt lat="43.76937" lon="7.26223">
        <ele>622.420876</ele>
        <time>2011-09-24T15:06:26Z</time>
      </trkpt>
      <trkpt lat="43.76931" lon="7.2624">
        <ele>623.420902</ele>
        <time>2011-09-24T15:06:31Z</time>
      </trkpt>
      <trkpt lat="43.7693" lon="7.26243">
        <ele>623.420906</ele>
        <time>2011-09-24T15:06:32Z</time>
      </trkpt>
      <trkpt lat="43.76925" lon="7.26257">
        <ele>625.420929</ele>
        <time>2011-09-24T15:06:37Z</time>
      </trkpt>
      <trkpt lat="43.76919" lon="7.2627">
        <ele>627.420952</ele>
        <time>2011-09-24T15:06:42Z</time>
      </trkpt>
      <trkpt lat="43.76912" lon="7.26292">
        <ele>629.420986</ele>
        <time>2011-09-24T15:06:50Z</time>
      </trkpt>
      <trkpt lat="43.76909" lon="7.26305">
        <ele>629.421013</ele>
        <time>2011-09-24T15:06:56Z</time>
      </trkpt>
      <trkpt lat="43.76905" lon="7.26318">
        <ele>629.421032</ele>
        <time>2011-09-24T15:07:02Z</time>
      </trkpt>
      <trkpt lat="43.76902" lon="7.26336">
        <ele>627.421066</ele>
        <time>2011-09-24T15:07:08Z</time>
      </trkpt>
      <trkpt lat="43.76899" lon="7.26349">
        <ele>628.421089</ele>
        <time>2011-09-24T15:07:12Z</time>
      </trkpt>
      <trkpt lat="43.76896" lon="7.26362">
        <ele>628.421116</ele>
        <time>2011-09-24T15:07:16Z</time>
      </trkpt>
      <trkpt lat="43.76893" lon="7.26376">
        <ele>628.421143</ele>
        <time>2011-09-24T15:07:21Z</time>
      </trkpt>
      <trkpt lat="43.7689" lon="7.26389">
        <ele>629.421162</ele>
        <time>2011-09-24T15:07:26Z</time>
      </trkpt>
      <trkpt lat="43.76884" lon="7.2641">
        <ele>631.421196</ele>
        <time>2011-09-24T15:07:35Z</time>
      </trkpt>
      <trkpt lat="43.76879" lon="7.26422">
        <ele>632.421215</ele>
        <time>2011-09-24T15:07:41Z</time>
      </trkpt>
      <trkpt lat="43.76879" lon="7.26422">
        <ele>632.421215</ele>
        <time>2011-09-24T15:07:44Z</time>
      </trkpt>
      <trkpt lat="43.76874" lon="7.26432">
        <ele>633.421227</ele>
        <time>2011-09-24T15:07:47Z</time>
      </trkpt>
      <trkpt lat="43.76868" lon="7.26442">
        <ele>635.421246</ele>
        <time>2011-09-24T15:07:57Z</time>
      </trkpt>
      <trkpt lat="43.76864" lon="7.26457">
        <ele>635.421265</ele>
        <time>2011-09-24T15:08:05Z</time>
      </trkpt>
      <trkpt lat="43.76863" lon="7.26459">
        <ele>635.421276</ele>
        <time>2011-09-24T15:08:06Z</time>
      </trkpt>
      <trkpt lat="43.76859" lon="7.26472">
        <ele>635.421295</ele>
        <time>2011-09-24T15:08:11Z</time>
      </trkpt>
      <trkpt lat="43.76855" lon="7.26483">
        <ele>638.42131</ele>
        <time>2011-09-24T15:08:16Z</time>
      </trkpt>
      <trkpt lat="43.76846" lon="7.26505">
        <ele>639.421349</ele>
        <time>2011-09-24T15:08:27Z</time>
      </trkpt>
      <trkpt lat="43.76842" lon="7.26517">
        <ele>641.421364</ele>
        <time>2011-09-24T15:08:33Z</time>
      </trkpt>
      <trkpt lat="43.76839" lon="7.26531">
        <ele>642.421391</ele>
        <time>2011-09-24T15:08:40Z</time>
      </trkpt>
      <trkpt lat="43.76837" lon="7.26545">
        <ele>644.421417</ele>
        <time>2011-09-24T15:08:46Z</time>
      </trkpt>
      <trkpt lat="43.76838" lon="7.26567">
        <ele>646.421467</ele>
        <time>2011-09-24T15:08:54Z</time>
      </trkpt>
      <trkpt lat="43.76844" lon="7.26576">
        <ele>646.421494</ele>
        <time>2011-09-24T15:08:58Z</time>
      </trkpt>
      <trkpt lat="43.76857" lon="7.26575">
        <ele>647.421509</ele>
        <time>2011-09-24T15:09:06Z</time>
      </trkpt>
      <trkpt lat="43.76863" lon="7.26563">
        <ele>649.421494</ele>
        <time>2011-09-24T15:09:12Z</time>
      </trkpt>
      <trkpt lat="43.76868" lon="7.2655">
        <ele>650.421478</ele>
        <time>2011-09-24T15:09:17Z</time>
      </trkpt>
      <trkpt lat="43.76873" lon="7.26537">
        <ele>652.421455</ele>
        <time>2011-09-24T15:09:22Z</time>
      </trkpt>
      <trkpt lat="43.7688" lon="7.26523">
        <ele>654.421429</ele>
        <time>2011-09-24T15:09:28Z</time>
      </trkpt>
      <trkpt lat="43.76886" lon="7.26512">
        <ele>656.421417</ele>
        <time>2011-09-24T15:09:33Z</time>
      </trkpt>
      <trkpt lat="43.76896" lon="7.26497">
        <ele>656.421402</ele>
        <time>2011-09-24T15:09:40Z</time>
      </trkpt>
      <trkpt lat="43.76903" lon="7.26487">
        <ele>657.421391</ele>
        <time>2011-09-24T15:09:44Z</time>
      </trkpt>
      <trkpt lat="43.7691" lon="7.26477">
        <ele>659.421375</ele>
        <time>2011-09-24T15:09:48Z</time>
      </trkpt>
      <trkpt lat="43.76917" lon="7.26466">
        <ele>661.421364</ele>
        <time>2011-09-24T15:09:52Z</time>
      </trkpt>
      <trkpt lat="43.76924" lon="7.26455">
        <ele>662.421349</ele>
        <time>2011-09-24T15:09:56Z</time>
      </trkpt>
      <trkpt lat="43.76931" lon="7.26446">
        <ele>662.421341</ele>
        <time>2011-09-24T15:10:00Z</time>
      </trkpt>
      <trkpt lat="43.76939" lon="7.26436">
        <ele>664.421326</ele>
        <time>2011-09-24T15:10:05Z</time>
      </trkpt>
      <trkpt lat="43.76947" lon="7.26425">
        <ele>667.421318</ele>
        <time>2011-09-24T15:10:10Z</time>
      </trkpt>
      <trkpt lat="43.76954" lon="7.26415">
        <ele>668.421303</ele>
        <time>2011-09-24T15:10:16Z</time>
      </trkpt>
      <trkpt lat="43.76958" lon="7.2641">
        <ele>672.421299</ele>
        <time>2011-09-24T15:10:23Z</time>
      </trkpt>
      <trkpt lat="43.76966" lon="7.264">
        <ele>674.421288</ele>
        <time>2011-09-24T15:10:29Z</time>
      </trkpt>
      <trkpt lat="43.76974" lon="7.2639">
        <ele>675.421276</ele>
        <time>2011-09-24T15:10:34Z</time>
      </trkpt>
      <trkpt lat="43.76981" lon="7.2638">
        <ele>676.421265</ele>
        <time>2011-09-24T15:10:38Z</time>
      </trkpt>
      <trkpt lat="43.76989" lon="7.26369">
        <ele>678.421257</ele>
        <time>2011-09-24T15:10:43Z</time>
      </trkpt>
      <trkpt lat="43.76996" lon="7.26359">
        <ele>679.421242</ele>
        <time>2011-09-24T15:10:47Z</time>
      </trkpt>
      <trkpt lat="43.77005" lon="7.26348">
        <ele>681.421227</ele>
        <time>2011-09-24T15:10:53Z</time>
      </trkpt>
      <trkpt lat="43.77013" lon="7.26338">
        <ele>682.421219</ele>
        <time>2011-09-24T15:10:58Z</time>
      </trkpt>
      <trkpt lat="43.7702" lon="7.26328">
        <ele>683.421211</ele>
        <time>2011-09-24T15:11:03Z</time>
      </trkpt>
      <trkpt lat="43.77027" lon="7.2632">
        <ele>683.421204</ele>
        <time>2011-09-24T15:11:09Z</time>
      </trkpt>
      <trkpt lat="43.77042" lon="7.26304">
        <ele>686.421192</ele>
        <time>2011-09-24T15:11:20Z</time>
      </trkpt>
      <trkpt lat="43.7705" lon="7.26297">
        <ele>687.421188</ele>
        <time>2011-09-24T15:11:26Z</time>
      </trkpt>
      <trkpt lat="43.77059" lon="7.26288">
        <ele>688.421181</ele>
        <time>2011-09-24T15:11:33Z</time>
      </trkpt>
      <trkpt lat="43.77066" lon="7.26279">
        <ele>689.421173</ele>
        <time>2011-09-24T15:11:40Z</time>
      </trkpt>
      <trkpt lat="43.77073" lon="7.2627">
        <ele>689.421165</ele>
        <time>2011-09-24T15:11:47Z</time>
      </trkpt>
      <trkpt lat="43.7708" lon="7.26262">
        <ele>691.42115</ele>
        <time>2011-09-24T15:11:53Z</time>
      </trkpt>
      <trkpt lat="43.77091" lon="7.26251">
        <ele>692.421143</ele>
        <time>2011-09-24T15:12:01Z</time>
      </trkpt>
      <trkpt lat="43.77099" lon="7.26243">
        <ele>692.421143</ele>
        <time>2011-09-24T15:12:07Z</time>
      </trkpt>
      <trkpt lat="43.77108" lon="7.26233">
        <ele>695.421131</ele>
        <time>2011-09-24T15:12:14Z</time>
      </trkpt>
      <trkpt lat="43.77117" lon="7.26223">
        <ele>695.42112</ele>
        <time>2011-09-24T15:12:21Z</time>
      </trkpt>
      <trkpt lat="43.77124" lon="7.26213">
        <ele>696.421112</ele>
        <time>2011-09-24T15:12:28Z</time>
      </trkpt>
      <trkpt lat="43.77131" lon="7.26204">
        <ele>697.421101</ele>
        <time>2011-09-24T15:12:34Z</time>
      </trkpt>
      <trkpt lat="43.77146" lon="7.26187">
        <ele>700.421085</ele>
        <time>2011-09-24T15:12:44Z</time>
      </trkpt>
      <trkpt lat="43.77153" lon="7.26176">
        <ele>700.421074</ele>
        <time>2011-09-24T15:12:49Z</time>
      </trkpt>
      <trkpt lat="43.77159" lon="7.26167">
        <ele>700.421066</ele>
        <time>2011-09-24T15:12:54Z</time>
      </trkpt>
      <trkpt lat="43.77166" lon="7.26156">
        <ele>700.421047</ele>
        <time>2011-09-24T15:13:00Z</time>
      </trkpt>
      <trkpt lat="43.77173" lon="7.26147">
        <ele>700.421036</ele>
        <time>2011-09-24T15:13:06Z</time>
      </trkpt>
      <trkpt lat="43.77182" lon="7.26136">
        <ele>702.421024</ele>
        <time>2011-09-24T15:13:14Z</time>
      </trkpt>
      <trkpt lat="43.77189" lon="7.26127">
        <ele>703.421021</ele>
        <time>2011-09-24T15:13:20Z</time>
      </trkpt>
      <trkpt lat="43.77192" lon="7.26124">
        <ele>704.421013</ele>
        <time>2011-09-24T15:13:22Z</time>
      </trkpt>
      <trkpt lat="43.77198" lon="7.26113">
        <ele>704.420998</ele>
        <time>2011-09-24T15:13:28Z</time>
      </trkpt>
      <trkpt lat="43.77203" lon="7.26102">
        <ele>704.420982</ele>
        <time>2011-09-24T15:13:33Z</time>
      </trkpt>
      <trkpt lat="43.77208" lon="7.26091">
        <ele>704.420967</ele>
        <time>2011-09-24T15:13:38Z</time>
      </trkpt>
      <trkpt lat="43.77212" lon="7.26079">
        <ele>705.420944</ele>
        <time>2011-09-24T15:13:43Z</time>
      </trkpt>
      <trkpt lat="43.77217" lon="7.26068">
        <ele>705.420933</ele>
        <time>2011-09-24T15:13:48Z</time>
      </trkpt>
      <trkpt lat="43.77223" lon="7.26056">
        <ele>705.420914</ele>
        <time>2011-09-24T15:13:54Z</time>
      </trkpt>
      <trkpt lat="43.77229" lon="7.26046">
        <ele>706.420898</ele>
        <time>2011-09-24T15:14:00Z</time>
      </trkpt>
      <trkpt lat="43.77235" lon="7.26035">
        <ele>707.420887</ele>
        <time>2011-09-24T15:14:07Z</time>
      </trkpt>
      <trkpt lat="43.7724" lon="7.26025">
        <ele>708.420872</ele>
        <time>2011-09-24T15:14:13Z</time>
      </trkpt>
      <trkpt lat="43.77245" lon="7.26015">
        <ele>710.42086</ele>
        <time>2011-09-24T15:14:19Z</time>
      </trkpt>
      <trkpt lat="43.77248" lon="7.26002">
        <ele>712.420837</ele>
        <time>2011-09-24T15:14:25Z</time>
      </trkpt>
      <trkpt lat="43.77249" lon="7.26">
        <ele>712.42083</ele>
        <time>2011-09-24T15:14:26Z</time>
      </trkpt>
      <trkpt lat="43.77252" lon="7.25983">
        <ele>709.420799</ele>
        <time>2011-09-24T15:14:35Z</time>
      </trkpt>
      <trkpt lat="43.77251" lon="7.2597">
        <ele>711.420769</ele>
        <time>2011-09-24T15:14:41Z</time>
      </trkpt>
      <trkpt lat="43.7725" lon="7.25967">
        <ele>712.420761</ele>
        <time>2011-09-24T15:14:46Z</time>
      </trkpt>
      <trkpt lat="43.77243" lon="7.25956">
        <ele>715.420731</ele>
        <time>2011-09-24T15:14:50Z</time>
      </trkpt>
      <trkpt lat="43.77231" lon="7.25946">
        <ele>718.420692</ele>
        <time>2011-09-24T15:14:59Z</time>
      </trkpt>
      <trkpt lat="43.77222" lon="7.25939">
        <ele>720.420662</ele>
        <time>2011-09-24T15:15:04Z</time>
      </trkpt>
      <trkpt lat="43.77214" lon="7.25933">
        <ele>721.420639</ele>
        <time>2011-09-24T15:15:09Z</time>
      </trkpt>
      <trkpt lat="43.77204" lon="7.25926">
        <ele>722.420612</ele>
        <time>2011-09-24T15:15:13Z</time>
      </trkpt>
      <trkpt lat="43.77194" lon="7.2592">
        <ele>722.420586</ele>
        <time>2011-09-24T15:15:16Z</time>
      </trkpt>
      <trkpt lat="43.77193" lon="7.25919">
        <ele>722.420586</ele>
        <time>2011-09-24T15:15:17Z</time>
      </trkpt>
      <trkpt lat="43.77182" lon="7.25914">
        <ele>723.420555</ele>
        <time>2011-09-24T15:15:21Z</time>
      </trkpt>
      <trkpt lat="43.77171" lon="7.25911">
        <ele>725.420532</ele>
        <time>2011-09-24T15:15:25Z</time>
      </trkpt>
      <trkpt lat="43.77161" lon="7.2591">
        <ele>725.420521</ele>
        <time>2011-09-24T15:15:29Z</time>
      </trkpt>
      <trkpt lat="43.77147" lon="7.25912">
        <ele>726.420506</ele>
        <time>2011-09-24T15:15:34Z</time>
      </trkpt>
      <trkpt lat="43.77137" lon="7.25913">
        <ele>727.420498</ele>
        <time>2011-09-24T15:15:38Z</time>
      </trkpt>
      <trkpt lat="43.77127" lon="7.25915">
        <ele>727.420486</ele>
        <time>2011-09-24T15:15:44Z</time>
      </trkpt>
      <trkpt lat="43.77117" lon="7.25916">
        <ele>728.420471</ele>
        <time>2011-09-24T15:15:49Z</time>
      </trkpt>
      <trkpt lat="43.771" lon="7.25918">
        <ele>730.420452</ele>
        <time>2011-09-24T15:15:57Z</time>
      </trkpt>
      <trkpt lat="43.77089" lon="7.25919">
        <ele>731.420441</ele>
        <time>2011-09-24T15:16:02Z</time>
      </trkpt>
      <trkpt lat="43.77079" lon="7.2592">
        <ele>731.420429</ele>
        <time>2011-09-24T15:16:06Z</time>
      </trkpt>
      <trkpt lat="43.77069" lon="7.2592">
        <ele>733.420414</ele>
        <time>2011-09-24T15:16:10Z</time>
      </trkpt>
      <trkpt lat="43.77058" lon="7.25922">
        <ele>734.420406</ele>
        <time>2011-09-24T15:16:16Z</time>
      </trkpt>
      <trkpt lat="43.77048" lon="7.25923">
        <ele>734.420387</ele>
        <time>2011-09-24T15:16:20Z</time>
      </trkpt>
      <trkpt lat="43.77033" lon="7.25923">
        <ele>735.420372</ele>
        <time>2011-09-24T15:16:24Z</time>
      </trkpt>
      <trkpt lat="43.77023" lon="7.25922">
        <ele>735.420357</ele>
        <time>2011-09-24T15:16:29Z</time>
      </trkpt>
      <trkpt lat="43.77014" lon="7.25921">
        <ele>737.420341</ele>
        <time>2011-09-24T15:16:35Z</time>
      </trkpt>
      <trkpt lat="43.77004" lon="7.25919">
        <ele>740.420326</ele>
        <time>2011-09-24T15:16:42Z</time>
      </trkpt>
      <trkpt lat="43.76995" lon="7.25909">
        <ele>741.420292</ele>
        <time>2011-09-24T15:16:48Z</time>
      </trkpt>
      <trkpt lat="43.76988" lon="7.25896">
        <ele>742.420258</ele>
        <time>2011-09-24T15:16:53Z</time>
      </trkpt>
      <trkpt lat="43.76983" lon="7.2588">
        <ele>742.420212</ele>
        <time>2011-09-24T15:16:59Z</time>
      </trkpt>
      <trkpt lat="43.76978" lon="7.25867">
        <ele>743.420177</ele>
        <time>2011-09-24T15:17:06Z</time>
      </trkpt>
      <trkpt lat="43.76972" lon="7.25856">
        <ele>743.420143</ele>
        <time>2011-09-24T15:17:13Z</time>
      </trkpt>
      <trkpt lat="43.76964" lon="7.25846">
        <ele>745.420113</ele>
        <time>2011-09-24T15:17:16Z</time>
      </trkpt>
      <trkpt lat="43.76961" lon="7.25844">
        <ele>745.420105</ele>
        <time>2011-09-24T15:17:17Z</time>
      </trkpt>
      <trkpt lat="43.76954" lon="7.25838">
        <ele>746.420082</ele>
        <time>2011-09-24T15:17:20Z</time>
      </trkpt>
      <trkpt lat="43.76944" lon="7.25829">
        <ele>747.420052</ele>
        <time>2011-09-24T15:17:24Z</time>
      </trkpt>
      <trkpt lat="43.76937" lon="7.2582">
        <ele>747.420021</ele>
        <time>2011-09-24T15:17:28Z</time>
      </trkpt>
      <trkpt lat="43.7693" lon="7.2581">
        <ele>747.419991</ele>
        <time>2011-09-24T15:17:33Z</time>
      </trkpt>
      <trkpt lat="43.76928" lon="7.25808">
        <ele>747.419983</ele>
        <time>2011-09-24T15:17:34Z</time>
      </trkpt>
      <trkpt lat="43.7692" lon="7.25786">
        <ele>748.41993</ele>
        <time>2011-09-24T15:17:45Z</time>
      </trkpt>
      <trkpt lat="43.76915" lon="7.25774">
        <ele>749.419891</ele>
        <time>2011-09-24T15:17:52Z</time>
      </trkpt>
      <trkpt lat="43.7691" lon="7.2576">
        <ele>750.419857</ele>
        <time>2011-09-24T15:18:00Z</time>
      </trkpt>
      <trkpt lat="43.76904" lon="7.25748">
        <ele>750.419823</ele>
        <time>2011-09-24T15:18:07Z</time>
      </trkpt>
      <trkpt lat="43.76897" lon="7.25738">
        <ele>751.419792</ele>
        <time>2011-09-24T15:18:13Z</time>
      </trkpt>
      <trkpt lat="43.7689" lon="7.25728">
        <ele>752.419769</ele>
        <time>2011-09-24T15:18:19Z</time>
      </trkpt>
      <trkpt lat="43.76884" lon="7.25716">
        <ele>755.419727</ele>
        <time>2011-09-24T15:18:25Z</time>
      </trkpt>
      <trkpt lat="43.7688" lon="7.25704">
        <ele>754.419701</ele>
        <time>2011-09-24T15:18:30Z</time>
      </trkpt>
      <trkpt lat="43.76875" lon="7.25693">
        <ele>755.41967</ele>
        <time>2011-09-24T15:18:35Z</time>
      </trkpt>
      <trkpt lat="43.76871" lon="7.25682">
        <ele>754.41964</ele>
        <time>2011-09-24T15:18:40Z</time>
      </trkpt>
      <trkpt lat="43.76866" lon="7.2567">
        <ele>753.419609</ele>
        <time>2011-09-24T15:18:45Z</time>
      </trkpt>
      <trkpt lat="43.76861" lon="7.25649">
        <ele>755.419556</ele>
        <time>2011-09-24T15:18:55Z</time>
      </trkpt>
      <trkpt lat="43.76853" lon="7.25641">
        <ele>757.419533</ele>
        <time>2011-09-24T15:19:09Z</time>
      </trkpt>
      <trkpt lat="43.76845" lon="7.25644">
        <ele>748.419521</ele>
        <time>2011-09-24T15:20:41Z</time>
      </trkpt>
      <trkpt lat="43.76842" lon="7.25632">
        <ele>759.419495</ele>
        <time>2011-09-24T15:24:13Z</time>
      </trkpt>
      <trkpt lat="43.76838" lon="7.25617">
        <ele>759.419456</ele>
        <time>2011-09-24T15:24:18Z</time>
      </trkpt>
      <trkpt lat="43.76833" lon="7.25598">
        <ele>760.419407</ele>
        <time>2011-09-24T15:24:21Z</time>
      </trkpt>
      <trkpt lat="43.7683" lon="7.25586">
        <ele>761.41938</ele>
        <time>2011-09-24T15:24:23Z</time>
      </trkpt>
      <trkpt lat="43.76828" lon="7.25573">
        <ele>761.41935</ele>
        <time>2011-09-24T15:24:25Z</time>
      </trkpt>
      <trkpt lat="43.76829" lon="7.25559">
        <ele>761.419319</ele>
        <time>2011-09-24T15:24:27Z</time>
      </trkpt>
      <trkpt lat="43.76831" lon="7.25544">
        <ele>761.419296</ele>
        <time>2011-09-24T15:24:29Z</time>
      </trkpt>
      <trkpt lat="43.76834" lon="7.2553">
        <ele>761.419273</ele>
        <time>2011-09-24T15:24:31Z</time>
      </trkpt>
      <trkpt lat="43.76837" lon="7.25515">
        <ele>761.419239</ele>
        <time>2011-09-24T15:24:33Z</time>
      </trkpt>
      <trkpt lat="43.76839" lon="7.25507">
        <ele>761.419224</ele>
        <time>2011-09-24T15:24:34Z</time>
      </trkpt>
      <trkpt lat="43.76841" lon="7.25494">
        <ele>761.419205</ele>
        <time>2011-09-24T15:24:36Z</time>
      </trkpt>
      <trkpt lat="43.76844" lon="7.25481">
        <ele>762.419178</ele>
        <time>2011-09-24T15:24:38Z</time>
      </trkpt>
      <trkpt lat="43.76848" lon="7.25467">
        <ele>761.419151</ele>
        <time>2011-09-24T15:24:40Z</time>
      </trkpt>
      <trkpt lat="43.76853" lon="7.25451">
        <ele>761.419128</ele>
        <time>2011-09-24T15:24:42Z</time>
      </trkpt>
      <trkpt lat="43.76858" lon="7.25437">
        <ele>760.419106</ele>
        <time>2011-09-24T15:24:44Z</time>
      </trkpt>
      <trkpt lat="43.76863" lon="7.25422">
        <ele>760.419079</ele>
        <time>2011-09-24T15:24:46Z</time>
      </trkpt>
      <trkpt lat="43.76868" lon="7.25405">
        <ele>760.419048</ele>
        <time>2011-09-24T15:24:48Z</time>
      </trkpt>
      <trkpt lat="43.76872" lon="7.25387">
        <ele>759.419014</ele>
        <time>2011-09-24T15:24:50Z</time>
      </trkpt>
      <trkpt lat="43.76876" lon="7.25369">
        <ele>758.418983</ele>
        <time>2011-09-24T15:24:52Z</time>
      </trkpt>
      <trkpt lat="43.7688" lon="7.25354">
        <ele>757.418957</ele>
        <time>2011-09-24T15:24:54Z</time>
      </trkpt>
      <trkpt lat="43.76885" lon="7.25339">
        <ele>756.418938</ele>
        <time>2011-09-24T15:24:56Z</time>
      </trkpt>
      <trkpt lat="43.76888" lon="7.25333">
        <ele>756.418926</ele>
        <time>2011-09-24T15:24:57Z</time>
      </trkpt>
      <trkpt lat="43.76895" lon="7.25321">
        <ele>754.418907</ele>
        <time>2011-09-24T15:24:59Z</time>
      </trkpt>
      <trkpt lat="43.76902" lon="7.25309">
        <ele>753.418892</ele>
        <time>2011-09-24T15:25:01Z</time>
      </trkpt>
      <trkpt lat="43.76907" lon="7.25298">
        <ele>753.418877</ele>
        <time>2011-09-24T15:25:03Z</time>
      </trkpt>
      <trkpt lat="43.76911" lon="7.25293">
        <ele>753.418869</ele>
        <time>2011-09-24T15:25:04Z</time>
      </trkpt>
      <trkpt lat="43.76918" lon="7.25279">
        <ele>751.418854</ele>
        <time>2011-09-24T15:25:06Z</time>
      </trkpt>
      <trkpt lat="43.76925" lon="7.25263">
        <ele>751.418827</ele>
        <time>2011-09-24T15:25:08Z</time>
      </trkpt>
      <trkpt lat="43.76931" lon="7.25246">
        <ele>751.4188</ele>
        <time>2011-09-24T15:25:10Z</time>
      </trkpt>
      <trkpt lat="43.76939" lon="7.25231">
        <ele>750.418777</ele>
        <time>2011-09-24T15:25:12Z</time>
      </trkpt>
      <trkpt lat="43.76941" lon="7.25218">
        <ele>749.418755</ele>
        <time>2011-09-24T15:25:13Z</time>
      </trkpt>
      <trkpt lat="43.76946" lon="7.25194">
        <ele>749.418709</ele>
        <time>2011-09-24T15:25:15Z</time>
      </trkpt>
      <trkpt lat="43.76953" lon="7.25174">
        <ele>748.418678</ele>
        <time>2011-09-24T15:25:17Z</time>
      </trkpt>
      <trkpt lat="43.76957" lon="7.25161">
        <ele>747.418655</ele>
        <time>2011-09-24T15:25:18Z</time>
      </trkpt>
      <trkpt lat="43.76966" lon="7.25143">
        <ele>746.418629</ele>
        <time>2011-09-24T15:25:20Z</time>
      </trkpt>
      <trkpt lat="43.76973" lon="7.25124">
        <ele>745.418602</ele>
        <time>2011-09-24T15:25:22Z</time>
      </trkpt>
      <trkpt lat="43.76977" lon="7.25116">
        <ele>744.418591</ele>
        <time>2011-09-24T15:25:23Z</time>
      </trkpt>
      <trkpt lat="43.76986" lon="7.251">
        <ele>743.418564</ele>
        <time>2011-09-24T15:25:25Z</time>
      </trkpt>
      <trkpt lat="43.76981" lon="7.25088">
        <ele>741.418533</ele>
        <time>2011-09-24T15:25:29Z</time>
      </trkpt>
      <trkpt lat="43.7697" lon="7.25099">
        <ele>740.418545</ele>
        <time>2011-09-24T15:25:32Z</time>
      </trkpt>
      <trkpt lat="43.76963" lon="7.25109">
        <ele>740.418556</ele>
        <time>2011-09-24T15:25:34Z</time>
      </trkpt>
      <trkpt lat="43.76955" lon="7.25118">
        <ele>739.418564</ele>
        <time>2011-09-24T15:25:36Z</time>
      </trkpt>
      <trkpt lat="43.76944" lon="7.25127">
        <ele>738.418564</ele>
        <time>2011-09-24T15:25:39Z</time>
      </trkpt>
      <trkpt lat="43.76936" lon="7.25133">
        <ele>738.418571</ele>
        <time>2011-09-24T15:25:42Z</time>
      </trkpt>
      <trkpt lat="43.76931" lon="7.2512">
        <ele>734.418533</ele>
        <time>2011-09-24T15:25:50Z</time>
      </trkpt>
      <trkpt lat="43.76926" lon="7.25107">
        <ele>733.418499</ele>
        <time>2011-09-24T15:25:53Z</time>
      </trkpt>
      <trkpt lat="43.76918" lon="7.2509">
        <ele>729.418453</ele>
        <time>2011-09-24T15:25:57Z</time>
      </trkpt>
      <trkpt lat="43.76913" lon="7.25077">
        <ele>727.418419</ele>
        <time>2011-09-24T15:26:00Z</time>
      </trkpt>
      <trkpt lat="43.76911" lon="7.25062">
        <ele>725.418381</ele>
        <time>2011-09-24T15:26:03Z</time>
      </trkpt>
      <trkpt lat="43.76904" lon="7.2505">
        <ele>725.41835</ele>
        <time>2011-09-24T15:26:06Z</time>
      </trkpt>
      <trkpt lat="43.76897" lon="7.25047">
        <ele>724.418327</ele>
        <time>2011-09-24T15:26:08Z</time>
      </trkpt>
      <trkpt lat="43.76887" lon="7.25047">
        <ele>724.41832</ele>
        <time>2011-09-24T15:26:10Z</time>
      </trkpt>
      <trkpt lat="43.76876" lon="7.25047">
        <ele>724.418304</ele>
        <time>2011-09-24T15:26:12Z</time>
      </trkpt>
      <trkpt lat="43.76863" lon="7.25048">
        <ele>723.418289</ele>
        <time>2011-09-24T15:26:14Z</time>
      </trkpt>
      <trkpt lat="43.76849" lon="7.25048">
        <ele>723.418266</ele>
        <time>2011-09-24T15:26:16Z</time>
      </trkpt>
      <trkpt lat="43.76835" lon="7.25046">
        <ele>722.418247</ele>
        <time>2011-09-24T15:26:18Z</time>
      </trkpt>
      <trkpt lat="43.76821" lon="7.25039">
        <ele>721.418213</ele>
        <time>2011-09-24T15:26:20Z</time>
      </trkpt>
      <trkpt lat="43.76808" lon="7.2503">
        <ele>721.418175</ele>
        <time>2011-09-24T15:26:22Z</time>
      </trkpt>
      <trkpt lat="43.76799" lon="7.25025">
        <ele>721.418152</ele>
        <time>2011-09-24T15:26:24Z</time>
      </trkpt>
      <trkpt lat="43.76786" lon="7.25024">
        <ele>720.418129</ele>
        <time>2011-09-24T15:26:27Z</time>
      </trkpt>
      <trkpt lat="43.76773" lon="7.25026">
        <ele>719.418121</ele>
        <time>2011-09-24T15:26:30Z</time>
      </trkpt>
      <trkpt lat="43.76764" lon="7.25029">
        <ele>717.418114</ele>
        <time>2011-09-24T15:26:32Z</time>
      </trkpt>
      <trkpt lat="43.76755" lon="7.25033">
        <ele>716.418106</ele>
        <time>2011-09-24T15:26:34Z</time>
      </trkpt>
      <trkpt lat="43.76743" lon="7.25039">
        <ele>714.418106</ele>
        <time>2011-09-24T15:26:37Z</time>
      </trkpt>
      <trkpt lat="43.76735" lon="7.25043">
        <ele>712.418106</ele>
        <time>2011-09-24T15:26:40Z</time>
      </trkpt>
      <trkpt lat="43.76725" lon="7.25046">
        <ele>708.418095</ele>
        <time>2011-09-24T15:26:45Z</time>
      </trkpt>
      <trkpt lat="43.76714" lon="7.25048">
        <ele>703.418083</ele>
        <time>2011-09-24T15:26:50Z</time>
      </trkpt>
      <trkpt lat="43.76702" lon="7.25046">
        <ele>701.41806</ele>
        <time>2011-09-24T15:26:54Z</time>
      </trkpt>
      <trkpt lat="43.76691" lon="7.25046">
        <ele>699.418049</ele>
        <time>2011-09-24T15:26:57Z</time>
      </trkpt>
      <trkpt lat="43.76682" lon="7.25054">
        <ele>697.418053</ele>
        <time>2011-09-24T15:27:00Z</time>
      </trkpt>
      <trkpt lat="43.76675" lon="7.25065">
        <ele>696.418068</ele>
        <time>2011-09-24T15:27:03Z</time>
      </trkpt>
      <trkpt lat="43.76671" lon="7.25072">
        <ele>695.418072</ele>
        <time>2011-09-24T15:27:05Z</time>
      </trkpt>
      <trkpt lat="43.76668" lon="7.25075">
        <ele>695.418076</ele>
        <time>2011-09-24T15:27:06Z</time>
      </trkpt>
      <trkpt lat="43.76665" lon="7.25077">
        <ele>693.418076</ele>
        <time>2011-09-24T15:27:07Z</time>
      </trkpt>
      <trkpt lat="43.76663" lon="7.25078">
        <ele>693.418079</ele>
        <time>2011-09-24T15:27:08Z</time>
      </trkpt>
      <trkpt lat="43.76654" lon="7.25082">
        <ele>691.418076</ele>
        <time>2011-09-24T15:27:11Z</time>
      </trkpt>
      <trkpt lat="43.76643" lon="7.25085">
        <ele>690.418064</ele>
        <time>2011-09-24T15:27:14Z</time>
      </trkpt>
      <trkpt lat="43.76639" lon="7.25086">
        <ele>689.41806</ele>
        <time>2011-09-24T15:27:15Z</time>
      </trkpt>
      <trkpt lat="43.76627" lon="7.25089">
        <ele>687.418049</ele>
        <time>2011-09-24T15:27:18Z</time>
      </trkpt>
      <trkpt lat="43.76615" lon="7.25092">
        <ele>687.418041</ele>
        <time>2011-09-24T15:27:21Z</time>
      </trkpt>
      <trkpt lat="43.76603" lon="7.25097">
        <ele>686.418037</ele>
        <time>2011-09-24T15:27:24Z</time>
      </trkpt>
      <trkpt lat="43.7659" lon="7.25102">
        <ele>685.418026</ele>
        <time>2011-09-24T15:27:27Z</time>
      </trkpt>
      <trkpt lat="43.76581" lon="7.25105">
        <ele>684.418022</ele>
        <time>2011-09-24T15:27:29Z</time>
      </trkpt>
      <trkpt lat="43.76572" lon="7.25109">
        <ele>683.418015</ele>
        <time>2011-09-24T15:27:31Z</time>
      </trkpt>
      <trkpt lat="43.76568" lon="7.25111">
        <ele>683.418015</ele>
        <time>2011-09-24T15:27:32Z</time>
      </trkpt>
      <trkpt lat="43.76559" lon="7.25116">
        <ele>683.418015</ele>
        <time>2011-09-24T15:27:34Z</time>
      </trkpt>
      <trkpt lat="43.76547" lon="7.2512">
        <ele>680.418007</ele>
        <time>2011-09-24T15:27:37Z</time>
      </trkpt>
      <trkpt lat="43.76535" lon="7.25117">
        <ele>679.417984</ele>
        <time>2011-09-24T15:27:40Z</time>
      </trkpt>
      <trkpt lat="43.76524" lon="7.25111">
        <ele>677.417953</ele>
        <time>2011-09-24T15:27:43Z</time>
      </trkpt>
      <trkpt lat="43.76513" lon="7.25107">
        <ele>675.417931</ele>
        <time>2011-09-24T15:27:46Z</time>
      </trkpt>
      <trkpt lat="43.76503" lon="7.25105">
        <ele>673.417915</ele>
        <time>2011-09-24T15:27:49Z</time>
      </trkpt>
      <trkpt lat="43.76492" lon="7.25104">
        <ele>672.417896</ele>
        <time>2011-09-24T15:27:52Z</time>
      </trkpt>
      <trkpt lat="43.76488" lon="7.25105">
        <ele>671.417892</ele>
        <time>2011-09-24T15:27:53Z</time>
      </trkpt>
      <trkpt lat="43.76478" lon="7.25106">
        <ele>670.417881</ele>
        <time>2011-09-24T15:27:56Z</time>
      </trkpt>
      <trkpt lat="43.76467" lon="7.25108">
        <ele>668.41787</ele>
        <time>2011-09-24T15:27:59Z</time>
      </trkpt>
      <trkpt lat="43.76456" lon="7.25111">
        <ele>667.417862</ele>
        <time>2011-09-24T15:28:02Z</time>
      </trkpt>
      <trkpt lat="43.76453" lon="7.25111">
        <ele>667.417854</ele>
        <time>2011-09-24T15:28:03Z</time>
      </trkpt>
      <trkpt lat="43.76442" lon="7.25115">
        <ele>667.417854</ele>
        <time>2011-09-24T15:28:06Z</time>
      </trkpt>
      <trkpt lat="43.76434" lon="7.2512">
        <ele>665.417847</ele>
        <time>2011-09-24T15:28:09Z</time>
      </trkpt>
      <trkpt lat="43.76425" lon="7.25123">
        <ele>663.417843</ele>
        <time>2011-09-24T15:28:12Z</time>
      </trkpt>
      <trkpt lat="43.76414" lon="7.25127">
        <ele>662.417835</ele>
        <time>2011-09-24T15:28:16Z</time>
      </trkpt>
      <trkpt lat="43.76403" lon="7.25132">
        <ele>661.417835</ele>
        <time>2011-09-24T15:28:20Z</time>
      </trkpt>
      <trkpt lat="43.76393" lon="7.25139">
        <ele>660.417831</ele>
        <time>2011-09-24T15:28:24Z</time>
      </trkpt>
      <trkpt lat="43.76383" lon="7.25146">
        <ele>659.417835</ele>
        <time>2011-09-24T15:28:27Z</time>
      </trkpt>
      <trkpt lat="43.76378" lon="7.25152">
        <ele>659.417839</ele>
        <time>2011-09-24T15:28:29Z</time>
      </trkpt>
      <trkpt lat="43.7637" lon="7.25161">
        <ele>658.417847</ele>
        <time>2011-09-24T15:28:32Z</time>
      </trkpt>
      <trkpt lat="43.76362" lon="7.2517">
        <ele>656.417858</ele>
        <time>2011-09-24T15:28:35Z</time>
      </trkpt>
      <trkpt lat="43.76352" lon="7.2518">
        <ele>655.417866</ele>
        <time>2011-09-24T15:28:38Z</time>
      </trkpt>
      <trkpt lat="43.76342" lon="7.25186">
        <ele>653.417862</ele>
        <time>2011-09-24T15:28:41Z</time>
      </trkpt>
      <trkpt lat="43.76333" lon="7.25186">
        <ele>652.41785</ele>
        <time>2011-09-24T15:28:44Z</time>
      </trkpt>
      <trkpt lat="43.76324" lon="7.25185">
        <ele>650.417839</ele>
        <time>2011-09-24T15:28:47Z</time>
      </trkpt>
      <trkpt lat="43.76313" lon="7.25185">
        <ele>649.417824</ele>
        <time>2011-09-24T15:28:50Z</time>
      </trkpt>
      <trkpt lat="43.76302" lon="7.25188">
        <ele>647.417809</ele>
        <time>2011-09-24T15:28:53Z</time>
      </trkpt>
      <trkpt lat="43.76291" lon="7.25191">
        <ele>646.417809</ele>
        <time>2011-09-24T15:28:56Z</time>
      </trkpt>
      <trkpt lat="43.7628" lon="7.25195">
        <ele>643.417797</ele>
        <time>2011-09-24T15:28:59Z</time>
      </trkpt>
      <trkpt lat="43.7627" lon="7.25197">
        <ele>642.417789</ele>
        <time>2011-09-24T15:29:02Z</time>
      </trkpt>
      <trkpt lat="43.7626" lon="7.252">
        <ele>640.417782</ele>
        <time>2011-09-24T15:29:05Z</time>
      </trkpt>
      <trkpt lat="43.76253" lon="7.25202">
        <ele>638.417778</ele>
        <time>2011-09-24T15:29:07Z</time>
      </trkpt>
      <trkpt lat="43.76243" lon="7.25205">
        <ele>637.417767</ele>
        <time>2011-09-24T15:29:10Z</time>
      </trkpt>
      <trkpt lat="43.76232" lon="7.25208">
        <ele>636.417763</ele>
        <time>2011-09-24T15:29:14Z</time>
      </trkpt>
      <trkpt lat="43.76221" lon="7.2521">
        <ele>636.417747</ele>
        <time>2011-09-24T15:29:17Z</time>
      </trkpt>
      <trkpt lat="43.76211" lon="7.25213">
        <ele>637.417744</ele>
        <time>2011-09-24T15:29:20Z</time>
      </trkpt>
      <trkpt lat="43.762" lon="7.25215">
        <ele>634.417732</ele>
        <time>2011-09-24T15:29:24Z</time>
      </trkpt>
      <trkpt lat="43.76187" lon="7.25221">
        <ele>631.417725</ele>
        <time>2011-09-24T15:29:31Z</time>
      </trkpt>
      <trkpt lat="43.76176" lon="7.25226">
        <ele>632.417721</ele>
        <time>2011-09-24T15:29:35Z</time>
      </trkpt>
      <trkpt lat="43.76166" lon="7.25233">
        <ele>631.417725</ele>
        <time>2011-09-24T15:29:38Z</time>
      </trkpt>
      <trkpt lat="43.76158" lon="7.25239">
        <ele>630.417725</ele>
        <time>2011-09-24T15:29:41Z</time>
      </trkpt>
      <trkpt lat="43.76149" lon="7.25244">
        <ele>628.417721</ele>
        <time>2011-09-24T15:29:45Z</time>
      </trkpt>
      <trkpt lat="43.76139" lon="7.25249">
        <ele>626.417717</ele>
        <time>2011-09-24T15:29:49Z</time>
      </trkpt>
      <trkpt lat="43.76128" lon="7.25256">
        <ele>624.417717</ele>
        <time>2011-09-24T15:29:53Z</time>
      </trkpt>
      <trkpt lat="43.76119" lon="7.25261">
        <ele>622.417717</ele>
        <time>2011-09-24T15:29:56Z</time>
      </trkpt>
      <trkpt lat="43.7611" lon="7.25266">
        <ele>620.417713</ele>
        <time>2011-09-24T15:29:59Z</time>
      </trkpt>
      <trkpt lat="43.76099" lon="7.25273">
        <ele>617.417717</ele>
        <time>2011-09-24T15:30:03Z</time>
      </trkpt>
      <trkpt lat="43.7609" lon="7.25277">
        <ele>613.417709</ele>
        <time>2011-09-24T15:30:07Z</time>
      </trkpt>
      <trkpt lat="43.76081" lon="7.25281">
        <ele>610.417709</ele>
        <time>2011-09-24T15:30:10Z</time>
      </trkpt>
      <trkpt lat="43.76069" lon="7.25285">
        <ele>609.417698</ele>
        <time>2011-09-24T15:30:13Z</time>
      </trkpt>
      <trkpt lat="43.76057" lon="7.25291">
        <ele>607.417694</ele>
        <time>2011-09-24T15:30:16Z</time>
      </trkpt>
      <trkpt lat="43.76048" lon="7.25296">
        <ele>606.417694</ele>
        <time>2011-09-24T15:30:19Z</time>
      </trkpt>
      <trkpt lat="43.76039" lon="7.253">
        <ele>605.41769</ele>
        <time>2011-09-24T15:30:23Z</time>
      </trkpt>
      <trkpt lat="43.7603" lon="7.25301">
        <ele>603.417679</ele>
        <time>2011-09-24T15:30:25Z</time>
      </trkpt>
      <trkpt lat="43.76021" lon="7.25305">
        <ele>602.417671</ele>
        <time>2011-09-24T15:30:27Z</time>
      </trkpt>
      <trkpt lat="43.76011" lon="7.2531">
        <ele>600.417675</ele>
        <time>2011-09-24T15:30:31Z</time>
      </trkpt>
      <trkpt lat="43.76" lon="7.25317">
        <ele>598.417671</ele>
        <time>2011-09-24T15:30:36Z</time>
      </trkpt>
      <trkpt lat="43.7599" lon="7.25325">
        <ele>596.417675</ele>
        <time>2011-09-24T15:30:41Z</time>
      </trkpt>
      <trkpt lat="43.7598" lon="7.25331">
        <ele>594.417671</ele>
        <time>2011-09-24T15:30:45Z</time>
      </trkpt>
      <trkpt lat="43.75969" lon="7.25337">
        <ele>593.417671</ele>
        <time>2011-09-24T15:30:49Z</time>
      </trkpt>
      <trkpt lat="43.75956" lon="7.25343">
        <ele>592.417667</ele>
        <time>2011-09-24T15:30:52Z</time>
      </trkpt>
      <trkpt lat="43.75946" lon="7.25349">
        <ele>591.417664</ele>
        <time>2011-09-24T15:30:54Z</time>
      </trkpt>
      <trkpt lat="43.75937" lon="7.25355">
        <ele>591.417667</ele>
        <time>2011-09-24T15:30:56Z</time>
      </trkpt>
      <trkpt lat="43.75926" lon="7.25363">
        <ele>590.417671</ele>
        <time>2011-09-24T15:30:59Z</time>
      </trkpt>
      <trkpt lat="43.75918" lon="7.25371">
        <ele>590.417671</ele>
        <time>2011-09-24T15:31:02Z</time>
      </trkpt>
      <trkpt lat="43.75909" lon="7.25376">
        <ele>590.417671</ele>
        <time>2011-09-24T15:31:05Z</time>
      </trkpt>
      <trkpt lat="43.75901" lon="7.25381">
        <ele>589.417671</ele>
        <time>2011-09-24T15:31:08Z</time>
      </trkpt>
      <trkpt lat="43.75893" lon="7.25382">
        <ele>587.417664</ele>
        <time>2011-09-24T15:31:11Z</time>
      </trkpt>
      <trkpt lat="43.75884" lon="7.25384">
        <ele>585.417656</ele>
        <time>2011-09-24T15:31:14Z</time>
      </trkpt>
      <trkpt lat="43.75874" lon="7.25389">
        <ele>584.417656</ele>
        <time>2011-09-24T15:31:17Z</time>
      </trkpt>
      <trkpt lat="43.75863" lon="7.25394">
        <ele>584.417652</ele>
        <time>2011-09-24T15:31:20Z</time>
      </trkpt>
      <trkpt lat="43.75851" lon="7.25401">
        <ele>583.417648</ele>
        <time>2011-09-24T15:31:23Z</time>
      </trkpt>
      <trkpt lat="43.75842" lon="7.25406">
        <ele>583.417645</ele>
        <time>2011-09-24T15:31:26Z</time>
      </trkpt>
      <trkpt lat="43.75832" lon="7.25407">
        <ele>581.417633</ele>
        <time>2011-09-24T15:31:29Z</time>
      </trkpt>
      <trkpt lat="43.75823" lon="7.25409">
        <ele>579.417622</ele>
        <time>2011-09-24T15:31:32Z</time>
      </trkpt>
      <trkpt lat="43.75817" lon="7.25409">
        <ele>579.41761</ele>
        <time>2011-09-24T15:31:34Z</time>
      </trkpt>
      <trkpt lat="43.75808" lon="7.25403">
        <ele>577.417587</ele>
        <time>2011-09-24T15:31:38Z</time>
      </trkpt>
      <trkpt lat="43.75801" lon="7.25394">
        <ele>573.417557</ele>
        <time>2011-09-24T15:31:44Z</time>
      </trkpt>
      <trkpt lat="43.75791" lon="7.25391">
        <ele>569.417542</ele>
        <time>2011-09-24T15:31:49Z</time>
      </trkpt>
      <trkpt lat="43.75781" lon="7.25394">
        <ele>567.417534</ele>
        <time>2011-09-24T15:31:54Z</time>
      </trkpt>
      <trkpt lat="43.7577" lon="7.254">
        <ele>564.417534</ele>
        <time>2011-09-24T15:31:58Z</time>
      </trkpt>
      <trkpt lat="43.75759" lon="7.25407">
        <ele>563.417526</ele>
        <time>2011-09-24T15:32:01Z</time>
      </trkpt>
      <trkpt lat="43.75749" lon="7.25414">
        <ele>561.417534</ele>
        <time>2011-09-24T15:32:04Z</time>
      </trkpt>
      <trkpt lat="43.75741" lon="7.25417">
        <ele>559.417526</ele>
        <time>2011-09-24T15:32:07Z</time>
      </trkpt>
      <trkpt lat="43.75741" lon="7.25404">
        <ele>556.417503</ele>
        <time>2011-09-24T15:32:12Z</time>
      </trkpt>
      <trkpt lat="43.7575" lon="7.25397">
        <ele>554.4175</ele>
        <time>2011-09-24T15:32:14Z</time>
      </trkpt>
      <trkpt lat="43.7576" lon="7.25389">
        <ele>552.417496</ele>
        <time>2011-09-24T15:32:17Z</time>
      </trkpt>
      <trkpt lat="43.75763" lon="7.25387">
        <ele>551.417488</ele>
        <time>2011-09-24T15:32:18Z</time>
      </trkpt>
      <trkpt lat="43.75758" lon="7.25375">
        <ele>551.417461</ele>
        <time>2011-09-24T15:32:24Z</time>
      </trkpt>
      <trkpt lat="43.75753" lon="7.2537">
        <ele>549.417446</ele>
        <time>2011-09-24T15:32:28Z</time>
      </trkpt>
      <trkpt lat="43.75758" lon="7.25356">
        <ele>546.417419</ele>
        <time>2011-09-24T15:32:33Z</time>
      </trkpt>
      <trkpt lat="43.75765" lon="7.25345">
        <ele>544.417412</ele>
        <time>2011-09-24T15:32:37Z</time>
      </trkpt>
      <trkpt lat="43.75767" lon="7.25342">
        <ele>543.417404</ele>
        <time>2011-09-24T15:32:38Z</time>
      </trkpt>
      <trkpt lat="43.75763" lon="7.25318">
        <ele>536.417351</ele>
        <time>2011-09-24T15:32:49Z</time>
      </trkpt>
      <trkpt lat="43.75768" lon="7.25304">
        <ele>522.417328</ele>
        <time>2011-09-24T15:33:33Z</time>
      </trkpt>
      <trkpt lat="43.7576" lon="7.25285">
        <ele>518.417274</ele>
        <time>2011-09-24T15:33:44Z</time>
      </trkpt>
      <trkpt lat="43.75773" lon="7.25269">
        <ele>515.417259</ele>
        <time>2011-09-24T15:33:51Z</time>
      </trkpt>
      <trkpt lat="43.75776" lon="7.25266">
        <ele>515.417255</ele>
        <time>2011-09-24T15:33:52Z</time>
      </trkpt>
      <trkpt lat="43.75786" lon="7.25258">
        <ele>514.417252</ele>
        <time>2011-09-24T15:33:55Z</time>
      </trkpt>
      <trkpt lat="43.75792" lon="7.25247">
        <ele>514.417236</ele>
        <time>2011-09-24T15:33:58Z</time>
      </trkpt>
      <trkpt lat="43.75787" lon="7.25229">
        <ele>507.417194</ele>
        <time>2011-09-24T15:34:10Z</time>
      </trkpt>
      <trkpt lat="43.75777" lon="7.25224">
        <ele>505.417168</ele>
        <time>2011-09-24T15:34:15Z</time>
      </trkpt>
      <trkpt lat="43.75772" lon="7.25223">
        <ele>504.41716</ele>
        <time>2011-09-24T15:34:17Z</time>
      </trkpt>
      <trkpt lat="43.7576" lon="7.25218">
        <ele>501.41713</ele>
        <time>2011-09-24T15:34:23Z</time>
      </trkpt>
      <trkpt lat="43.75743" lon="7.25215">
        <ele>498.417099</ele>
        <time>2011-09-24T15:34:33Z</time>
      </trkpt>
      <trkpt lat="43.75733" lon="7.25216">
        <ele>495.417091</ele>
        <time>2011-09-24T15:34:36Z</time>
      </trkpt>
      <trkpt lat="43.75724" lon="7.25221">
        <ele>494.417091</ele>
        <time>2011-09-24T15:34:38Z</time>
      </trkpt>
      <trkpt lat="43.75708" lon="7.25225">
        <ele>490.417076</ele>
        <time>2011-09-24T15:34:44Z</time>
      </trkpt>
      <trkpt lat="43.75696" lon="7.25227">
        <ele>488.417065</ele>
        <time>2011-09-24T15:34:48Z</time>
      </trkpt>
      <trkpt lat="43.75685" lon="7.25227">
        <ele>487.417049</ele>
        <time>2011-09-24T15:34:52Z</time>
      </trkpt>
      <trkpt lat="43.75675" lon="7.25225">
        <ele>485.41703</ele>
        <time>2011-09-24T15:34:56Z</time>
      </trkpt>
      <trkpt lat="43.75666" lon="7.25219">
        <ele>483.417007</ele>
        <time>2011-09-24T15:35:00Z</time>
      </trkpt>
      <trkpt lat="43.75661" lon="7.25207">
        <ele>480.416973</ele>
        <time>2011-09-24T15:35:07Z</time>
      </trkpt>
      <trkpt lat="43.75662" lon="7.25196">
        <ele>478.416954</ele>
        <time>2011-09-24T15:35:12Z</time>
      </trkpt>
      <trkpt lat="43.75665" lon="7.25175">
        <ele>474.416908</ele>
        <time>2011-09-24T15:35:21Z</time>
      </trkpt>
      <trkpt lat="43.75657" lon="7.25163">
        <ele>473.41687</ele>
        <time>2011-09-24T15:35:25Z</time>
      </trkpt>
      <trkpt lat="43.7565" lon="7.25155">
        <ele>471.416847</ele>
        <time>2011-09-24T15:35:27Z</time>
      </trkpt>
      <trkpt lat="43.75638" lon="7.25149">
        <ele>469.416817</ele>
        <time>2011-09-24T15:35:30Z</time>
      </trkpt>
      <trkpt lat="43.75626" lon="7.25148">
        <ele>468.416801</ele>
        <time>2011-09-24T15:35:33Z</time>
      </trkpt>
      <trkpt lat="43.75616" lon="7.2515">
        <ele>466.416794</ele>
        <time>2011-09-24T15:35:36Z</time>
      </trkpt>
      <trkpt lat="43.75608" lon="7.25158">
        <ele>465.416794</ele>
        <time>2011-09-24T15:35:40Z</time>
      </trkpt>
      <trkpt lat="43.75599" lon="7.25168">
        <ele>465.416809</ele>
        <time>2011-09-24T15:35:44Z</time>
      </trkpt>
      <trkpt lat="43.75591" lon="7.25174">
        <ele>464.416809</ele>
        <time>2011-09-24T15:35:48Z</time>
      </trkpt>
      <trkpt lat="43.75582" lon="7.25178">
        <ele>465.416801</ele>
        <time>2011-09-24T15:35:52Z</time>
      </trkpt>
      <trkpt lat="43.75572" lon="7.25182">
        <ele>464.416798</ele>
        <time>2011-09-24T15:35:56Z</time>
      </trkpt>
      <trkpt lat="43.75561" lon="7.25181">
        <ele>465.416779</ele>
        <time>2011-09-24T15:36:00Z</time>
      </trkpt>
      <trkpt lat="43.75552" lon="7.25179">
        <ele>465.416763</ele>
        <time>2011-09-24T15:36:04Z</time>
      </trkpt>
      <trkpt lat="43.75547" lon="7.2518">
        <ele>465.416756</ele>
        <time>2011-09-24T15:36:06Z</time>
      </trkpt>
      <trkpt lat="43.75538" lon="7.25188">
        <ele>464.416763</ele>
        <time>2011-09-24T15:36:10Z</time>
      </trkpt>
      <trkpt lat="43.75529" lon="7.25198">
        <ele>463.416771</ele>
        <time>2011-09-24T15:36:14Z</time>
      </trkpt>
      <trkpt lat="43.75521" lon="7.25209">
        <ele>463.416782</ele>
        <time>2011-09-24T15:36:18Z</time>
      </trkpt>
      <trkpt lat="43.75515" lon="7.25218">
        <ele>463.416794</ele>
        <time>2011-09-24T15:36:21Z</time>
      </trkpt>
      <trkpt lat="43.75515" lon="7.25219">
        <ele>463.416801</ele>
        <time>2011-09-24T15:36:24Z</time>
      </trkpt>
      <trkpt lat="43.75509" lon="7.25229">
        <ele>465.416817</ele>
        <time>2011-09-24T15:36:29Z</time>
      </trkpt>
      <trkpt lat="43.75501" lon="7.25233">
        <ele>465.416809</ele>
        <time>2011-09-24T15:36:35Z</time>
      </trkpt>
      <trkpt lat="43.75501" lon="7.25233">
        <ele>465.416809</ele>
        <time>2011-09-24T15:36:37Z</time>
      </trkpt>
      <trkpt lat="43.75491" lon="7.25224">
        <ele>464.416771</ele>
        <time>2011-09-24T15:36:41Z</time>
      </trkpt>
      <trkpt lat="43.75479" lon="7.25223">
        <ele>464.416756</ele>
        <time>2011-09-24T15:36:45Z</time>
      </trkpt>
      <trkpt lat="43.75469" lon="7.25222">
        <ele>464.41674</ele>
        <time>2011-09-24T15:36:47Z</time>
      </trkpt>
      <trkpt lat="43.75457" lon="7.25221">
        <ele>465.416725</ele>
        <time>2011-09-24T15:36:50Z</time>
      </trkpt>
      <trkpt lat="43.75449" lon="7.25222">
        <ele>464.416714</ele>
        <time>2011-09-24T15:36:52Z</time>
      </trkpt>
      <trkpt lat="43.75437" lon="7.25224">
        <ele>463.416702</ele>
        <time>2011-09-24T15:36:55Z</time>
      </trkpt>
      <trkpt lat="43.75424" lon="7.25229">
        <ele>463.416695</ele>
        <time>2011-09-24T15:36:58Z</time>
      </trkpt>
      <trkpt lat="43.75415" lon="7.25235">
        <ele>464.416695</ele>
        <time>2011-09-24T15:37:00Z</time>
      </trkpt>
      <trkpt lat="43.75411" lon="7.25239">
        <ele>464.416695</ele>
        <time>2011-09-24T15:37:01Z</time>
      </trkpt>
      <trkpt lat="43.75402" lon="7.25245">
        <ele>464.416695</ele>
        <time>2011-09-24T15:37:03Z</time>
      </trkpt>
      <trkpt lat="43.75393" lon="7.25254">
        <ele>465.416702</ele>
        <time>2011-09-24T15:37:05Z</time>
      </trkpt>
      <trkpt lat="43.75383" lon="7.25264">
        <ele>465.41671</ele>
        <time>2011-09-24T15:37:07Z</time>
      </trkpt>
      <trkpt lat="43.75375" lon="7.25272">
        <ele>465.416718</ele>
        <time>2011-09-24T15:37:09Z</time>
      </trkpt>
      <trkpt lat="43.75366" lon="7.25279">
        <ele>465.416718</ele>
        <time>2011-09-24T15:37:11Z</time>
      </trkpt>
      <trkpt lat="43.75357" lon="7.25284">
        <ele>466.416721</ele>
        <time>2011-09-24T15:37:13Z</time>
      </trkpt>
      <trkpt lat="43.75345" lon="7.2529">
        <ele>466.416718</ele>
        <time>2011-09-24T15:37:16Z</time>
      </trkpt>
      <trkpt lat="43.75334" lon="7.25294">
        <ele>466.41671</ele>
        <time>2011-09-24T15:37:19Z</time>
      </trkpt>
      <trkpt lat="43.7532" lon="7.25298">
        <ele>466.416698</ele>
        <time>2011-09-24T15:37:22Z</time>
      </trkpt>
      <trkpt lat="43.7531" lon="7.25298">
        <ele>466.416679</ele>
        <time>2011-09-24T15:37:24Z</time>
      </trkpt>
      <trkpt lat="43.753" lon="7.25296">
        <ele>465.416664</ele>
        <time>2011-09-24T15:37:26Z</time>
      </trkpt>
      <trkpt lat="43.75291" lon="7.25295">
        <ele>465.416649</ele>
        <time>2011-09-24T15:37:28Z</time>
      </trkpt>
      <trkpt lat="43.75286" lon="7.25294">
        <ele>465.416641</ele>
        <time>2011-09-24T15:37:29Z</time>
      </trkpt>
      <trkpt lat="43.75274" lon="7.25289">
        <ele>464.416618</ele>
        <time>2011-09-24T15:37:32Z</time>
      </trkpt>
      <trkpt lat="43.75261" lon="7.25293">
        <ele>464.416607</ele>
        <time>2011-09-24T15:37:35Z</time>
      </trkpt>
      <trkpt lat="43.75251" lon="7.25301">
        <ele>464.416611</ele>
        <time>2011-09-24T15:37:38Z</time>
      </trkpt>
      <trkpt lat="43.75241" lon="7.25311">
        <ele>464.416618</ele>
        <time>2011-09-24T15:37:41Z</time>
      </trkpt>
      <trkpt lat="43.75231" lon="7.25322">
        <ele>464.416626</ele>
        <time>2011-09-24T15:37:44Z</time>
      </trkpt>
      <trkpt lat="43.75223" lon="7.2533">
        <ele>464.416634</ele>
        <time>2011-09-24T15:37:47Z</time>
      </trkpt>
      <trkpt lat="43.75215" lon="7.25336">
        <ele>464.416634</ele>
        <time>2011-09-24T15:37:50Z</time>
      </trkpt>
      <trkpt lat="43.75191" lon="7.25352">
        <ele>463.416634</ele>
        <time>2011-09-24T15:37:59Z</time>
      </trkpt>
      <trkpt lat="43.7518" lon="7.25359">
        <ele>463.416634</ele>
        <time>2011-09-24T15:38:02Z</time>
      </trkpt>
      <trkpt lat="43.75176" lon="7.25362">
        <ele>463.416641</ele>
        <time>2011-09-24T15:38:04Z</time>
      </trkpt>
      <trkpt lat="43.75167" lon="7.25369">
        <ele>464.416634</ele>
        <time>2011-09-24T15:38:06Z</time>
      </trkpt>
      <trkpt lat="43.75155" lon="7.2538">
        <ele>465.416641</ele>
        <time>2011-09-24T15:38:08Z</time>
      </trkpt>
      <trkpt lat="43.75145" lon="7.25388">
        <ele>466.416649</ele>
        <time>2011-09-24T15:38:09Z</time>
      </trkpt>
      <trkpt lat="43.75138" lon="7.25401">
        <ele>466.416664</ele>
        <time>2011-09-24T15:38:11Z</time>
      </trkpt>
      <trkpt lat="43.75129" lon="7.25411">
        <ele>466.416672</ele>
        <time>2011-09-24T15:38:13Z</time>
      </trkpt>
      <trkpt lat="43.7512" lon="7.25422">
        <ele>467.416687</ele>
        <time>2011-09-24T15:38:15Z</time>
      </trkpt>
      <trkpt lat="43.75114" lon="7.25436">
        <ele>467.416706</ele>
        <time>2011-09-24T15:38:17Z</time>
      </trkpt>
      <trkpt lat="43.75111" lon="7.2545">
        <ele>467.416737</ele>
        <time>2011-09-24T15:38:19Z</time>
      </trkpt>
      <trkpt lat="43.75108" lon="7.25468">
        <ele>467.416767</ele>
        <time>2011-09-24T15:38:21Z</time>
      </trkpt>
      <trkpt lat="43.75102" lon="7.25483">
        <ele>467.41679</ele>
        <time>2011-09-24T15:38:24Z</time>
      </trkpt>
      <trkpt lat="43.75094" lon="7.25491">
        <ele>466.416798</ele>
        <time>2011-09-24T15:38:26Z</time>
      </trkpt>
      <trkpt lat="43.75084" lon="7.255">
        <ele>463.416801</ele>
        <time>2011-09-24T15:38:29Z</time>
      </trkpt>
      <trkpt lat="43.75077" lon="7.25506">
        <ele>461.416805</ele>
        <time>2011-09-24T15:38:32Z</time>
      </trkpt>
      <trkpt lat="43.75067" lon="7.25514">
        <ele>457.416809</ele>
        <time>2011-09-24T15:38:37Z</time>
      </trkpt>
      <trkpt lat="43.75065" lon="7.25515">
        <ele>457.416809</ele>
        <time>2011-09-24T15:38:38Z</time>
      </trkpt>
      <trkpt lat="43.75057" lon="7.25521">
        <ele>456.416809</ele>
        <time>2011-09-24T15:38:41Z</time>
      </trkpt>
      <trkpt lat="43.75046" lon="7.25525">
        <ele>455.416801</ele>
        <time>2011-09-24T15:38:44Z</time>
      </trkpt>
      <trkpt lat="43.75035" lon="7.25528">
        <ele>454.416794</ele>
        <time>2011-09-24T15:38:47Z</time>
      </trkpt>
      <trkpt lat="43.75025" lon="7.25531">
        <ele>453.416786</ele>
        <time>2011-09-24T15:38:49Z</time>
      </trkpt>
      <trkpt lat="43.75016" lon="7.25534">
        <ele>452.416779</ele>
        <time>2011-09-24T15:38:51Z</time>
      </trkpt>
      <trkpt lat="43.75003" lon="7.25537">
        <ele>451.416767</ele>
        <time>2011-09-24T15:38:54Z</time>
      </trkpt>
      <trkpt lat="43.74991" lon="7.2554">
        <ele>449.416763</ele>
        <time>2011-09-24T15:38:57Z</time>
      </trkpt>
      <trkpt lat="43.74988" lon="7.2554">
        <ele>448.416756</ele>
        <time>2011-09-24T15:38:58Z</time>
      </trkpt>
      <trkpt lat="43.74978" lon="7.25541">
        <ele>446.416748</ele>
        <time>2011-09-24T15:39:01Z</time>
      </trkpt>
      <trkpt lat="43.74968" lon="7.25546">
        <ele>446.41674</ele>
        <time>2011-09-24T15:39:05Z</time>
      </trkpt>
      <trkpt lat="43.74945" lon="7.25553">
        <ele>445.416725</ele>
        <time>2011-09-24T15:39:13Z</time>
      </trkpt>
      <trkpt lat="43.74935" lon="7.25556">
        <ele>444.416718</ele>
        <time>2011-09-24T15:39:16Z</time>
      </trkpt>
      <trkpt lat="43.74922" lon="7.25557">
        <ele>443.416702</ele>
        <time>2011-09-24T15:39:19Z</time>
      </trkpt>
      <trkpt lat="43.74918" lon="7.25557">
        <ele>443.416695</ele>
        <time>2011-09-24T15:39:20Z</time>
      </trkpt>
      <trkpt lat="43.74906" lon="7.25558">
        <ele>443.416679</ele>
        <time>2011-09-24T15:39:23Z</time>
      </trkpt>
      <trkpt lat="43.74897" lon="7.25558">
        <ele>442.416668</ele>
        <time>2011-09-24T15:39:25Z</time>
      </trkpt>
      <trkpt lat="43.74893" lon="7.25558">
        <ele>442.416664</ele>
        <time>2011-09-24T15:39:26Z</time>
      </trkpt>
      <trkpt lat="43.74881" lon="7.25556">
        <ele>440.416641</ele>
        <time>2011-09-24T15:39:29Z</time>
      </trkpt>
      <trkpt lat="43.74871" lon="7.25555">
        <ele>439.416626</ele>
        <time>2011-09-24T15:39:31Z</time>
      </trkpt>
      <trkpt lat="43.74865" lon="7.25555">
        <ele>439.416618</ele>
        <time>2011-09-24T15:39:32Z</time>
      </trkpt>
      <trkpt lat="43.74852" lon="7.25557">
        <ele>438.416603</ele>
        <time>2011-09-24T15:39:35Z</time>
      </trkpt>
      <trkpt lat="43.74843" lon="7.25558">
        <ele>438.416595</ele>
        <time>2011-09-24T15:39:37Z</time>
      </trkpt>
      <trkpt lat="43.74835" lon="7.25559">
        <ele>438.416588</ele>
        <time>2011-09-24T15:39:39Z</time>
      </trkpt>
      <trkpt lat="43.74823" lon="7.25563">
        <ele>439.41658</ele>
        <time>2011-09-24T15:39:42Z</time>
      </trkpt>
      <trkpt lat="43.74816" lon="7.25565">
        <ele>439.416573</ele>
        <time>2011-09-24T15:39:44Z</time>
      </trkpt>
      <trkpt lat="43.74804" lon="7.25569">
        <ele>439.416565</ele>
        <time>2011-09-24T15:39:47Z</time>
      </trkpt>
      <trkpt lat="43.74793" lon="7.25571">
        <ele>440.416553</ele>
        <time>2011-09-24T15:39:50Z</time>
      </trkpt>
      <trkpt lat="43.74782" lon="7.25573">
        <ele>439.416542</ele>
        <time>2011-09-24T15:39:53Z</time>
      </trkpt>
      <trkpt lat="43.74774" lon="7.25574">
        <ele>438.416534</ele>
        <time>2011-09-24T15:39:55Z</time>
      </trkpt>
      <trkpt lat="43.74761" lon="7.25575">
        <ele>437.416519</ele>
        <time>2011-09-24T15:39:58Z</time>
      </trkpt>
      <trkpt lat="43.74752" lon="7.25575">
        <ele>437.416504</ele>
        <time>2011-09-24T15:40:00Z</time>
      </trkpt>
      <trkpt lat="43.74738" lon="7.25578">
        <ele>438.416496</ele>
        <time>2011-09-24T15:40:03Z</time>
      </trkpt>
      <trkpt lat="43.74734" lon="7.25579">
        <ele>438.416496</ele>
        <time>2011-09-24T15:40:04Z</time>
      </trkpt>
      <trkpt lat="43.74723" lon="7.25584">
        <ele>438.416489</ele>
        <time>2011-09-24T15:40:07Z</time>
      </trkpt>
      <trkpt lat="43.74714" lon="7.25588">
        <ele>439.416481</ele>
        <time>2011-09-24T15:40:09Z</time>
      </trkpt>
      <trkpt lat="43.74708" lon="7.25591">
        <ele>439.416477</ele>
        <time>2011-09-24T15:40:11Z</time>
      </trkpt>
      <trkpt lat="43.74682" lon="7.25595">
        <ele>439.416451</ele>
        <time>2011-09-24T15:40:20Z</time>
      </trkpt>
      <trkpt lat="43.74676" lon="7.25597">
        <ele>439.416451</ele>
        <time>2011-09-24T15:40:21Z</time>
      </trkpt>
      <trkpt lat="43.74664" lon="7.25601">
        <ele>438.416443</ele>
        <time>2011-09-24T15:40:26Z</time>
      </trkpt>
      <trkpt lat="43.74645" lon="7.25608">
        <ele>438.416428</ele>
        <time>2011-09-24T15:40:33Z</time>
      </trkpt>
      <trkpt lat="43.74634" lon="7.25614">
        <ele>439.416428</ele>
        <time>2011-09-24T15:40:36Z</time>
      </trkpt>
      <trkpt lat="43.74615" lon="7.25616">
        <ele>439.416405</ele>
        <time>2011-09-24T15:40:40Z</time>
      </trkpt>
      <trkpt lat="43.74608" lon="7.25615">
        <ele>438.416397</ele>
        <time>2011-09-24T15:40:41Z</time>
      </trkpt>
      <trkpt lat="43.74596" lon="7.25615">
        <ele>438.416374</ele>
        <time>2011-09-24T15:40:43Z</time>
      </trkpt>
      <trkpt lat="43.74587" lon="7.25615">
        <ele>437.416367</ele>
        <time>2011-09-24T15:40:45Z</time>
      </trkpt>
      <trkpt lat="43.74577" lon="7.25613">
        <ele>437.416348</ele>
        <time>2011-09-24T15:40:48Z</time>
      </trkpt>
      <trkpt lat="43.74568" lon="7.25617">
        <ele>437.41634</ele>
        <time>2011-09-24T15:40:52Z</time>
      </trkpt>
      <trkpt lat="43.74544" lon="7.25612">
        <ele>432.416302</ele>
        <time>2011-09-24T15:41:03Z</time>
      </trkpt>
      <trkpt lat="43.74517" lon="7.25614">
        <ele>429.41626</ele>
        <time>2011-09-24T15:41:09Z</time>
      </trkpt>
      <trkpt lat="43.74506" lon="7.25617">
        <ele>429.416256</ele>
        <time>2011-09-24T15:41:12Z</time>
      </trkpt>
      <trkpt lat="43.74496" lon="7.25622">
        <ele>429.416256</ele>
        <time>2011-09-24T15:41:14Z</time>
      </trkpt>
      <trkpt lat="43.74487" lon="7.25625">
        <ele>430.416252</ele>
        <time>2011-09-24T15:41:17Z</time>
      </trkpt>
      <trkpt lat="43.74474" lon="7.25633">
        <ele>429.416252</ele>
        <time>2011-09-24T15:41:22Z</time>
      </trkpt>
      <trkpt lat="43.74461" lon="7.25633">
        <ele>427.416229</ele>
        <time>2011-09-24T15:41:25Z</time>
      </trkpt>
      <trkpt lat="43.74451" lon="7.25632">
        <ele>427.416214</ele>
        <time>2011-09-24T15:41:27Z</time>
      </trkpt>
      <trkpt lat="43.74439" lon="7.25631">
        <ele>427.416199</ele>
        <time>2011-09-24T15:41:29Z</time>
      </trkpt>
      <trkpt lat="43.7443" lon="7.25631">
        <ele>425.416183</ele>
        <time>2011-09-24T15:41:31Z</time>
      </trkpt>
      <trkpt lat="43.74419" lon="7.25632">
        <ele>423.416168</ele>
        <time>2011-09-24T15:41:35Z</time>
      </trkpt>
      <trkpt lat="43.74409" lon="7.25634">
        <ele>422.416161</ele>
        <time>2011-09-24T15:41:38Z</time>
      </trkpt>
      <trkpt lat="43.74406" lon="7.25635">
        <ele>422.416161</ele>
        <time>2011-09-24T15:41:39Z</time>
      </trkpt>
      <trkpt lat="43.74397" lon="7.25637">
        <ele>422.416153</ele>
        <time>2011-09-24T15:41:41Z</time>
      </trkpt>
      <trkpt lat="43.74383" lon="7.25639">
        <ele>422.416134</ele>
        <time>2011-09-24T15:41:44Z</time>
      </trkpt>
      <trkpt lat="43.74378" lon="7.25638">
        <ele>421.416126</ele>
        <time>2011-09-24T15:41:45Z</time>
      </trkpt>
      <trkpt lat="43.74368" lon="7.25636">
        <ele>421.416107</ele>
        <time>2011-09-24T15:41:47Z</time>
      </trkpt>
      <trkpt lat="43.74363" lon="7.25634">
        <ele>421.416096</ele>
        <time>2011-09-24T15:41:48Z</time>
      </trkpt>
      <trkpt lat="43.74353" lon="7.2563">
        <ele>420.416077</ele>
        <time>2011-09-24T15:41:50Z</time>
      </trkpt>
      <trkpt lat="43.74342" lon="7.25623">
        <ele>420.416046</ele>
        <time>2011-09-24T15:41:53Z</time>
      </trkpt>
      <trkpt lat="43.7433" lon="7.25619">
        <ele>420.416019</ele>
        <time>2011-09-24T15:41:56Z</time>
      </trkpt>
      <trkpt lat="43.74316" lon="7.25617">
        <ele>419.416</ele>
        <time>2011-09-24T15:41:59Z</time>
      </trkpt>
      <trkpt lat="43.74305" lon="7.25615">
        <ele>419.415977</ele>
        <time>2011-09-24T15:42:01Z</time>
      </trkpt>
      <trkpt lat="43.74293" lon="7.25614">
        <ele>419.415962</ele>
        <time>2011-09-24T15:42:04Z</time>
      </trkpt>
      <trkpt lat="43.74282" lon="7.25618">
        <ele>418.415955</ele>
        <time>2011-09-24T15:42:07Z</time>
      </trkpt>
      <trkpt lat="43.74273" lon="7.25624">
        <ele>418.415955</ele>
        <time>2011-09-24T15:42:10Z</time>
      </trkpt>
      <trkpt lat="43.74265" lon="7.25633">
        <ele>418.415962</ele>
        <time>2011-09-24T15:42:13Z</time>
      </trkpt>
      <trkpt lat="43.74256" lon="7.25642">
        <ele>418.415966</ele>
        <time>2011-09-24T15:42:16Z</time>
      </trkpt>
      <trkpt lat="43.74245" lon="7.25652">
        <ele>420.415977</ele>
        <time>2011-09-24T15:42:19Z</time>
      </trkpt>
      <trkpt lat="43.74233" lon="7.25661">
        <ele>420.415977</ele>
        <time>2011-09-24T15:42:22Z</time>
      </trkpt>
      <trkpt lat="43.74226" lon="7.25669">
        <ele>421.415985</ele>
        <time>2011-09-24T15:42:24Z</time>
      </trkpt>
      <trkpt lat="43.74216" lon="7.25679">
        <ele>422.415993</ele>
        <time>2011-09-24T15:42:26Z</time>
      </trkpt>
      <trkpt lat="43.74208" lon="7.25689">
        <ele>423.416</ele>
        <time>2011-09-24T15:42:28Z</time>
      </trkpt>
      <trkpt lat="43.74203" lon="7.25696">
        <ele>423.416012</ele>
        <time>2011-09-24T15:42:30Z</time>
      </trkpt>
      <trkpt lat="43.74202" lon="7.25713">
        <ele>423.416046</ele>
        <time>2011-09-24T15:42:32Z</time>
      </trkpt>
      <trkpt lat="43.74202" lon="7.25729">
        <ele>423.41608</ele>
        <time>2011-09-24T15:42:34Z</time>
      </trkpt>
      <trkpt lat="43.74203" lon="7.25742">
        <ele>423.416107</ele>
        <time>2011-09-24T15:42:36Z</time>
      </trkpt>
      <trkpt lat="43.74204" lon="7.25752">
        <ele>422.41613</ele>
        <time>2011-09-24T15:42:37Z</time>
      </trkpt>
      <trkpt lat="43.74208" lon="7.25765">
        <ele>421.416164</ele>
        <time>2011-09-24T15:42:39Z</time>
      </trkpt>
      <trkpt lat="43.74212" lon="7.25782">
        <ele>419.416206</ele>
        <time>2011-09-24T15:42:41Z</time>
      </trkpt>
      <trkpt lat="43.74219" lon="7.25801">
        <ele>418.416256</ele>
        <time>2011-09-24T15:42:43Z</time>
      </trkpt>
      <trkpt lat="43.74228" lon="7.25819">
        <ele>417.416306</ele>
        <time>2011-09-24T15:42:45Z</time>
      </trkpt>
      <trkpt lat="43.74235" lon="7.25831">
        <ele>416.416344</ele>
        <time>2011-09-24T15:42:46Z</time>
      </trkpt>
      <trkpt lat="43.7424" lon="7.2584">
        <ele>415.416367</ele>
        <time>2011-09-24T15:42:47Z</time>
      </trkpt>
      <trkpt lat="43.74251" lon="7.25855">
        <ele>413.416416</ele>
        <time>2011-09-24T15:42:49Z</time>
      </trkpt>
      <trkpt lat="43.74263" lon="7.25868">
        <ele>411.416458</ele>
        <time>2011-09-24T15:42:51Z</time>
      </trkpt>
      <trkpt lat="43.74269" lon="7.25873">
        <ele>411.416481</ele>
        <time>2011-09-24T15:42:52Z</time>
      </trkpt>
      <trkpt lat="43.74279" lon="7.25884">
        <ele>410.416515</ele>
        <time>2011-09-24T15:42:54Z</time>
      </trkpt>
      <trkpt lat="43.74287" lon="7.25894">
        <ele>410.41655</ele>
        <time>2011-09-24T15:42:56Z</time>
      </trkpt>
      <trkpt lat="43.74289" lon="7.25911">
        <ele>409.416584</ele>
        <time>2011-09-24T15:43:00Z</time>
      </trkpt>
      <trkpt lat="43.74286" lon="7.25924">
        <ele>409.416611</ele>
        <time>2011-09-24T15:43:02Z</time>
      </trkpt>
      <trkpt lat="43.74284" lon="7.25941">
        <ele>410.416641</ele>
        <time>2011-09-24T15:43:04Z</time>
      </trkpt>
      <trkpt lat="43.74287" lon="7.2596">
        <ele>409.416687</ele>
        <time>2011-09-24T15:43:06Z</time>
      </trkpt>
      <trkpt lat="43.74292" lon="7.25971">
        <ele>409.416718</ele>
        <time>2011-09-24T15:43:07Z</time>
      </trkpt>
      <trkpt lat="43.74296" lon="7.25981">
        <ele>409.416748</ele>
        <time>2011-09-24T15:43:08Z</time>
      </trkpt>
      <trkpt lat="43.743" lon="7.25993">
        <ele>408.416779</ele>
        <time>2011-09-24T15:43:09Z</time>
      </trkpt>
      <trkpt lat="43.74304" lon="7.26003">
        <ele>408.416801</ele>
        <time>2011-09-24T15:43:10Z</time>
      </trkpt>
      <trkpt lat="43.74311" lon="7.26025">
        <ele>407.416862</ele>
        <time>2011-09-24T15:43:12Z</time>
      </trkpt>
      <trkpt lat="43.74318" lon="7.26048">
        <ele>407.416916</ele>
        <time>2011-09-24T15:43:14Z</time>
      </trkpt>
      <trkpt lat="43.74324" lon="7.2607">
        <ele>406.416977</ele>
        <time>2011-09-24T15:43:16Z</time>
      </trkpt>
      <trkpt lat="43.7433" lon="7.26091">
        <ele>406.417027</ele>
        <time>2011-09-24T15:43:18Z</time>
      </trkpt>
      <trkpt lat="43.74335" lon="7.26111">
        <ele>405.417076</ele>
        <time>2011-09-24T15:43:20Z</time>
      </trkpt>
      <trkpt lat="43.74342" lon="7.26131">
        <ele>405.41713</ele>
        <time>2011-09-24T15:43:22Z</time>
      </trkpt>
      <trkpt lat="43.74345" lon="7.26141">
        <ele>405.417152</ele>
        <time>2011-09-24T15:43:23Z</time>
      </trkpt>
      <trkpt lat="43.74351" lon="7.26163">
        <ele>404.417206</ele>
        <time>2011-09-24T15:43:25Z</time>
      </trkpt>
      <trkpt lat="43.74359" lon="7.26187">
        <ele>402.417271</ele>
        <time>2011-09-24T15:43:27Z</time>
      </trkpt>
      <trkpt lat="43.74364" lon="7.26199">
        <ele>402.417297</ele>
        <time>2011-09-24T15:43:28Z</time>
      </trkpt>
      <trkpt lat="43.74368" lon="7.26214">
        <ele>401.417336</ele>
        <time>2011-09-24T15:43:29Z</time>
      </trkpt>
      <trkpt lat="43.74372" lon="7.26227">
        <ele>401.417374</ele>
        <time>2011-09-24T15:43:30Z</time>
      </trkpt>
      <trkpt lat="43.74377" lon="7.26239">
        <ele>401.417404</ele>
        <time>2011-09-24T15:43:31Z</time>
      </trkpt>
      <trkpt lat="43.74384" lon="7.26261">
        <ele>401.417458</ele>
        <time>2011-09-24T15:43:32Z</time>
      </trkpt>
      <trkpt lat="43.74386" lon="7.26276">
        <ele>400.417496</ele>
        <time>2011-09-24T15:43:34Z</time>
      </trkpt>
      <trkpt lat="43.74381" lon="7.26294">
        <ele>400.417526</ele>
        <time>2011-09-24T15:43:36Z</time>
      </trkpt>
      <trkpt lat="43.74373" lon="7.2631">
        <ele>399.417549</ele>
        <time>2011-09-24T15:43:37Z</time>
      </trkpt>
      <trkpt lat="43.74365" lon="7.26323">
        <ele>398.417564</ele>
        <time>2011-09-24T15:43:39Z</time>
      </trkpt>
      <trkpt lat="43.74358" lon="7.26332">
        <ele>395.417576</ele>
        <time>2011-09-24T15:43:43Z</time>
      </trkpt>
      <trkpt lat="43.74351" lon="7.26348">
        <ele>391.417603</ele>
        <time>2011-09-24T15:43:51Z</time>
      </trkpt>
      <trkpt lat="43.74355" lon="7.26364">
        <ele>388.417641</ele>
        <time>2011-09-24T15:43:54Z</time>
      </trkpt>
      <trkpt lat="43.74361" lon="7.26382">
        <ele>384.41769</ele>
        <time>2011-09-24T15:43:57Z</time>
      </trkpt>
      <trkpt lat="43.74362" lon="7.26388">
        <ele>384.417702</ele>
        <time>2011-09-24T15:43:58Z</time>
      </trkpt>
      <trkpt lat="43.74367" lon="7.26406">
        <ele>382.417747</ele>
        <time>2011-09-24T15:44:01Z</time>
      </trkpt>
      <trkpt lat="43.74371" lon="7.26424">
        <ele>379.417793</ele>
        <time>2011-09-24T15:44:04Z</time>
      </trkpt>
      <trkpt lat="43.74374" lon="7.26439">
        <ele>378.417824</ele>
        <time>2011-09-24T15:44:06Z</time>
      </trkpt>
      <trkpt lat="43.74378" lon="7.26457">
        <ele>376.417873</ele>
        <time>2011-09-24T15:44:08Z</time>
      </trkpt>
      <trkpt lat="43.74381" lon="7.26476">
        <ele>374.417915</ele>
        <time>2011-09-24T15:44:10Z</time>
      </trkpt>
      <trkpt lat="43.74384" lon="7.2649">
        <ele>373.41795</ele>
        <time>2011-09-24T15:44:12Z</time>
      </trkpt>
      <trkpt lat="43.74385" lon="7.26505">
        <ele>372.417984</ele>
        <time>2011-09-24T15:44:14Z</time>
      </trkpt>
      <trkpt lat="43.74386" lon="7.2652">
        <ele>371.418018</ele>
        <time>2011-09-24T15:44:16Z</time>
      </trkpt>
      <trkpt lat="43.74389" lon="7.26536">
        <ele>371.418053</ele>
        <time>2011-09-24T15:44:18Z</time>
      </trkpt>
      <trkpt lat="43.74393" lon="7.26556">
        <ele>370.418098</ele>
        <time>2011-09-24T15:44:20Z</time>
      </trkpt>
      <trkpt lat="43.74395" lon="7.26568">
        <ele>369.418129</ele>
        <time>2011-09-24T15:44:21Z</time>
      </trkpt>
      <trkpt lat="43.74397" lon="7.2658">
        <ele>367.418159</ele>
        <time>2011-09-24T15:44:22Z</time>
      </trkpt>
      <trkpt lat="43.74401" lon="7.26598">
        <ele>365.418205</ele>
        <time>2011-09-24T15:44:24Z</time>
      </trkpt>
      <trkpt lat="43.74406" lon="7.26617">
        <ele>363.418251</ele>
        <time>2011-09-24T15:44:26Z</time>
      </trkpt>
      <trkpt lat="43.74408" lon="7.26626">
        <ele>362.41827</ele>
        <time>2011-09-24T15:44:27Z</time>
      </trkpt>
      <trkpt lat="43.74413" lon="7.26645">
        <ele>361.41832</ele>
        <time>2011-09-24T15:44:29Z</time>
      </trkpt>
      <trkpt lat="43.74418" lon="7.26665">
        <ele>360.418365</ele>
        <time>2011-09-24T15:44:31Z</time>
      </trkpt>
      <trkpt lat="43.74422" lon="7.26684">
        <ele>359.418415</ele>
        <time>2011-09-24T15:44:33Z</time>
      </trkpt>
      <trkpt lat="43.74428" lon="7.26703">
        <ele>358.418465</ele>
        <time>2011-09-24T15:44:35Z</time>
      </trkpt>
      <trkpt lat="43.74434" lon="7.26722">
        <ele>357.418514</ele>
        <time>2011-09-24T15:44:37Z</time>
      </trkpt>
      <trkpt lat="43.74437" lon="7.26743">
        <ele>357.418556</ele>
        <time>2011-09-24T15:44:39Z</time>
      </trkpt>
      <trkpt lat="43.74439" lon="7.26764">
        <ele>356.418602</ele>
        <time>2011-09-24T15:44:41Z</time>
      </trkpt>
      <trkpt lat="43.74438" lon="7.26785">
        <ele>356.418652</ele>
        <time>2011-09-24T15:44:43Z</time>
      </trkpt>
      <trkpt lat="43.74438" lon="7.26806">
        <ele>355.418697</ele>
        <time>2011-09-24T15:44:45Z</time>
      </trkpt>
      <trkpt lat="43.74436" lon="7.26826">
        <ele>354.418736</ele>
        <time>2011-09-24T15:44:47Z</time>
      </trkpt>
      <trkpt lat="43.74432" lon="7.26847">
        <ele>354.418774</ele>
        <time>2011-09-24T15:44:49Z</time>
      </trkpt>
      <trkpt lat="43.74429" lon="7.26867">
        <ele>354.418816</ele>
        <time>2011-09-24T15:44:51Z</time>
      </trkpt>
      <trkpt lat="43.74425" lon="7.26889">
        <ele>354.418854</ele>
        <time>2011-09-24T15:44:53Z</time>
      </trkpt>
      <trkpt lat="43.7442" lon="7.26912">
        <ele>353.418892</ele>
        <time>2011-09-24T15:44:55Z</time>
      </trkpt>
      <trkpt lat="43.74415" lon="7.26934">
        <ele>353.418938</ele>
        <time>2011-09-24T15:44:57Z</time>
      </trkpt>
      <trkpt lat="43.7441" lon="7.26956">
        <ele>352.418976</ele>
        <time>2011-09-24T15:44:59Z</time>
      </trkpt>
      <trkpt lat="43.74408" lon="7.26969">
        <ele>352.419003</ele>
        <time>2011-09-24T15:45:00Z</time>
      </trkpt>
      <trkpt lat="43.74406" lon="7.26983">
        <ele>352.419025</ele>
        <time>2011-09-24T15:45:01Z</time>
      </trkpt>
      <trkpt lat="43.74404" lon="7.26998">
        <ele>352.419052</ele>
        <time>2011-09-24T15:45:02Z</time>
      </trkpt>
      <trkpt lat="43.74401" lon="7.27011">
        <ele>352.419079</ele>
        <time>2011-09-24T15:45:03Z</time>
      </trkpt>
      <trkpt lat="43.74399" lon="7.27024">
        <ele>352.419106</ele>
        <time>2011-09-24T15:45:04Z</time>
      </trkpt>
      <trkpt lat="43.74397" lon="7.27036">
        <ele>351.419125</ele>
        <time>2011-09-24T15:45:05Z</time>
      </trkpt>
      <trkpt lat="43.74395" lon="7.27049">
        <ele>351.419151</ele>
        <time>2011-09-24T15:45:06Z</time>
      </trkpt>
      <trkpt lat="43.74391" lon="7.27064">
        <ele>350.419182</ele>
        <time>2011-09-24T15:45:07Z</time>
      </trkpt>
      <trkpt lat="43.74388" lon="7.27078">
        <ele>350.419205</ele>
        <time>2011-09-24T15:45:08Z</time>
      </trkpt>
      <trkpt lat="43.74385" lon="7.27091">
        <ele>350.419228</ele>
        <time>2011-09-24T15:45:09Z</time>
      </trkpt>
      <trkpt lat="43.74381" lon="7.27105">
        <ele>350.41925</ele>
        <time>2011-09-24T15:45:10Z</time>
      </trkpt>
      <trkpt lat="43.74379" lon="7.27118">
        <ele>350.419277</ele>
        <time>2011-09-24T15:45:11Z</time>
      </trkpt>
      <trkpt lat="43.74376" lon="7.27133">
        <ele>349.419304</ele>
        <time>2011-09-24T15:45:12Z</time>
      </trkpt>
      <trkpt lat="43.74373" lon="7.27149">
        <ele>349.419334</ele>
        <time>2011-09-24T15:45:13Z</time>
      </trkpt>
      <trkpt lat="43.74369" lon="7.27164">
        <ele>349.419365</ele>
        <time>2011-09-24T15:45:14Z</time>
      </trkpt>
      <trkpt lat="43.74364" lon="7.27179">
        <ele>349.419388</ele>
        <time>2011-09-24T15:45:15Z</time>
      </trkpt>
      <trkpt lat="43.74359" lon="7.27193">
        <ele>349.419411</ele>
        <time>2011-09-24T15:45:16Z</time>
      </trkpt>
      <trkpt lat="43.74354" lon="7.27208">
        <ele>349.419434</ele>
        <time>2011-09-24T15:45:17Z</time>
      </trkpt>
      <trkpt lat="43.74349" lon="7.27222">
        <ele>349.419456</ele>
        <time>2011-09-24T15:45:18Z</time>
      </trkpt>
      <trkpt lat="43.74344" lon="7.27235">
        <ele>350.419483</ele>
        <time>2011-09-24T15:45:19Z</time>
      </trkpt>
      <trkpt lat="43.74337" lon="7.27247">
        <ele>350.419495</ele>
        <time>2011-09-24T15:45:20Z</time>
      </trkpt>
      <trkpt lat="43.74328" lon="7.27254">
        <ele>350.419502</ele>
        <time>2011-09-24T15:45:21Z</time>
      </trkpt>
      <trkpt lat="43.74318" lon="7.27261">
        <ele>350.419502</ele>
        <time>2011-09-24T15:45:22Z</time>
      </trkpt>
      <trkpt lat="43.74309" lon="7.27268">
        <ele>350.419502</ele>
        <time>2011-09-24T15:45:23Z</time>
      </trkpt>
      <trkpt lat="43.743" lon="7.27275">
        <ele>350.419506</ele>
        <time>2011-09-24T15:45:24Z</time>
      </trkpt>
      <trkpt lat="43.74291" lon="7.27283">
        <ele>350.41951</ele>
        <time>2011-09-24T15:45:25Z</time>
      </trkpt>
      <trkpt lat="43.74283" lon="7.27291">
        <ele>351.419518</ele>
        <time>2011-09-24T15:45:26Z</time>
      </trkpt>
      <trkpt lat="43.74266" lon="7.2731">
        <ele>351.419533</ele>
        <time>2011-09-24T15:45:28Z</time>
      </trkpt>
      <trkpt lat="43.74257" lon="7.27318">
        <ele>351.419533</ele>
        <time>2011-09-24T15:45:29Z</time>
      </trkpt>
      <trkpt lat="43.74248" lon="7.27327">
        <ele>351.419544</ele>
        <time>2011-09-24T15:45:30Z</time>
      </trkpt>
      <trkpt lat="43.74238" lon="7.27339">
        <ele>351.419556</ele>
        <time>2011-09-24T15:45:31Z</time>
      </trkpt>
      <trkpt lat="43.74229" lon="7.27349">
        <ele>351.419567</ele>
        <time>2011-09-24T15:45:32Z</time>
      </trkpt>
      <trkpt lat="43.7421" lon="7.27368">
        <ele>352.419579</ele>
        <time>2011-09-24T15:45:34Z</time>
      </trkpt>
      <trkpt lat="43.742" lon="7.27377">
        <ele>353.419586</ele>
        <time>2011-09-24T15:45:35Z</time>
      </trkpt>
      <trkpt lat="43.74189" lon="7.27384">
        <ele>353.419586</ele>
        <time>2011-09-24T15:45:36Z</time>
      </trkpt>
      <trkpt lat="43.74178" lon="7.27389">
        <ele>353.419579</ele>
        <time>2011-09-24T15:45:37Z</time>
      </trkpt>
      <trkpt lat="43.74155" lon="7.274">
        <ele>353.419575</ele>
        <time>2011-09-24T15:45:39Z</time>
      </trkpt>
      <trkpt lat="43.74143" lon="7.27405">
        <ele>353.419563</ele>
        <time>2011-09-24T15:45:40Z</time>
      </trkpt>
      <trkpt lat="43.74131" lon="7.27409">
        <ele>353.419559</ele>
        <time>2011-09-24T15:45:41Z</time>
      </trkpt>
      <trkpt lat="43.74119" lon="7.27415">
        <ele>353.419556</ele>
        <time>2011-09-24T15:45:42Z</time>
      </trkpt>
      <trkpt lat="43.74094" lon="7.27425">
        <ele>352.41954</ele>
        <time>2011-09-24T15:45:44Z</time>
      </trkpt>
      <trkpt lat="43.74082" lon="7.2743">
        <ele>352.41954</ele>
        <time>2011-09-24T15:45:45Z</time>
      </trkpt>
      <trkpt lat="43.7407" lon="7.27435">
        <ele>352.419533</ele>
        <time>2011-09-24T15:45:46Z</time>
      </trkpt>
      <trkpt lat="43.74058" lon="7.27441">
        <ele>352.419525</ele>
        <time>2011-09-24T15:45:47Z</time>
      </trkpt>
      <trkpt lat="43.74034" lon="7.27451">
        <ele>352.419518</ele>
        <time>2011-09-24T15:45:49Z</time>
      </trkpt>
      <trkpt lat="43.74023" lon="7.27458">
        <ele>352.419518</ele>
        <time>2011-09-24T15:45:50Z</time>
      </trkpt>
      <trkpt lat="43.74011" lon="7.27464">
        <ele>352.41951</ele>
        <time>2011-09-24T15:45:51Z</time>
      </trkpt>
      <trkpt lat="43.74" lon="7.27469">
        <ele>352.41951</ele>
        <time>2011-09-24T15:45:52Z</time>
      </trkpt>
      <trkpt lat="43.73981" lon="7.27473">
        <ele>352.419495</ele>
        <time>2011-09-24T15:45:54Z</time>
      </trkpt>
      <trkpt lat="43.73965" lon="7.27466">
        <ele>353.419456</ele>
        <time>2011-09-24T15:45:56Z</time>
      </trkpt>
      <trkpt lat="43.73947" lon="7.27456">
        <ele>354.419407</ele>
        <time>2011-09-24T15:45:58Z</time>
      </trkpt>
      <trkpt lat="43.7393" lon="7.27448">
        <ele>357.419365</ele>
        <time>2011-09-24T15:46:00Z</time>
      </trkpt>
      <trkpt lat="43.7392" lon="7.27443">
        <ele>358.419346</ele>
        <time>2011-09-24T15:46:01Z</time>
      </trkpt>
      <trkpt lat="43.7391" lon="7.27439">
        <ele>360.419327</ele>
        <time>2011-09-24T15:46:02Z</time>
      </trkpt>
      <trkpt lat="43.73901" lon="7.27433">
        <ele>361.419296</ele>
        <time>2011-09-24T15:46:03Z</time>
      </trkpt>
      <trkpt lat="43.73891" lon="7.27426">
        <ele>361.41927</ele>
        <time>2011-09-24T15:46:04Z</time>
      </trkpt>
      <trkpt lat="43.73881" lon="7.27419">
        <ele>360.419243</ele>
        <time>2011-09-24T15:46:05Z</time>
      </trkpt>
      <trkpt lat="43.73874" lon="7.27409">
        <ele>360.419209</ele>
        <time>2011-09-24T15:46:06Z</time>
      </trkpt>
      <trkpt lat="43.73866" lon="7.27398">
        <ele>360.419178</ele>
        <time>2011-09-24T15:46:07Z</time>
      </trkpt>
      <trkpt lat="43.7386" lon="7.27388">
        <ele>360.419144</ele>
        <time>2011-09-24T15:46:08Z</time>
      </trkpt>
      <trkpt lat="43.73853" lon="7.27378">
        <ele>359.419117</ele>
        <time>2011-09-24T15:46:09Z</time>
      </trkpt>
      <trkpt lat="43.73847" lon="7.27369">
        <ele>359.41909</ele>
        <time>2011-09-24T15:46:10Z</time>
      </trkpt>
      <trkpt lat="43.73839" lon="7.27357">
        <ele>359.419052</ele>
        <time>2011-09-24T15:46:12Z</time>
      </trkpt>
      <trkpt lat="43.73859" lon="7.27334">
        <ele>357.419025</ele>
        <time>2011-09-24T15:46:14Z</time>
      </trkpt>
      <trkpt lat="43.73866" lon="7.27325">
        <ele>357.419022</ele>
        <time>2011-09-24T15:46:15Z</time>
      </trkpt>
      <trkpt lat="43.73877" lon="7.27305">
        <ele>355.418991</ele>
        <time>2011-09-24T15:46:17Z</time>
      </trkpt>
      <trkpt lat="43.7388" lon="7.27291">
        <ele>355.418964</ele>
        <time>2011-09-24T15:46:18Z</time>
      </trkpt>
      <trkpt lat="43.73882" lon="7.27309">
        <ele>349.419006</ele>
        <time>2011-09-24T15:46:24Z</time>
      </trkpt>
      <trkpt lat="43.73872" lon="7.27321">
        <ele>347.419018</ele>
        <time>2011-09-24T15:46:26Z</time>
      </trkpt>
      <trkpt lat="43.73864" lon="7.27328">
        <ele>347.419022</ele>
        <time>2011-09-24T15:46:27Z</time>
      </trkpt>
      <trkpt lat="43.73849" lon="7.27341">
        <ele>346.419029</ele>
        <time>2011-09-24T15:46:29Z</time>
      </trkpt>
      <trkpt lat="43.7384" lon="7.27349">
        <ele>345.419037</ele>
        <time>2011-09-24T15:46:30Z</time>
      </trkpt>
      <trkpt lat="43.73833" lon="7.27358">
        <ele>345.419041</ele>
        <time>2011-09-24T15:46:31Z</time>
      </trkpt>
      <trkpt lat="43.73823" lon="7.27368">
        <ele>345.419052</ele>
        <time>2011-09-24T15:46:32Z</time>
      </trkpt>
      <trkpt lat="43.73822" lon="7.27381">
        <ele>344.419079</ele>
        <time>2011-09-24T15:46:33Z</time>
      </trkpt>
      <trkpt lat="43.7382" lon="7.27394">
        <ele>344.419106</ele>
        <time>2011-09-24T15:46:34Z</time>
      </trkpt>
      <trkpt lat="43.73817" lon="7.27408">
        <ele>344.419128</ele>
        <time>2011-09-24T15:46:35Z</time>
      </trkpt>
      <trkpt lat="43.73821" lon="7.2742">
        <ele>343.419159</ele>
        <time>2011-09-24T15:46:36Z</time>
      </trkpt>
      <trkpt lat="43.73825" lon="7.27431">
        <ele>343.419189</ele>
        <time>2011-09-24T15:46:37Z</time>
      </trkpt>
      <trkpt lat="43.73831" lon="7.27446">
        <ele>342.419228</ele>
        <time>2011-09-24T15:46:38Z</time>
      </trkpt>
      <trkpt lat="43.73836" lon="7.27458">
        <ele>341.419262</ele>
        <time>2011-09-24T15:46:39Z</time>
      </trkpt>
      <trkpt lat="43.73843" lon="7.2747">
        <ele>341.419296</ele>
        <time>2011-09-24T15:46:40Z</time>
      </trkpt>
      <trkpt lat="43.7385" lon="7.27483">
        <ele>340.419334</ele>
        <time>2011-09-24T15:46:41Z</time>
      </trkpt>
      <trkpt lat="43.73856" lon="7.27495">
        <ele>339.419369</ele>
        <time>2011-09-24T15:46:42Z</time>
      </trkpt>
      <trkpt lat="43.73863" lon="7.27507">
        <ele>337.419403</ele>
        <time>2011-09-24T15:46:43Z</time>
      </trkpt>
      <trkpt lat="43.7387" lon="7.27518">
        <ele>336.419434</ele>
        <time>2011-09-24T15:46:44Z</time>
      </trkpt>
      <trkpt lat="43.73876" lon="7.27528">
        <ele>336.419464</ele>
        <time>2011-09-24T15:46:45Z</time>
      </trkpt>
      <trkpt lat="43.73881" lon="7.2754">
        <ele>336.419502</ele>
        <time>2011-09-24T15:46:46Z</time>
      </trkpt>
      <trkpt lat="43.73883" lon="7.27553">
        <ele>335.419525</ele>
        <time>2011-09-24T15:46:47Z</time>
      </trkpt>
      <trkpt lat="43.7388" lon="7.27565">
        <ele>335.419548</ele>
        <time>2011-09-24T15:46:48Z</time>
      </trkpt>
      <trkpt lat="43.73877" lon="7.27577">
        <ele>335.419571</ele>
        <time>2011-09-24T15:46:49Z</time>
      </trkpt>
      <trkpt lat="43.7387" lon="7.27586">
        <ele>334.419586</ele>
        <time>2011-09-24T15:46:50Z</time>
      </trkpt>
      <trkpt lat="43.73864" lon="7.27595">
        <ele>334.41959</ele>
        <time>2011-09-24T15:46:51Z</time>
      </trkpt>
      <trkpt lat="43.73857" lon="7.27603">
        <ele>334.419601</ele>
        <time>2011-09-24T15:46:52Z</time>
      </trkpt>
      <trkpt lat="43.73851" lon="7.27613">
        <ele>333.419617</ele>
        <time>2011-09-24T15:46:53Z</time>
      </trkpt>
      <trkpt lat="43.73838" lon="7.27631">
        <ele>332.419632</ele>
        <time>2011-09-24T15:46:55Z</time>
      </trkpt>
      <trkpt lat="43.73833" lon="7.27643">
        <ele>331.419655</ele>
        <time>2011-09-24T15:46:56Z</time>
      </trkpt>
      <trkpt lat="43.73834" lon="7.27672">
        <ele>330.419712</ele>
        <time>2011-09-24T15:46:58Z</time>
      </trkpt>
      <trkpt lat="43.73838" lon="7.27687">
        <ele>326.41975</ele>
        <time>2011-09-24T15:46:59Z</time>
      </trkpt>
      <trkpt lat="43.73844" lon="7.27699">
        <ele>323.419785</ele>
        <time>2011-09-24T15:47:00Z</time>
      </trkpt>
      <trkpt lat="43.73857" lon="7.27721">
        <ele>316.419846</ele>
        <time>2011-09-24T15:47:02Z</time>
      </trkpt>
      <trkpt lat="43.73865" lon="7.27729">
        <ele>314.41988</ele>
        <time>2011-09-24T15:47:03Z</time>
      </trkpt>
      <trkpt lat="43.73874" lon="7.27734">
        <ele>312.419903</ele>
        <time>2011-09-24T15:47:04Z</time>
      </trkpt>
      <trkpt lat="43.73885" lon="7.27736">
        <ele>307.419922</ele>
        <time>2011-09-24T15:47:05Z</time>
      </trkpt>
      <trkpt lat="43.73906" lon="7.27739">
        <ele>302.419956</ele>
        <time>2011-09-24T15:47:07Z</time>
      </trkpt>
      <trkpt lat="43.73917" lon="7.27741">
        <ele>300.419975</ele>
        <time>2011-09-24T15:47:08Z</time>
      </trkpt>
      <trkpt lat="43.73928" lon="7.27742">
        <ele>298.419994</ele>
        <time>2011-09-24T15:47:09Z</time>
      </trkpt>
      <trkpt lat="43.73947" lon="7.27749">
        <ele>294.420033</ele>
        <time>2011-09-24T15:47:11Z</time>
      </trkpt>
      <trkpt lat="43.73955" lon="7.27756">
        <ele>293.420059</ele>
        <time>2011-09-24T15:47:12Z</time>
      </trkpt>
      <trkpt lat="43.73954" lon="7.27771">
        <ele>292.42009</ele>
        <time>2011-09-24T15:47:14Z</time>
      </trkpt>
      <trkpt lat="43.73942" lon="7.27784">
        <ele>291.420097</ele>
        <time>2011-09-24T15:47:16Z</time>
      </trkpt>
      <trkpt lat="43.73934" lon="7.27789">
        <ele>291.420101</ele>
        <time>2011-09-24T15:47:17Z</time>
      </trkpt>
      <trkpt lat="43.73924" lon="7.27793">
        <ele>291.420097</ele>
        <time>2011-09-24T15:47:18Z</time>
      </trkpt>
      <trkpt lat="43.73915" lon="7.27796">
        <ele>291.42009</ele>
        <time>2011-09-24T15:47:19Z</time>
      </trkpt>
      <trkpt lat="43.73906" lon="7.27799">
        <ele>290.420082</ele>
        <time>2011-09-24T15:47:20Z</time>
      </trkpt>
      <trkpt lat="43.73895" lon="7.27803">
        <ele>291.420074</ele>
        <time>2011-09-24T15:47:21Z</time>
      </trkpt>
      <trkpt lat="43.73871" lon="7.27812">
        <ele>291.420063</ele>
        <time>2011-09-24T15:47:23Z</time>
      </trkpt>
      <trkpt lat="43.73859" lon="7.27816">
        <ele>290.420052</ele>
        <time>2011-09-24T15:47:24Z</time>
      </trkpt>
      <trkpt lat="43.73844" lon="7.2782">
        <ele>289.420044</ele>
        <time>2011-09-24T15:47:25Z</time>
      </trkpt>
      <trkpt lat="43.73817" lon="7.2783">
        <ele>288.420029</ele>
        <time>2011-09-24T15:47:27Z</time>
      </trkpt>
      <trkpt lat="43.73802" lon="7.27834">
        <ele>287.420017</ele>
        <time>2011-09-24T15:47:28Z</time>
      </trkpt>
      <trkpt lat="43.73788" lon="7.27839">
        <ele>286.420006</ele>
        <time>2011-09-24T15:47:29Z</time>
      </trkpt>
      <trkpt lat="43.73774" lon="7.27845">
        <ele>286.420006</ele>
        <time>2011-09-24T15:47:30Z</time>
      </trkpt>
      <trkpt lat="43.73747" lon="7.27858">
        <ele>284.419991</ele>
        <time>2011-09-24T15:47:32Z</time>
      </trkpt>
      <trkpt lat="43.73733" lon="7.27864">
        <ele>283.419987</ele>
        <time>2011-09-24T15:47:33Z</time>
      </trkpt>
      <trkpt lat="43.73719" lon="7.2787">
        <ele>281.419975</ele>
        <time>2011-09-24T15:47:34Z</time>
      </trkpt>
      <trkpt lat="43.73692" lon="7.27881">
        <ele>278.419968</ele>
        <time>2011-09-24T15:47:36Z</time>
      </trkpt>
      <trkpt lat="43.7368" lon="7.27889">
        <ele>277.419968</ele>
        <time>2011-09-24T15:47:37Z</time>
      </trkpt>
      <trkpt lat="43.73666" lon="7.27897">
        <ele>275.419968</ele>
        <time>2011-09-24T15:47:38Z</time>
      </trkpt>
      <trkpt lat="43.73646" lon="7.2791">
        <ele>274.419968</ele>
        <time>2011-09-24T15:47:40Z</time>
      </trkpt>
      <trkpt lat="43.73643" lon="7.27912">
        <ele>274.419968</ele>
        <time>2011-09-24T15:47:41Z</time>
      </trkpt>
      <trkpt lat="43.73627" lon="7.27905">
        <ele>272.41993</ele>
        <time>2011-09-24T15:47:43Z</time>
      </trkpt>
      <trkpt lat="43.73618" lon="7.279">
        <ele>272.419907</ele>
        <time>2011-09-24T15:47:44Z</time>
      </trkpt>
      <trkpt lat="43.73609" lon="7.27897">
        <ele>271.419884</ele>
        <time>2011-09-24T15:47:45Z</time>
      </trkpt>
      <trkpt lat="43.73592" lon="7.27892">
        <ele>269.419853</ele>
        <time>2011-09-24T15:47:47Z</time>
      </trkpt>
      <trkpt lat="43.73581" lon="7.27892">
        <ele>269.419838</ele>
        <time>2011-09-24T15:47:48Z</time>
      </trkpt>
      <trkpt lat="43.73571" lon="7.27891">
        <ele>268.419823</ele>
        <time>2011-09-24T15:47:49Z</time>
      </trkpt>
      <trkpt lat="43.73561" lon="7.27887">
        <ele>268.4198</ele>
        <time>2011-09-24T15:47:50Z</time>
      </trkpt>
      <trkpt lat="43.73541" lon="7.27872">
        <ele>267.419746</ele>
        <time>2011-09-24T15:47:52Z</time>
      </trkpt>
      <trkpt lat="43.73531" lon="7.27864">
        <ele>267.419708</ele>
        <time>2011-09-24T15:47:53Z</time>
      </trkpt>
      <trkpt lat="43.73521" lon="7.27856">
        <ele>266.419682</ele>
        <time>2011-09-24T15:47:54Z</time>
      </trkpt>
      <trkpt lat="43.73499" lon="7.27841">
        <ele>265.419617</ele>
        <time>2011-09-24T15:47:56Z</time>
      </trkpt>
      <trkpt lat="43.73488" lon="7.27833">
        <ele>264.419586</ele>
        <time>2011-09-24T15:47:57Z</time>
      </trkpt>
      <trkpt lat="43.73467" lon="7.27818">
        <ele>263.419525</ele>
        <time>2011-09-24T15:47:59Z</time>
      </trkpt>
      <trkpt lat="43.73456" lon="7.27811">
        <ele>263.419495</ele>
        <time>2011-09-24T15:48:00Z</time>
      </trkpt>
      <trkpt lat="43.73446" lon="7.27804">
        <ele>263.419468</ele>
        <time>2011-09-24T15:48:01Z</time>
      </trkpt>
      <trkpt lat="43.73423" lon="7.27792">
        <ele>262.419415</ele>
        <time>2011-09-24T15:48:03Z</time>
      </trkpt>
      <trkpt lat="43.73412" lon="7.27786">
        <ele>262.41938</ele>
        <time>2011-09-24T15:48:04Z</time>
      </trkpt>
      <trkpt lat="43.73401" lon="7.27779">
        <ele>262.419357</ele>
        <time>2011-09-24T15:48:05Z</time>
      </trkpt>
      <trkpt lat="43.73385" lon="7.27757">
        <ele>261.419285</ele>
        <time>2011-09-24T15:48:07Z</time>
      </trkpt>
      <trkpt lat="43.73377" lon="7.27745">
        <ele>261.41925</ele>
        <time>2011-09-24T15:48:08Z</time>
      </trkpt>
      <trkpt lat="43.73371" lon="7.27732">
        <ele>261.419212</ele>
        <time>2011-09-24T15:48:09Z</time>
      </trkpt>
      <trkpt lat="43.73365" lon="7.27719">
        <ele>261.419174</ele>
        <time>2011-09-24T15:48:10Z</time>
      </trkpt>
      <trkpt lat="43.73354" lon="7.27693">
        <ele>261.419109</ele>
        <time>2011-09-24T15:48:12Z</time>
      </trkpt>
      <trkpt lat="43.73349" lon="7.27681">
        <ele>261.419075</ele>
        <time>2011-09-24T15:48:13Z</time>
      </trkpt>
      <trkpt lat="43.73344" lon="7.27665">
        <ele>260.419033</ele>
        <time>2011-09-24T15:48:15Z</time>
      </trkpt>
      <trkpt lat="43.73343" lon="7.27651">
        <ele>259.419006</ele>
        <time>2011-09-24T15:48:17Z</time>
      </trkpt>
      <trkpt lat="43.7334" lon="7.27635">
        <ele>257.418961</ele>
        <time>2011-09-24T15:48:21Z</time>
      </trkpt>
      <trkpt lat="43.73327" lon="7.27623">
        <ele>255.418922</ele>
        <time>2011-09-24T15:48:23Z</time>
      </trkpt>
      <trkpt lat="43.73318" lon="7.27618">
        <ele>255.418896</ele>
        <time>2011-09-24T15:48:24Z</time>
      </trkpt>
      <trkpt lat="43.73302" lon="7.27607">
        <ele>254.418854</ele>
        <time>2011-09-24T15:48:26Z</time>
      </trkpt>
      <trkpt lat="43.73294" lon="7.27601">
        <ele>254.418827</ele>
        <time>2011-09-24T15:48:27Z</time>
      </trkpt>
      <trkpt lat="43.73279" lon="7.27591">
        <ele>253.418785</ele>
        <time>2011-09-24T15:48:29Z</time>
      </trkpt>
      <trkpt lat="43.73264" lon="7.27582">
        <ele>253.418747</ele>
        <time>2011-09-24T15:48:31Z</time>
      </trkpt>
      <trkpt lat="43.73248" lon="7.27577">
        <ele>252.418716</ele>
        <time>2011-09-24T15:48:33Z</time>
      </trkpt>
      <trkpt lat="43.73238" lon="7.27574">
        <ele>251.418694</ele>
        <time>2011-09-24T15:48:34Z</time>
      </trkpt>
      <trkpt lat="43.73229" lon="7.27572">
        <ele>250.418678</ele>
        <time>2011-09-24T15:48:35Z</time>
      </trkpt>
      <trkpt lat="43.73213" lon="7.27566">
        <ele>249.418644</ele>
        <time>2011-09-24T15:48:37Z</time>
      </trkpt>
      <trkpt lat="43.73203" lon="7.27563">
        <ele>249.418625</ele>
        <time>2011-09-24T15:48:38Z</time>
      </trkpt>
      <trkpt lat="43.73181" lon="7.27559">
        <ele>246.418579</ele>
        <time>2011-09-24T15:48:40Z</time>
      </trkpt>
      <trkpt lat="43.7317" lon="7.27559">
        <ele>245.418568</ele>
        <time>2011-09-24T15:48:41Z</time>
      </trkpt>
      <trkpt lat="43.73154" lon="7.27561">
        <ele>243.418549</ele>
        <time>2011-09-24T15:48:42Z</time>
      </trkpt>
      <trkpt lat="43.73143" lon="7.27563">
        <ele>243.418537</ele>
        <time>2011-09-24T15:48:43Z</time>
      </trkpt>
      <trkpt lat="43.73131" lon="7.27565">
        <ele>242.418533</ele>
        <time>2011-09-24T15:48:44Z</time>
      </trkpt>
      <trkpt lat="43.73121" lon="7.27569">
        <ele>241.418526</ele>
        <time>2011-09-24T15:48:45Z</time>
      </trkpt>
      <trkpt lat="43.7311" lon="7.27573">
        <ele>241.418518</ele>
        <time>2011-09-24T15:48:46Z</time>
      </trkpt>
      <trkpt lat="43.73096" lon="7.27577">
        <ele>240.418507</ele>
        <time>2011-09-24T15:48:47Z</time>
      </trkpt>
      <trkpt lat="43.73076" lon="7.27585">
        <ele>239.418495</ele>
        <time>2011-09-24T15:48:49Z</time>
      </trkpt>
      <trkpt lat="43.73067" lon="7.27589">
        <ele>239.418495</ele>
        <time>2011-09-24T15:48:50Z</time>
      </trkpt>
      <trkpt lat="43.73057" lon="7.27594">
        <ele>238.418495</ele>
        <time>2011-09-24T15:48:51Z</time>
      </trkpt>
      <trkpt lat="43.73048" lon="7.27597">
        <ele>238.41848</ele>
        <time>2011-09-24T15:48:52Z</time>
      </trkpt>
      <trkpt lat="43.73039" lon="7.276">
        <ele>237.41848</ele>
        <time>2011-09-24T15:48:53Z</time>
      </trkpt>
      <trkpt lat="43.7303" lon="7.27604">
        <ele>237.418472</ele>
        <time>2011-09-24T15:48:54Z</time>
      </trkpt>
      <trkpt lat="43.73021" lon="7.27608">
        <ele>236.418472</ele>
        <time>2011-09-24T15:48:55Z</time>
      </trkpt>
      <trkpt lat="43.73013" lon="7.27611">
        <ele>236.418472</ele>
        <time>2011-09-24T15:48:56Z</time>
      </trkpt>
      <trkpt lat="43.73005" lon="7.27615">
        <ele>235.418465</ele>
        <time>2011-09-24T15:48:57Z</time>
      </trkpt>
      <trkpt lat="43.72987" lon="7.27621">
        <ele>234.418457</ele>
        <time>2011-09-24T15:48:59Z</time>
      </trkpt>
      <trkpt lat="43.72961" lon="7.27654">
        <ele>233.418488</ele>
        <time>2011-09-24T15:49:05Z</time>
      </trkpt>
      <trkpt lat="43.72962" lon="7.27671">
        <ele>232.418526</ele>
        <time>2011-09-24T15:49:07Z</time>
      </trkpt>
      <trkpt lat="43.72963" lon="7.27685">
        <ele>231.41856</ele>
        <time>2011-09-24T15:49:09Z</time>
      </trkpt>
      <trkpt lat="43.72965" lon="7.277">
        <ele>230.418591</ele>
        <time>2011-09-24T15:49:11Z</time>
      </trkpt>
      <trkpt lat="43.72966" lon="7.27713">
        <ele>230.418621</ele>
        <time>2011-09-24T15:49:13Z</time>
      </trkpt>
      <trkpt lat="43.72966" lon="7.27726">
        <ele>229.418648</ele>
        <time>2011-09-24T15:49:15Z</time>
      </trkpt>
      <trkpt lat="43.72967" lon="7.27739">
        <ele>228.418678</ele>
        <time>2011-09-24T15:49:17Z</time>
      </trkpt>
      <trkpt lat="43.72969" lon="7.27756">
        <ele>227.418716</ele>
        <time>2011-09-24T15:49:20Z</time>
      </trkpt>
      <trkpt lat="43.72961" lon="7.27767">
        <ele>226.418732</ele>
        <time>2011-09-24T15:49:23Z</time>
      </trkpt>
      <trkpt lat="43.72951" lon="7.27776">
        <ele>226.418732</ele>
        <time>2011-09-24T15:49:26Z</time>
      </trkpt>
      <trkpt lat="43.72945" lon="7.27795">
        <ele>219.41877</ele>
        <time>2011-09-24T15:49:43Z</time>
      </trkpt>
      <trkpt lat="43.72946" lon="7.27809">
        <ele>217.4188</ele>
        <time>2011-09-24T15:49:54Z</time>
      </trkpt>
      <trkpt lat="43.72946" lon="7.27822">
        <ele>214.418823</ele>
        <time>2011-09-24T15:50:07Z</time>
      </trkpt>
    </trkseg>
  </trk>
</gpx>